Time,TemperatureF,DewpointF,PressureIn,WindDirection,WindDirectionDegrees,WindSpeedMPH,WindSpeedGustMPH,Humidity,HourlyPrecipIn,Conditions,Clouds,dailyrainin,SolarRadiationWatts/m^2,SoftwareType,DateUTC
2013-08-29 00:01:00,70.0,69.2,30.01,NE,46,0.0,2.0,97,0.00,,,0.04,0.00,VWS V14.01,2013-08-29 04:01:00,
2013-08-29 00:02:00,70.5,69.6,29.98,NNE,14,1.3,2.0,97,0.00,,,0.00,0.00,VWS V14.01,2013-08-29 04:02:00,
2013-08-29 00:03:00,70.8,69.7,29.99,NNE,19,3.0,3.4,96,0.00,,,0.00,0.00,VWS V14.01,2013-08-29 04:03:00,
2013-08-29 00:04:00,70.1,68.9,29.99,North,9,1.8,3.0,96,0.00,,,0.00,0.00,VWS V14.01,2013-08-29 04:04:00,
2013-08-29 00:05:00,70.1,68.9,29.99,North,9,1.8,3.0,96,0.00,,,0.00,0.00,VWS V14.01,2013-08-29 04:05:00,
2013-08-29 00:06:00,70.4,69.1,29.98,NE,34,3.0,3.0,96,0.00,,,0.00,0.00,VWS V14.01,2013-08-29 04:06:00,
2013-08-29 00:07:00,71.0,69.8,29.98,North,351,2.7,3.0,96,0.00,,,0.00,0.00,VWS V14.01,2013-08-29 04:07:00,
2013-08-29 00:08:00,70.2,68.8,30.00,NNW,332,2.0,3.0,95,0.00,,,0.00,0.00,VWS V14.01,2013-08-29 04:08:00,
2013-08-29 00:09:00,69.6,68.1,29.99,NNW,332,0.0,2.0,95,0.00,,,0.00,0.00,VWS V14.01,2013-08-29 04:09:00,
2013-08-29 00:10:00,69.7,68.1,29.99,NNW,332,1.0,2.0,95,0.00,,,0.00,0.00,VWS V14.01,2013-08-29 04:10:00,
2013-08-29 00:11:00,69.6,66.8,29.98,NNW,332,0.0,0.0,91,0.00,,,0.00,0.00,VWS V14.01,2013-08-29 04:11:00,
2013-08-29 00:12:00,69.6,68.3,29.98,NNW,332,2.3,2.3,96,0.00,,,0.00,0.00,VWS V14.01,2013-08-29 04:12:00,
2013-08-29 00:13:00,69.1,67.9,29.98,NNW,332,2.5,2.5,96,0.00,,,0.00,0.00,VWS V14.01,2013-08-29 04:13:00,
2013-08-29 00:14:00,70.0,67.6,29.98,North,1,1.0,2.0,92,0.00,,,0.00,0.00,VWS V14.01,2013-08-29 04:14:00,
2013-08-29 00:15:00,69.6,68.6,29.98,North,349,2.5,2.5,97,0.00,,,0.00,0.00,VWS V14.01,2013-08-29 04:15:00,
2013-08-29 00:16:00,69.6,68.6,29.98,North,349,2.5,2.5,97,0.00,,,0.00,0.00,VWS V14.01,2013-08-29 04:16:00,
2013-08-29 00:17:00,69.7,68.7,29.98,NE,35,2.7,2.7,97,0.00,,,0.00,0.43,VWS V14.01,2013-08-29 04:17:00,
2013-08-29 00:18:00,69.7,68.8,29.98,ENE,57,0.0,2.7,97,0.00,,,0.00,0.00,VWS V14.01,2013-08-29 04:18:00,
2013-08-29 00:20:00,69.6,68.6,29.98,NNE,28,0.0,0.0,97,0.00,,,0.00,0.73,VWS V14.01,2013-08-29 04:20:00,
2013-08-29 00:21:00,69.6,68.6,29.98,NNE,28,0.0,0.0,97,0.00,,,0.00,0.73,VWS V14.01,2013-08-29 04:21:00,
2013-08-29 00:22:00,69.9,68.9,29.99,ENE,59,2.5,2.5,97,0.00,,,0.00,0.00,VWS V14.01,2013-08-29 04:22:00,
2013-08-29 00:23:00,69.9,68.9,29.99,NNE,33,1.5,2.5,97,0.00,,,0.00,0.43,VWS V14.01,2013-08-29 04:23:00,
2013-08-29 00:24:00,69.4,67.7,29.98,NE,37,0.0,3.0,94,0.00,,,0.00,0.12,VWS V14.01,2013-08-29 04:24:00,
2013-08-29 00:25:00,69.2,68.1,29.99,NE,37,0.0,0.0,96,0.00,,,0.00,0.00,VWS V14.01,2013-08-29 04:25:00,
2013-08-29 00:26:00,69.6,68.5,29.99,NE,35,1.3,1.3,96,0.00,,,0.00,0.00,VWS V14.01,2013-08-29 04:26:00,
2013-08-29 00:27:00,69.7,68.6,29.99,NNE,32,1.0,1.3,96,0.00,,,0.00,0.12,VWS V14.01,2013-08-29 04:27:00,
2013-08-29 00:28:00,69.6,68.6,29.98,NE,46,0.0,0.0,96,0.00,,,0.00,0.73,VWS V14.01,2013-08-29 04:28:00,
2013-08-29 00:29:00,69.9,68.9,29.99,NNE,32,1.3,1.3,96,0.00,,,0.00,0.73,VWS V14.01,2013-08-29 04:29:00,
2013-08-29 00:30:00,69.6,68.4,29.99,West,277,1.0,1.0,96,0.00,,,0.00,0.00,VWS V14.01,2013-08-29 04:30:00,
2013-08-29 00:31:00,69.5,68.3,30.00,NNW,330,2.0,2.0,96,0.00,,,0.00,0.43,VWS V14.01,2013-08-29 04:31:00,
2013-08-29 00:32:00,69.5,68.3,29.99,NW,307,0.0,2.0,96,0.00,,,0.00,0.00,VWS V14.01,2013-08-29 04:32:00,
2013-08-29 00:33:00,69.3,68.1,29.99,NW,307,0.0,0.0,96,0.00,,,0.00,0.00,VWS V14.01,2013-08-29 04:33:00,
2013-08-29 00:34:00,69.2,68.1,29.99,NW,307,0.0,0.0,96,0.00,,,0.00,0.00,VWS V14.01,2013-08-29 04:34:00,
2013-08-29 00:35:00,69.5,68.4,29.99,ENE,66,0.0,0.0,96,0.00,,,0.00,0.00,VWS V14.01,2013-08-29 04:35:00,
2013-08-29 00:36:00,69.1,68.0,29.98,NNW,336,0.0,0.0,96,0.00,,,0.00,0.00,VWS V14.01,2013-08-29 04:36:00,
2013-08-29 00:37:00,69.5,68.4,29.99,North,2,0.0,0.0,96,0.00,,,0.00,0.00,VWS V14.01,2013-08-29 04:37:00,
2013-08-29 00:38:00,69.3,68.2,29.99,North,2,0.0,0.0,96,0.00,,,0.00,0.00,VWS V14.01,2013-08-29 04:38:00,
2013-08-29 00:39:00,69.3,68.1,29.99,North,2,0.0,0.0,96,0.00,,,0.00,0.00,VWS V14.01,2013-08-29 04:39:00,
2013-08-29 00:40:00,69.0,67.8,29.99,North,2,0.0,0.0,96,0.00,,,0.00,0.00,VWS V14.01,2013-08-29 04:40:00,
2013-08-29 00:41:00,69.5,68.3,29.99,NE,51,1.1,1.1,96,0.00,,,0.00,0.00,VWS V14.01,2013-08-29 04:41:00,
2013-08-29 00:42:00,69.1,68.0,29.99,NNW,328,1.5,1.5,96,0.00,,,0.00,0.00,VWS V14.01,2013-08-29 04:42:00,
2013-08-29 00:43:00,69.5,68.3,29.99,NE,41,1.5,1.5,96,0.00,,,0.00,0.00,VWS V14.01,2013-08-29 04:43:00,
2013-08-29 00:44:00,69.5,68.3,29.98,NE,42,0.0,0.0,96,0.00,,,0.00,0.12,VWS V14.01,2013-08-29 04:44:00,
2013-08-29 00:45:00,69.0,67.8,29.98,NE,40,0.0,0.0,96,0.00,,,0.00,0.00,VWS V14.01,2013-08-29 04:45:00,
2013-08-29 00:46:00,69.0,67.8,29.99,NE,39,0.0,0.0,96,0.00,,,0.00,0.00,VWS V14.01,2013-08-29 04:46:00,
2013-08-29 00:47:00,69.3,68.2,29.98,NE,43,2.2,2.2,96,0.00,,,0.00,0.00,VWS V14.01,2013-08-29 04:47:00,
2013-08-29 00:48:00,69.2,68.1,29.97,NE,42,0.0,0.0,96,0.00,,,0.00,0.43,VWS V14.01,2013-08-29 04:48:00,
2013-08-29 00:49:00,69.3,68.1,29.99,NNE,20,0.0,0.0,96,0.00,,,0.00,0.00,VWS V14.01,2013-08-29 04:49:00,
2013-08-29 00:50:00,69.4,68.2,29.98,NNE,20,0.0,0.0,96,0.00,,,0.00,0.00,VWS V14.01,2013-08-29 04:50:00,
2013-08-29 00:51:00,69.7,68.6,29.98,NW,312,0.0,0.0,96,0.00,,,0.00,0.00,VWS V14.01,2013-08-29 04:51:00,
2013-08-29 00:52:00,69.0,67.8,29.99,NNW,343,0.0,0.0,96,0.00,,,0.00,0.00,VWS V14.01,2013-08-29 04:52:00,
2013-08-29 00:53:00,69.3,68.1,29.98,NNW,343,0.0,0.0,96,0.00,,,0.00,0.00,VWS V14.01,2013-08-29 04:53:00,
2013-08-29 00:54:00,69.0,67.8,29.98,NNW,342,0.0,0.0,96,0.00,,,0.00,0.43,VWS V14.01,2013-08-29 04:54:00,
2013-08-29 00:55:00,69.2,68.0,29.98,NNW,348,0.0,0.0,96,0.00,,,0.00,0.00,VWS V14.01,2013-08-29 04:55:00,
2013-08-29 00:56:00,69.4,68.2,29.98,NNW,348,0.0,0.0,96,0.00,,,0.00,0.00,VWS V14.01,2013-08-29 04:56:00,
2013-08-29 00:57:00,69.4,68.2,29.98,NNW,348,0.0,0.0,96,0.00,,,0.00,0.00,VWS V14.01,2013-08-29 04:57:00,
2013-08-29 00:58:00,69.5,68.2,29.99,North,349,0.0,0.0,96,0.00,,,0.00,0.00,VWS V14.01,2013-08-29 04:58:00,
2013-08-29 00:59:00,69.4,68.1,29.98,NNW,348,0.0,0.0,96,0.00,,,0.00,0.00,VWS V14.01,2013-08-29 04:59:00,
2013-08-29 01:00:00,69.0,67.7,29.98,NNW,348,0.0,0.0,95,0.00,,,0.00,0.00,VWS V14.01,2013-08-29 05:00:00,
2013-08-29 01:01:00,69.1,67.7,29.98,NNW,348,0.0,0.0,95,0.00,,,0.00,0.43,VWS V14.01,2013-08-29 05:01:00,
2013-08-29 01:02:00,69.1,67.7,29.98,NNW,348,0.0,0.0,95,0.00,,,0.00,0.43,VWS V14.01,2013-08-29 05:02:00,
2013-08-29 01:03:00,69.1,67.7,29.98,NNW,348,0.0,0.0,95,0.00,,,0.00,0.43,VWS V14.01,2013-08-29 05:03:00,
2013-08-29 01:05:00,68.8,67.4,29.99,North,349,0.0,0.0,95,0.00,,,0.00,0.00,VWS V14.01,2013-08-29 05:05:00,
2013-08-29 01:07:00,69.0,67.6,29.99,NNE,14,0.0,0.0,96,0.00,,,0.00,0.00,VWS V14.01,2013-08-29 05:07:00,
2013-08-29 01:08:00,69.2,67.8,29.99,NNE,14,0.0,0.0,96,0.00,,,0.00,0.73,VWS V14.01,2013-08-29 05:08:00,
2013-08-29 01:11:00,69.4,68.1,29.98,NNE,21,2.2,2.2,96,0.00,,,0.00,0.12,VWS V14.01,2013-08-29 05:11:00,
2013-08-29 01:13:00,69.4,67.9,29.99,NNE,26,1.3,1.3,95,0.00,,,0.00,0.00,VWS V14.01,2013-08-29 05:13:00,
2013-08-29 01:15:00,68.8,67.2,30.01,NNE,26,0.0,0.0,95,0.00,,,0.00,0.43,VWS V14.01,2013-08-29 05:15:00,
2013-08-29 01:16:00,68.5,66.8,29.99,NNE,23,0.0,1.1,94,0.00,,,0.00,0.00,VWS V14.01,2013-08-29 05:16:00,
2013-08-29 01:18:00,68.3,66.7,29.98,NNE,17,0.0,0.0,95,0.00,,,0.00,0.00,VWS V14.01,2013-08-29 05:18:00,
2013-08-29 01:21:00,68.3,67.1,29.99,North,351,0.0,0.0,96,0.00,,,0.00,0.00,VWS V14.01,2013-08-29 05:21:00,
2013-08-29 01:22:00,68.3,67.1,29.99,North,352,0.0,0.0,96,0.00,,,0.00,0.00,VWS V14.01,2013-08-29 05:22:00,
2013-08-29 01:23:00,68.5,67.2,29.99,North,350,2.0,2.0,96,0.00,,,0.00,0.00,VWS V14.01,2013-08-29 05:23:00,
2013-08-29 01:24:00,68.4,67.2,30.01,North,350,0.0,0.0,96,0.00,,,0.00,0.00,VWS V14.01,2013-08-29 05:24:00,
2013-08-29 01:26:00,68.0,66.8,29.98,North,350,0.0,0.0,96,0.00,,,0.00,0.12,VWS V14.01,2013-08-29 05:26:00,
2013-08-29 01:27:00,68.4,67.4,29.99,North,350,0.0,0.0,97,0.00,,,0.00,0.00,VWS V14.01,2013-08-29 05:27:00,
2013-08-29 01:28:00,68.0,67.0,29.99,North,350,0.0,0.0,96,0.00,,,0.00,0.00,VWS V14.01,2013-08-29 05:28:00,
2013-08-29 01:29:00,68.2,67.2,29.98,North,350,0.0,0.0,96,0.00,,,0.00,0.00,VWS V14.01,2013-08-29 05:29:00,
2013-08-29 01:33:00,68.0,67.1,29.98,North,350,0.0,0.0,97,0.00,,,0.00,0.00,VWS V14.01,2013-08-29 05:33:00,
2013-08-29 01:34:00,67.7,66.8,29.98,North,350,0.0,0.0,97,0.00,,,0.00,0.12,VWS V14.01,2013-08-29 05:34:00,
2013-08-29 01:35:00,67.5,66.7,29.98,North,350,0.0,0.0,97,0.00,,,0.00,0.12,VWS V14.01,2013-08-29 05:35:00,
2013-08-29 01:36:00,68.4,67.7,29.98,NNE,32,1.5,1.5,98,0.00,,,0.00,0.00,VWS V14.01,2013-08-29 05:36:00,
2013-08-29 01:38:00,68.4,66.5,29.99,NNE,25,1.8,1.8,94,0.00,,,0.00,0.73,VWS V14.01,2013-08-29 05:38:00,
2013-08-29 01:39:00,68.4,66.5,29.99,NNE,25,1.8,1.8,94,0.00,,,0.00,0.73,VWS V14.01,2013-08-29 05:39:00,
2013-08-29 01:40:00,68.4,66.5,29.99,NNE,25,1.8,1.8,94,0.00,,,0.00,0.73,VWS V14.01,2013-08-29 05:40:00,
2013-08-29 01:41:00,68.2,67.4,29.98,NNE,25,0.0,1.5,97,0.00,,,0.00,0.00,VWS V14.01,2013-08-29 05:41:00,
2013-08-29 01:42:00,67.4,66.5,29.98,NNE,25,0.0,0.0,97,0.00,,,0.00,0.00,VWS V14.01,2013-08-29 05:42:00,
2013-08-29 01:45:00,67.6,66.7,29.99,NNE,30,0.0,0.0,97,0.00,,,0.00,0.00,VWS V14.01,2013-08-29 05:45:00,
2013-08-29 01:47:00,67.6,66.7,29.99,NNE,30,0.0,0.0,97,0.00,,,0.00,0.06,VWS V14.01,2013-08-29 05:47:00,
2013-08-29 01:48:00,67.1,66.2,29.99,NNE,30,0.0,0.0,97,0.00,,,0.00,0.00,VWS V14.01,2013-08-29 05:48:00,
2013-08-29 01:50:00,67.7,66.8,29.99,North,4,0.0,0.0,97,0.00,,,0.00,0.00,VWS V14.01,2013-08-29 05:50:00,
2013-08-29 01:51:00,67.5,66.7,29.98,North,4,0.0,0.0,97,0.00,,,0.00,0.00,VWS V14.01,2013-08-29 05:51:00,
2013-08-29 01:52:00,67.5,66.8,29.99,North,4,0.0,0.0,97,0.00,,,0.00,0.00,VWS V14.01,2013-08-29 05:52:00,
2013-08-29 01:53:00,67.2,66.4,29.99,North,4,0.0,0.0,97,0.00,,,0.00,0.00,VWS V14.01,2013-08-29 05:53:00,
2013-08-29 01:56:00,67.3,66.6,29.99,North,4,0.0,0.0,97,0.00,,,0.00,0.00,VWS V14.01,2013-08-29 05:56:00,
2013-08-29 01:57:00,67.0,66.3,30.00,North,4,0.0,0.0,98,0.00,,,0.00,0.00,VWS V14.01,2013-08-29 05:57:00,
2013-08-29 01:58:00,67.3,66.7,29.99,North,4,0.0,0.0,98,0.00,,,0.00,0.00,VWS V14.01,2013-08-29 05:58:00,
2013-08-29 01:59:00,67.0,66.6,29.99,North,4,0.0,0.0,98,0.00,,,0.00,0.00,VWS V14.01,2013-08-29 05:59:00,
2013-08-29 02:02:00,67.7,67.4,29.99,North,5,0.0,0.0,99,0.00,,,0.00,0.43,VWS V14.01,2013-08-29 06:02:00,
2013-08-29 02:03:00,67.4,67.1,29.98,North,5,0.0,0.0,99,0.00,,,0.00,0.00,VWS V14.01,2013-08-29 06:03:00,
2013-08-29 02:04:00,67.0,66.5,29.99,North,5,0.0,0.0,98,0.00,,,0.00,0.00,VWS V14.01,2013-08-29 06:04:00,
2013-08-29 02:05:00,66.7,66.2,29.99,North,5,0.0,0.0,98,0.00,,,0.00,0.00,VWS V14.01,2013-08-29 06:05:00,
2013-08-29 02:06:00,67.3,66.9,29.98,North,4,0.0,0.0,99,0.00,,,0.00,0.00,VWS V14.01,2013-08-29 06:06:00,
2013-08-29 02:09:00,67.7,67.4,29.99,North,0,0.0,0.0,99,0.00,,,0.00,0.00,VWS V14.01,2013-08-29 06:09:00,
2013-08-29 02:10:00,67.4,67.2,30.01,North,0,0.0,0.0,99,0.00,,,0.00,0.00,VWS V14.01,2013-08-29 06:10:00,
2013-08-29 02:12:00,67.1,66.9,29.99,North,0,0.0,0.0,99,0.00,,,0.00,0.00,VWS V14.01,2013-08-29 06:12:00,
2013-08-29 02:14:00,67.0,66.7,29.99,North,0,0.0,0.0,99,0.00,,,0.00,0.00,VWS V14.01,2013-08-29 06:14:00,
2013-08-29 02:16:00,67.3,67.1,29.99,NNE,21,0.0,0.0,99,0.00,,,0.00,0.00,VWS V14.01,2013-08-29 06:16:00,
2013-08-29 02:17:00,67.1,66.9,29.99,NNE,21,0.0,2.2,99,0.00,,,0.00,0.43,VWS V14.01,2013-08-29 06:17:00,
2013-08-29 02:21:00,67.6,67.4,30.00,NNE,23,2.2,3.0,99,0.00,,,0.00,0.00,VWS V14.01,2013-08-29 06:21:00,
2013-08-29 02:22:00,67.6,67.3,29.99,NNE,23,2.3,3.0,99,0.00,,,0.00,0.00,VWS V14.01,2013-08-29 06:22:00,
2013-08-29 02:23:00,67.7,67.3,29.99,NNE,24,1.5,3.0,99,0.00,,,0.00,0.00,VWS V14.01,2013-08-29 06:23:00,
2013-08-29 02:26:00,67.4,66.7,29.98,NNE,27,0.0,3.0,98,0.00,,,0.00,0.43,VWS V14.01,2013-08-29 06:26:00,
2013-08-29 02:28:00,66.9,66.2,29.99,NNE,22,0.0,3.0,98,0.00,,,0.00,0.00,VWS V14.01,2013-08-29 06:28:00,
2013-08-29 02:29:00,66.9,66.2,29.99,NNE,22,0.0,3.0,98,0.00,,,0.00,0.00,VWS V14.01,2013-08-29 06:29:00,
2013-08-29 02:30:00,67.8,67.1,29.99,NE,52,1.6,3.0,97,0.00,,,0.00,0.00,VWS V14.01,2013-08-29 06:30:00,
2013-08-29 02:33:00,66.9,66.2,29.98,NE,41,0.0,3.0,97,0.00,,,0.00,0.43,VWS V14.01,2013-08-29 06:33:00,
2013-08-29 02:35:00,66.8,66.2,29.98,NNE,21,0.0,3.0,98,0.00,,,0.00,0.12,VWS V14.01,2013-08-29 06:35:00,
2013-08-29 02:36:00,67.2,66.6,29.99,NNE,27,2.2,3.0,98,0.00,,,0.00,0.00,VWS V14.01,2013-08-29 06:36:00,
2013-08-29 02:37:00,67.5,66.8,29.98,NNE,27,2.5,3.0,98,0.00,,,0.00,0.43,VWS V14.01,2013-08-29 06:37:00,
2013-08-29 02:38:00,67.2,66.6,29.98,NNE,17,1.0,3.0,98,0.00,,,0.00,0.00,VWS V14.01,2013-08-29 06:38:00,
2013-08-29 02:40:00,67.3,66.7,29.98,NNE,23,2.3,3.0,98,0.00,,,0.00,0.12,VWS V14.01,2013-08-29 06:40:00,
2013-08-29 02:41:00,67.5,66.9,29.97,NNE,22,2.0,3.0,98,0.00,,,0.00,0.00,VWS V14.01,2013-08-29 06:41:00,
2013-08-29 02:42:00,67.2,66.5,29.97,NNE,28,1.8,3.0,98,0.00,,,0.00,0.12,VWS V14.01,2013-08-29 06:42:00,
2013-08-29 02:43:00,67.2,66.4,29.99,NNE,15,0.0,3.0,97,0.00,,,0.00,0.00,VWS V14.01,2013-08-29 06:43:00,
2013-08-29 02:45:00,67.0,66.1,29.98,NNE,30,0.0,3.0,97,0.00,,,0.00,0.00,VWS V14.01,2013-08-29 06:45:00,
2013-08-29 02:47:00,66.7,65.8,29.99,North,6,0.0,3.0,97,0.00,,,0.00,0.00,VWS V14.01,2013-08-29 06:47:00,
2013-08-29 02:48:00,67.1,66.3,29.99,NNE,12,2.5,3.0,98,0.00,,,0.00,0.00,VWS V14.01,2013-08-29 06:48:00,
2013-08-29 02:51:00,66.9,66.2,29.99,NNE,27,1.1,3.0,98,0.00,,,0.00,0.00,VWS V14.01,2013-08-29 06:51:00,
2013-08-29 02:53:00,66.9,66.2,29.98,NNE,24,0.0,3.0,97,0.00,,,0.00,0.00,VWS V14.01,2013-08-29 06:53:00,
2013-08-29 02:54:00,67.2,66.5,29.99,NE,38,2.3,3.0,98,0.00,,,0.00,0.73,VWS V14.01,2013-08-29 06:54:00,
2013-08-29 02:56:00,67.2,66.5,29.99,NE,46,0.0,3.0,98,0.00,,,0.00,0.00,VWS V14.01,2013-08-29 06:56:00,
2013-08-29 02:58:00,67.6,66.9,30.00,NNE,15,2.3,3.0,98,0.00,,,0.00,0.00,VWS V14.01,2013-08-29 06:58:00,
2013-08-29 02:59:00,67.3,66.5,30.00,NNE,16,0.0,3.0,97,0.00,,,0.00,0.00,VWS V14.01,2013-08-29 06:59:00,
2013-08-29 03:00:00,66.8,66.0,29.98,NE,38,2.2,3.0,97,0.00,,,0.00,0.12,VWS V14.01,2013-08-29 07:00:00,
2013-08-29 03:01:00,66.8,66.0,29.98,NE,38,2.2,3.0,97,0.00,,,0.00,0.12,VWS V14.01,2013-08-29 07:01:00,
2013-08-29 03:02:00,66.9,66.0,29.98,NE,47,2.2,3.0,97,0.00,,,0.00,0.00,VWS V14.01,2013-08-29 07:02:00,
2013-08-29 03:03:00,68.8,67.4,29.99,North,349,0.0,0.0,95,0.00,,,0.00,0.43,VWS V14.01,2013-08-29 07:03:00,
2013-08-29 03:04:00,68.8,67.4,29.99,North,349,0.0,0.0,95,0.00,,,0.00,0.00,VWS V14.01,2013-08-29 07:04:00,
2013-08-29 03:05:00,67.1,66.4,29.98,NE,47,0.0,3.0,98,0.00,,,0.00,0.73,VWS V14.01,2013-08-29 07:05:00,
2013-08-29 03:06:00,66.2,65.4,29.99,NE,47,0.0,3.0,97,0.00,,,0.00,0.12,VWS V14.01,2013-08-29 07:06:00,
2013-08-29 03:07:00,69.0,67.6,29.99,NNE,14,0.0,0.0,96,0.00,,,0.00,0.00,VWS V14.01,2013-08-29 07:07:00,
2013-08-29 03:08:00,66.3,65.4,29.99,NE,47,0.0,3.0,97,0.00,,,0.00,0.12,VWS V14.01,2013-08-29 07:08:00,
2013-08-29 03:09:00,68.5,67.1,29.99,NNE,14,0.0,1.1,95,0.00,,,0.00,0.73,VWS V14.01,2013-08-29 07:09:00,
2013-08-29 03:10:00,67.0,66.4,29.99,NE,47,0.0,3.0,98,0.00,,,0.00,0.00,VWS V14.01,2013-08-29 07:10:00,
2013-08-29 03:11:00,66.9,66.4,29.99,NE,45,1.1,3.0,98,0.00,,,0.00,0.73,VWS V14.01,2013-08-29 07:11:00,
2013-08-29 03:12:00,69.2,67.7,30.01,NNE,26,1.3,1.3,95,0.00,,,0.00,0.00,VWS V14.01,2013-08-29 07:12:00,
2013-08-29 03:13:00,67.2,66.6,29.99,NNE,26,2.3,3.0,98,0.00,,,0.00,0.43,VWS V14.01,2013-08-29 07:13:00,
2013-08-29 03:14:00,69.0,67.4,29.99,NNE,26,0.0,1.0,95,0.00,,,0.00,0.00,VWS V14.01,2013-08-29 07:14:00,
2013-08-29 03:15:00,67.0,65.5,29.99,NNE,26,1.0,3.0,95,0.00,,,0.00,0.00,VWS V14.01,2013-08-29 07:15:00,
2013-08-29 03:16:00,66.5,65.9,30.00,NNE,26,0.0,3.0,98,0.00,,,0.00,0.00,VWS V14.01,2013-08-29 07:16:00,
2013-08-29 03:17:00,66.4,65.8,30.00,NNE,26,0.0,3.0,98,0.00,,,0.00,0.00,VWS V14.01,2013-08-29 07:17:00,
2013-08-29 03:18:00,68.2,66.7,29.98,North,351,0.0,0.0,95,0.00,,,0.00,0.00,VWS V14.01,2013-08-29 07:18:00,
2013-08-29 03:19:00,66.1,65.5,29.99,NNE,26,0.0,3.0,98,0.00,,,0.00,0.73,VWS V14.01,2013-08-29 07:19:00,
2013-08-29 03:20:00,66.0,65.5,29.99,NNE,26,0.0,3.0,98,0.00,,,0.00,0.12,VWS V14.01,2013-08-29 07:20:00,
2013-08-29 03:21:00,68.3,67.1,29.99,North,352,0.0,0.0,96,0.00,,,0.00,0.00,VWS V14.01,2013-08-29 07:21:00,
2013-08-29 03:22:00,66.0,65.6,29.99,NNE,26,0.0,3.0,99,0.00,,,0.00,0.43,VWS V14.01,2013-08-29 07:22:00,
2013-08-29 03:23:00,68.2,67.0,29.98,North,350,0.0,2.0,96,0.00,,,0.00,0.00,VWS V14.01,2013-08-29 07:23:00,
2013-08-29 03:24:00,68.1,66.9,29.99,North,350,0.0,0.0,96,0.00,,,0.00,0.00,VWS V14.01,2013-08-29 07:24:00,
2013-08-29 03:25:00,65.9,65.7,29.99,North,360,0.0,3.0,99,0.00,,,0.00,0.00,VWS V14.01,2013-08-29 07:25:00,
2013-08-29 03:26:00,65.7,65.5,29.99,North,360,0.0,3.0,99,0.00,,,0.00,0.00,VWS V14.01,2013-08-29 07:26:00,
2013-08-29 03:27:00,65.7,65.6,29.99,North,360,0.0,3.0,100,0.00,,,0.00,0.00,VWS V14.01,2013-08-29 07:27:00,
2013-08-29 03:28:00,68.0,67.0,29.99,North,350,0.0,0.0,96,0.00,,,0.00,0.00,VWS V14.01,2013-08-29 07:28:00,
2013-08-29 03:29:00,65.7,65.6,30.00,North,0,0.0,3.0,100,0.00,,,0.00,0.00,VWS V14.01,2013-08-29 07:29:00,
2013-08-29 03:30:00,65.9,65.9,29.99,North,0,0.0,3.0,100,0.00,,,0.00,0.00,VWS V14.01,2013-08-29 07:30:00,
2013-08-29 03:31:00,66.0,66.0,29.99,North,0,1.1,3.0,100,0.00,,,0.00,0.00,VWS V14.01,2013-08-29 07:31:00,
2013-08-29 03:32:00,67.9,67.0,29.98,North,350,0.0,0.0,97,0.00,,,0.00,0.00,VWS V14.01,2013-08-29 07:32:00,
2013-08-29 03:33:00,68.0,67.1,29.98,North,350,0.0,0.0,97,0.00,,,0.00,0.00,VWS V14.01,2013-08-29 07:33:00,
2013-08-29 03:34:00,65.9,65.9,29.99,North,360,0.0,3.0,100,0.00,,,0.00,0.00,VWS V14.01,2013-08-29 07:34:00,
2013-08-29 03:35:00,66.2,66.2,29.99,North,9,0.0,3.0,100,0.00,,,0.00,0.00,VWS V14.01,2013-08-29 07:35:00,
2013-08-29 03:36:00,66.2,66.2,30.00,North,9,0.0,3.0,100,0.00,,,0.00,0.00,VWS V14.01,2013-08-29 07:36:00,
2013-08-29 03:37:00,67.9,67.1,29.99,NNE,25,0.0,1.1,97,0.00,,,0.00,0.00,VWS V14.01,2013-08-29 07:37:00,
2013-08-29 03:39:00,68.2,67.5,29.99,NE,34,0.0,1.8,98,0.00,,,0.00,0.00,VWS V14.01,2013-08-29 07:39:00,
2013-08-29 03:40:00,66.2,66.2,29.99,North,7,0.0,3.0,100,0.00,,,0.00,0.00,VWS V14.01,2013-08-29 07:40:00,
2013-08-29 03:41:00,66.2,66.2,29.99,North,7,0.0,3.0,100,0.00,,,0.00,0.00,VWS V14.01,2013-08-29 07:41:00,
2013-08-29 03:42:00,66.1,66.1,29.99,North,7,0.0,3.0,100,0.00,,,0.00,0.00,VWS V14.01,2013-08-29 07:42:00,
2013-08-29 03:43:00,65.8,65.8,29.99,North,7,0.0,3.0,100,0.00,,,0.00,0.00,VWS V14.01,2013-08-29 07:43:00,
2013-08-29 03:44:00,67.4,66.5,29.99,NNE,29,0.0,1.8,97,0.00,,,0.00,0.00,VWS V14.01,2013-08-29 07:44:00,
2013-08-29 03:45:00,67.6,66.7,29.99,NNE,30,0.0,0.0,97,0.00,,,0.00,0.00,VWS V14.01,2013-08-29 07:45:00,
2013-08-29 03:46:00,67.8,67.0,29.99,NNE,30,0.0,0.0,97,0.00,,,0.00,0.00,VWS V14.01,2013-08-29 07:46:00,
2013-08-29 03:47:00,65.8,65.8,29.99,North,7,0.0,3.0,100,0.00,,,0.00,0.00,VWS V14.01,2013-08-29 07:47:00,
2013-08-29 03:48:00,65.7,65.7,29.99,North,7,0.0,3.0,100,0.00,,,0.00,0.00,VWS V14.01,2013-08-29 07:48:00,
2013-08-29 03:49:00,65.7,65.7,30.00,NNE,17,1.0,3.0,100,0.00,,,0.00,0.00,VWS V14.01,2013-08-29 07:49:00,
2013-08-29 03:50:00,67.5,66.7,29.98,North,4,0.0,0.0,97,0.00,,,0.00,0.00,VWS V14.01,2013-08-29 07:50:00,
2013-08-29 03:51:00,67.6,66.8,29.98,North,4,0.0,0.0,97,0.00,,,0.00,0.00,VWS V14.01,2013-08-29 07:51:00,
2013-08-29 03:52:00,67.6,66.9,29.99,North,4,0.0,0.0,97,0.00,,,0.00,0.00,VWS V14.01,2013-08-29 07:52:00,
2013-08-29 03:53:00,66.3,66.3,29.98,NNE,26,2.5,3.0,100,0.00,,,0.00,0.00,VWS V14.01,2013-08-29 07:53:00,
2013-08-29 03:54:00,66.3,66.3,29.98,NNE,27,2.7,3.0,100,0.00,,,0.00,0.00,VWS V14.01,2013-08-29 07:54:00,
2013-08-29 03:55:00,66.5,66.5,29.99,NE,47,2.3,3.0,100,0.00,,,0.00,0.00,VWS V14.01,2013-08-29 07:55:00,
2013-08-29 03:56:00,65.9,65.9,29.99,NNE,25,2.2,3.0,100,0.00,,,0.00,0.00,VWS V14.01,2013-08-29 07:56:00,
2013-08-29 03:57:00,67.0,66.3,30.00,North,4,0.0,0.0,98,0.00,,,0.00,0.00,VWS V14.01,2013-08-29 07:57:00,
2013-08-29 03:58:00,67.3,66.8,29.98,North,4,0.0,0.0,98,0.00,,,0.00,0.00,VWS V14.01,2013-08-29 07:58:00,
2013-08-29 03:59:00,67.0,66.6,29.99,North,4,0.0,0.0,98,0.00,,,0.00,0.00,VWS V14.01,2013-08-29 07:59:00,
2013-08-29 04:01:00,65.7,65.7,30.00,NNE,28,0.0,3.0,100,0.00,,,0.00,0.00,VWS V14.01,2013-08-29 08:01:00,
2013-08-29 04:02:00,67.7,67.4,29.99,North,5,0.0,0.0,99,0.00,,,0.00,0.43,VWS V14.01,2013-08-29 08:02:00,
2013-08-29 04:03:00,65.5,65.5,29.99,NNE,28,0.0,3.0,100,0.00,,,0.00,0.00,VWS V14.01,2013-08-29 08:03:00,
2013-08-29 04:04:00,65.1,65.1,29.98,NNE,28,0.0,0.0,100,0.00,,,0.00,0.00,VWS V14.01,2013-08-29 08:04:00,
2013-08-29 04:05:00,65.0,64.9,29.98,NNE,28,0.0,0.0,100,0.00,,,0.00,0.00,VWS V14.01,2013-08-29 08:05:00,
2013-08-29 04:06:00,65.3,65.2,29.99,NNE,28,0.0,0.0,100,0.00,,,0.00,0.00,VWS V14.01,2013-08-29 08:06:00,
2013-08-29 04:07:00,64.8,64.8,29.99,NNE,28,0.0,0.0,100,0.00,,,0.00,0.00,VWS V14.01,2013-08-29 08:07:00,
2013-08-29 04:08:00,64.9,64.8,29.99,NNE,28,0.0,0.0,100,0.00,,,0.00,0.00,VWS V14.01,2013-08-29 08:08:00,
2013-08-29 04:10:00,64.4,64.2,29.99,SW,232,0.0,0.0,99,0.00,,,0.00,0.00,VWS V14.01,2013-08-29 08:10:00,
2013-08-29 04:11:00,64.5,64.4,29.99,SW,232,0.0,0.0,100,0.00,,,0.00,0.00,VWS V14.01,2013-08-29 08:11:00,
2013-08-29 04:12:00,65.0,64.9,29.99,SW,232,0.0,0.0,100,0.00,,,0.00,0.00,VWS V14.01,2013-08-29 08:12:00,
2013-08-29 04:13:00,64.1,64.1,29.99,SW,232,0.0,0.0,100,0.00,,,0.00,0.00,VWS V14.01,2013-08-29 08:13:00,
2013-08-29 04:14:00,64.1,64.0,30.00,SW,232,0.0,0.0,100,0.00,,,0.00,0.00,VWS V14.01,2013-08-29 08:14:00,
2013-08-29 04:15:00,63.9,63.8,30.00,SW,232,0.0,0.0,100,0.00,,,0.00,0.00,VWS V14.01,2013-08-29 08:15:00,
2013-08-29 04:16:00,64.4,64.4,30.00,SW,232,0.0,0.0,100,0.00,,,0.00,0.00,VWS V14.01,2013-08-29 08:16:00,
2013-08-29 04:17:00,64.5,64.5,29.99,SW,232,0.0,0.0,100,0.00,,,0.00,0.00,VWS V14.01,2013-08-29 08:17:00,
2013-08-29 04:18:00,63.7,63.7,29.99,SW,232,0.0,0.0,100,0.00,,,0.00,0.00,VWS V14.01,2013-08-29 08:18:00,
2013-08-29 04:19:00,64.2,64.2,29.99,SW,232,0.0,0.0,100,0.00,,,0.00,0.73,VWS V14.01,2013-08-29 08:19:00,
2013-08-29 04:20:00,63.7,63.7,29.99,SW,232,0.0,0.0,100,0.00,,,0.00,0.00,VWS V14.01,2013-08-29 08:20:00,
2013-08-29 04:21:00,63.5,63.5,29.99,SW,232,0.0,0.0,100,0.00,,,0.00,0.00,VWS V14.01,2013-08-29 08:21:00,
2013-08-29 04:22:00,63.5,63.5,29.98,SW,232,0.0,0.0,100,0.00,,,0.00,0.00,VWS V14.01,2013-08-29 08:22:00,
2013-08-29 04:23:00,63.8,63.8,29.99,SW,232,0.0,0.0,100,0.00,,,0.00,0.00,VWS V14.01,2013-08-29 08:23:00,
2013-08-29 04:24:00,65.4,65.4,29.99,NNW,344,0.0,0.0,100,0.00,,,0.00,0.00,VWS V14.01,2013-08-29 08:24:00,
2013-08-29 04:25:00,64.2,64.2,29.99,WNW,292,0.0,0.0,100,0.00,,,0.00,0.00,VWS V14.01,2013-08-29 08:25:00,
2013-08-29 04:26:00,65.2,65.2,29.99,North,8,0.0,0.0,100,0.00,,,0.00,0.00,VWS V14.01,2013-08-29 08:26:00,
2013-08-29 04:27:00,64.4,64.4,29.99,North,8,0.0,0.0,100,0.00,,,0.00,0.00,VWS V14.01,2013-08-29 08:27:00,
2013-08-29 04:28:00,64.6,64.6,29.99,North,8,0.0,0.0,100,0.00,,,0.00,0.00,VWS V14.01,2013-08-29 08:28:00,
2013-08-29 04:29:00,64.4,64.4,29.99,North,8,0.0,0.0,100,0.00,,,0.00,0.43,VWS V14.01,2013-08-29 08:29:00,
2013-08-29 04:30:00,64.6,64.6,29.99,NNW,334,0.0,0.0,100,0.00,,,0.00,0.43,VWS V14.01,2013-08-29 08:30:00,
2013-08-29 04:31:00,65.0,65.0,30.00,NW,325,0.0,0.0,100,0.00,,,0.00,0.00,VWS V14.01,2013-08-29 08:31:00,
2013-08-29 04:32:00,65.0,65.0,30.00,NW,325,0.0,0.0,100,0.00,,,0.00,0.00,VWS V14.01,2013-08-29 08:32:00,
2013-08-29 04:33:00,65.2,65.2,29.99,NW,325,0.0,0.0,100,0.00,,,0.00,0.00,VWS V14.01,2013-08-29 08:33:00,
2013-08-29 04:34:00,64.3,64.3,30.00,NW,325,0.0,0.0,100,0.00,,,0.00,0.00,VWS V14.01,2013-08-29 08:34:00,
2013-08-29 04:35:00,64.0,64.0,30.00,NW,325,0.0,0.0,100,0.00,,,0.00,0.00,VWS V14.01,2013-08-29 08:35:00,
2013-08-29 04:36:00,63.8,63.6,29.99,NW,325,0.0,0.0,99,0.00,,,0.00,0.00,VWS V14.01,2013-08-29 08:36:00,
2013-08-29 04:37:00,63.9,63.9,30.00,NW,325,0.0,0.0,100,0.00,,,0.00,0.00,VWS V14.01,2013-08-29 08:37:00,
2013-08-29 04:38:00,64.0,64.0,30.00,NW,325,0.0,0.0,100,0.00,,,0.00,0.00,VWS V14.01,2013-08-29 08:38:00,
2013-08-29 04:39:00,63.6,63.3,30.00,NW,325,0.0,0.0,99,0.00,,,0.00,0.00,VWS V14.01,2013-08-29 08:39:00,
2013-08-29 04:40:00,64.8,64.8,30.00,North,9,0.0,0.0,100,0.00,,,0.00,0.43,VWS V14.01,2013-08-29 08:40:00,
2013-08-29 04:41:00,64.5,64.5,30.00,North,9,0.0,0.0,100,0.00,,,0.00,0.00,VWS V14.01,2013-08-29 08:41:00,
2013-08-29 04:42:00,64.4,64.4,30.00,North,9,0.0,0.0,100,0.00,,,0.00,0.00,VWS V14.01,2013-08-29 08:42:00,
2013-08-29 04:43:00,64.2,64.2,30.00,North,9,0.0,0.0,100,0.00,,,0.00,0.43,VWS V14.01,2013-08-29 08:43:00,
2013-08-29 04:44:00,63.6,63.6,29.98,North,9,0.0,0.0,100,0.00,,,0.00,0.43,VWS V14.01,2013-08-29 08:44:00,
2013-08-29 04:45:00,63.7,63.7,29.99,North,9,0.0,0.0,100,0.00,,,0.00,0.00,VWS V14.01,2013-08-29 08:45:00,
2013-08-29 04:46:00,63.8,63.8,29.99,North,9,0.0,0.0,100,0.00,,,0.00,0.43,VWS V14.01,2013-08-29 08:46:00,
2013-08-29 04:47:00,63.3,63.3,29.99,North,9,0.0,0.0,100,0.00,,,0.00,0.00,VWS V14.01,2013-08-29 08:47:00,
2013-08-29 04:48:00,63.3,63.3,30.00,North,9,0.0,0.0,100,0.00,,,0.00,0.00,VWS V14.01,2013-08-29 08:48:00,
2013-08-29 04:49:00,62.8,62.8,30.00,North,9,0.0,0.0,100,0.00,,,0.00,0.00,VWS V14.01,2013-08-29 08:49:00,
2013-08-29 04:50:00,63.6,63.6,29.99,North,9,0.0,0.0,100,0.00,,,0.00,0.00,VWS V14.01,2013-08-29 08:50:00,
2013-08-29 04:51:00,64.0,64.0,30.00,North,9,0.0,0.0,100,0.00,,,0.00,0.00,VWS V14.01,2013-08-29 08:51:00,
2013-08-29 04:52:00,63.5,63.5,30.00,North,9,0.0,0.0,100,0.00,,,0.00,0.00,VWS V14.01,2013-08-29 08:52:00,
2013-08-29 04:53:00,63.5,63.5,30.00,North,9,0.0,0.0,100,0.00,,,0.00,0.00,VWS V14.01,2013-08-29 08:53:00,
2013-08-29 04:54:00,63.7,63.7,29.99,North,9,0.0,0.0,100,0.00,,,0.00,0.00,VWS V14.01,2013-08-29 08:54:00,
2013-08-29 04:55:00,63.8,63.8,29.99,North,9,0.0,0.0,100,0.00,,,0.00,0.00,VWS V14.01,2013-08-29 08:55:00,
2013-08-29 04:56:00,63.6,63.6,29.98,NNW,341,0.0,0.0,100,0.00,,,0.00,0.43,VWS V14.01,2013-08-29 08:56:00,
2013-08-29 04:57:00,63.2,63.2,29.99,NNW,340,1.1,1.1,100,0.00,,,0.00,0.00,VWS V14.01,2013-08-29 08:57:00,
2013-08-29 04:58:00,63.3,63.3,29.99,NNW,336,2.0,2.0,100,0.00,,,0.00,0.06,VWS V14.01,2013-08-29 08:58:00,
2013-08-29 04:59:00,63.2,63.3,30.00,NNW,336,0.0,0.0,100,0.00,,,0.00,0.12,VWS V14.01,2013-08-29 08:59:00,
2013-08-29 05:00:00,64.1,64.1,30.00,NNW,336,0.0,0.0,100,0.00,,,0.00,0.12,VWS V14.01,2013-08-29 09:00:00,
2013-08-29 05:01:00,64.5,64.5,30.00,NW,322,1.1,1.1,100,0.00,,,0.00,0.00,VWS V14.01,2013-08-29 09:01:00,
2013-08-29 05:02:00,64.0,64.0,30.00,NW,322,1.6,1.6,100,0.00,,,0.00,0.73,VWS V14.01,2013-08-29 09:02:00,
2013-08-29 05:06:00,63.0,63.0,30.00,NW,322,0.0,1.6,100,0.00,,,0.00,0.00,VWS V14.01,2013-08-29 09:06:00,
2013-08-29 05:07:00,63.2,63.2,30.00,NW,322,0.0,1.6,100,0.00,,,0.00,0.00,VWS V14.01,2013-08-29 09:07:00,
2013-08-29 05:08:00,63.7,63.7,30.00,NW,322,0.0,1.6,100,0.00,,,0.00,0.73,VWS V14.01,2013-08-29 09:08:00,
2013-08-29 05:12:00,63.2,63.2,30.00,NW,322,0.0,1.6,100,0.00,,,0.00,0.43,VWS V14.01,2013-08-29 09:12:00,
2013-08-29 05:13:00,62.8,62.8,30.00,NW,322,0.0,1.6,100,0.00,,,0.00,0.00,VWS V14.01,2013-08-29 09:13:00,
2013-08-29 05:14:00,63.0,63.0,30.01,NW,322,0.0,1.6,100,0.00,,,0.00,0.00,VWS V14.01,2013-08-29 09:14:00,
2013-08-29 05:17:00,63.4,63.4,30.01,NW,322,0.0,1.6,100,0.00,,,0.00,0.73,VWS V14.01,2013-08-29 09:17:00,
2013-08-29 05:18:00,63.4,63.4,30.00,NW,322,0.0,1.6,100,0.00,,,0.00,0.12,VWS V14.01,2013-08-29 09:18:00,
2013-08-29 05:19:00,63.6,63.6,30.00,NW,322,0.0,1.6,100,0.00,,,0.00,0.00,VWS V14.01,2013-08-29 09:19:00,
2013-08-29 05:20:00,63.7,63.8,30.00,NW,322,0.0,1.6,100,0.00,,,0.00,0.00,VWS V14.01,2013-08-29 09:20:00,
2013-08-29 05:22:00,62.6,62.6,29.99,NW,322,0.0,1.6,100,0.00,,,0.00,0.98,VWS V14.01,2013-08-29 09:22:00,
2013-08-29 05:23:00,62.2,62.2,30.00,NW,322,0.0,1.6,100,0.00,,,0.00,0.43,VWS V14.01,2013-08-29 09:23:00,
2013-08-29 05:24:00,62.9,62.9,30.02,NW,322,0.0,1.6,100,0.00,,,0.00,0.00,VWS V14.01,2013-08-29 09:24:00,
2013-08-29 05:25:00,63.3,63.3,30.01,NW,322,0.0,1.6,100,0.00,,,0.00,0.06,VWS V14.01,2013-08-29 09:25:00,
2013-08-29 05:26:00,63.5,63.5,30.00,NW,322,0.0,1.6,100,0.00,,,0.00,0.73,VWS V14.01,2013-08-29 09:26:00,
2013-08-29 05:30:00,63.4,63.4,30.03,NW,322,0.0,1.6,100,0.00,,,0.00,0.00,VWS V14.01,2013-08-29 09:30:00,
2013-08-29 05:31:00,64.3,64.3,30.01,NW,322,0.0,1.6,100,0.00,,,0.00,0.00,VWS V14.01,2013-08-29 09:31:00,
2013-08-29 05:33:00,63.9,63.9,30.02,NNE,29,0.0,1.6,100,0.00,,,0.00,0.00,VWS V14.01,2013-08-29 09:33:00,
2013-08-29 05:36:00,63.6,63.6,30.01,NNE,28,0.0,1.6,100,0.00,,,0.00,0.43,VWS V14.01,2013-08-29 09:36:00,
2013-08-29 05:37:00,63.2,63.2,30.00,NNE,28,0.0,1.6,100,0.00,,,0.00,0.12,VWS V14.01,2013-08-29 09:37:00,
2013-08-29 05:39:00,63.3,63.3,29.99,NNE,28,0.0,1.6,100,0.00,,,0.00,0.00,VWS V14.01,2013-08-29 09:39:00,
2013-08-29 05:41:00,63.7,63.7,29.99,NNE,28,0.0,1.6,100,0.00,,,0.00,0.00,VWS V14.01,2013-08-29 09:41:00,
2013-08-29 05:42:00,63.7,63.7,30.00,NNE,28,0.0,1.6,100,0.00,,,0.00,0.00,VWS V14.01,2013-08-29 09:42:00,
2013-08-29 05:43:00,63.8,63.8,30.00,North,9,0.0,1.6,100,0.00,,,0.00,0.43,VWS V14.01,2013-08-29 09:43:00,
2013-08-29 05:46:00,63.6,63.7,30.01,North,3,0.0,1.6,100,0.00,,,0.00,0.00,VWS V14.01,2013-08-29 09:46:00,
2013-08-29 05:47:00,63.7,63.7,30.00,North,3,0.0,1.6,100,0.00,,,0.00,0.12,VWS V14.01,2013-08-29 09:47:00,
2013-08-29 05:49:00,63.5,63.5,30.01,North,3,0.0,1.6,100,0.00,,,0.00,0.43,VWS V14.01,2013-08-29 09:49:00,
2013-08-29 05:51:00,63.9,63.9,30.00,North,3,0.0,1.6,100,0.00,,,0.00,0.00,VWS V14.01,2013-08-29 09:51:00,
2013-08-29 05:52:00,63.4,63.4,30.01,North,3,0.0,1.6,100,0.00,,,0.00,0.00,VWS V14.01,2013-08-29 09:52:00,
2013-08-29 05:54:00,63.5,63.5,30.00,North,3,0.0,1.6,100,0.00,,,0.00,0.43,VWS V14.01,2013-08-29 09:54:00,
2013-08-29 05:57:00,64.0,64.0,30.00,North,3,0.0,1.6,100,0.00,,,0.00,0.00,VWS V14.01,2013-08-29 09:57:00,
2013-08-29 05:58:00,63.8,63.8,30.00,North,3,0.0,1.6,100,0.00,,,0.00,0.00,VWS V14.01,2013-08-29 09:58:00,
2013-08-29 06:00:00,63.7,63.7,30.00,North,3,0.0,1.6,100,0.00,,,0.00,0.00,VWS V14.01,2013-08-29 10:00:00,
2013-08-29 06:01:00,63.7,63.7,30.00,North,3,0.0,1.6,100,0.00,,,0.00,0.00,VWS V14.01,2013-08-29 10:01:00,
2013-08-29 06:02:00,63.5,63.5,30.00,North,3,0.0,1.6,100,0.00,,,0.00,0.00,VWS V14.01,2013-08-29 10:02:00,
2013-08-29 06:04:00,62.3,62.3,30.01,North,3,0.0,0.0,100,0.00,,,0.00,0.00,VWS V14.01,2013-08-29 10:04:00,
2013-08-29 06:07:00,63.1,63.1,30.00,North,3,0.0,0.0,100,0.00,,,0.00,0.00,VWS V14.01,2013-08-29 10:07:00,
2013-08-29 06:08:00,63.2,63.2,30.01,North,3,0.0,0.0,100,0.00,,,0.00,0.00,VWS V14.01,2013-08-29 10:08:00,
2013-08-29 06:09:00,63.2,63.2,30.01,North,3,0.0,0.0,100,0.00,,,0.00,0.43,VWS V14.01,2013-08-29 10:09:00,
2013-08-29 06:10:00,63.1,63.1,30.01,North,3,0.0,0.0,100,0.00,,,0.00,0.00,VWS V14.01,2013-08-29 10:10:00,
2013-08-29 06:11:00,63.3,63.3,30.01,NNW,341,0.0,0.0,100,0.00,,,0.00,0.00,VWS V14.01,2013-08-29 10:11:00,
2013-08-29 06:14:00,62.8,62.8,30.01,NW,313,0.0,0.0,100,0.00,,,0.00,0.67,VWS V14.01,2013-08-29 10:14:00,
2013-08-29 06:15:00,62.3,62.3,30.01,NW,313,0.0,0.0,100,0.00,,,0.00,0.00,VWS V14.01,2013-08-29 10:15:00,
2013-08-29 06:17:00,63.0,63.0,30.02,NW,313,0.0,0.0,100,0.00,,,0.00,0.00,VWS V14.01,2013-08-29 10:17:00,
2013-08-29 06:20:00,63.3,63.3,30.01,WNW,301,0.0,0.0,100,0.00,,,0.00,0.00,VWS V14.01,2013-08-29 10:20:00,
2013-08-29 06:21:00,63.6,63.6,30.01,WNW,301,0.0,0.0,100,0.00,,,0.00,0.12,VWS V14.01,2013-08-29 10:21:00,
2013-08-29 06:22:00,63.7,63.7,30.00,WNW,301,0.0,0.0,100,0.00,,,0.00,0.43,VWS V14.01,2013-08-29 10:22:00,
2013-08-29 06:25:00,63.5,63.5,30.01,WNW,301,0.0,0.0,100,0.00,,,0.00,0.00,VWS V14.01,2013-08-29 10:25:00,
2013-08-29 06:28:00,64.0,64.0,30.01,WNW,301,0.0,0.0,100,0.00,,,0.00,0.00,VWS V14.01,2013-08-29 10:28:00,
2013-08-29 06:29:00,63.8,63.8,30.01,WNW,301,0.0,0.0,100,0.00,,,0.00,0.00,VWS V14.01,2013-08-29 10:29:00,
2013-08-29 06:33:00,63.8,63.8,30.01,North,11,0.0,0.0,100,0.00,,,0.00,0.00,VWS V14.01,2013-08-29 10:33:00,
2013-08-29 06:34:00,64.2,64.2,30.02,North,11,0.0,0.0,100,0.00,,,0.00,0.73,VWS V14.01,2013-08-29 10:34:00,
2013-08-29 06:35:00,63.8,63.8,30.01,North,11,0.0,0.0,100,0.00,,,0.00,0.00,VWS V14.01,2013-08-29 10:35:00,
2013-08-29 06:36:00,63.5,63.5,30.01,North,11,0.0,0.0,100,0.00,,,0.00,0.12,VWS V14.01,2013-08-29 10:36:00,
2013-08-29 06:39:00,63.6,63.6,30.02,North,11,0.0,0.0,100,0.00,,,0.00,0.43,VWS V14.01,2013-08-29 10:39:00,
2013-08-29 06:40:00,63.3,63.3,30.01,North,11,0.0,0.0,100,0.00,,,0.00,0.12,VWS V14.01,2013-08-29 10:40:00,
2013-08-29 06:41:00,63.2,63.2,30.01,North,11,0.0,0.0,100,0.00,,,0.00,0.00,VWS V14.01,2013-08-29 10:41:00,
2013-08-29 06:42:00,63.2,63.2,30.01,North,11,0.0,0.0,100,0.00,,,0.00,0.00,VWS V14.01,2013-08-29 10:42:00,
2013-08-29 06:44:00,63.4,63.4,30.01,North,11,0.0,0.0,100,0.00,,,0.00,0.00,VWS V14.01,2013-08-29 10:44:00,
2013-08-29 06:45:00,63.0,63.1,30.01,North,11,0.0,0.0,100,0.00,,,0.00,0.00,VWS V14.01,2013-08-29 10:45:00,
2013-08-29 06:47:00,63.1,63.2,30.01,North,11,0.0,0.0,100,0.00,,,0.00,0.00,VWS V14.01,2013-08-29 10:47:00,
2013-08-29 06:49:00,63.0,63.0,30.02,NNE,25,0.0,0.0,100,0.00,,,0.00,0.31,VWS V14.01,2013-08-29 10:49:00,
2013-08-29 06:51:00,62.6,62.6,30.02,NNE,25,0.0,0.0,100,0.00,,,0.00,1.22,VWS V14.01,2013-08-29 10:51:00,
2013-08-29 06:52:00,62.5,62.5,30.02,NNE,25,0.0,0.0,100,0.00,,,0.00,0.55,VWS V14.01,2013-08-29 10:52:00,
2013-08-29 06:54:00,62.7,62.7,30.02,NNE,25,0.0,0.0,100,0.00,,,0.00,1.77,VWS V14.01,2013-08-29 10:54:00,
2013-08-29 06:55:00,62.9,62.9,30.02,NNE,25,0.0,0.0,100,0.00,,,0.00,2.01,VWS V14.01,2013-08-29 10:55:00,
2013-08-29 06:57:00,63.0,63.0,30.01,NW,309,0.0,0.0,100,0.00,,,0.00,2.56,VWS V14.01,2013-08-29 10:57:00,
2013-08-29 06:58:00,63.2,63.2,30.02,NW,309,0.0,0.0,100,0.00,,,0.00,2.50,VWS V14.01,2013-08-29 10:58:00,
2013-08-29 07:02:00,63.2,63.2,30.02,NNE,28,0.0,0.0,100,0.00,,,0.00,3.97,VWS V14.01,2013-08-29 11:02:00,
2013-08-29 07:03:00,63.2,63.2,30.02,North,1,0.0,0.0,100,0.00,,,0.00,4.15,VWS V14.01,2013-08-29 11:03:00,
2013-08-29 07:04:00,62.3,62.3,30.01,North,3,0.0,0.0,100,0.00,,,0.00,0.00,VWS V14.01,2013-08-29 11:04:00,
2013-08-29 07:05:00,63.3,63.3,30.02,NNW,343,0.0,1.8,100,0.00,,,0.00,4.70,VWS V14.01,2013-08-29 11:05:00,
2013-08-29 07:06:00,62.3,62.3,30.00,North,3,0.0,0.0,100,0.00,,,0.00,0.00,VWS V14.01,2013-08-29 11:06:00,
2013-08-29 07:07:00,62.5,62.5,30.01,North,3,0.0,0.0,100,0.00,,,0.00,0.00,VWS V14.01,2013-08-29 11:07:00,
2013-08-29 07:08:00,63.5,63.5,30.03,NNW,341,0.0,2.0,100,0.00,,,0.00,7.75,VWS V14.01,2013-08-29 11:08:00,
2013-08-29 07:09:00,63.1,63.1,30.03,NNW,341,0.0,2.0,100,0.00,,,0.00,7.14,VWS V14.01,2013-08-29 11:09:00,
2013-08-29 07:10:00,63.2,63.2,30.01,North,3,0.0,0.0,100,0.00,,,0.00,0.43,VWS V14.01,2013-08-29 11:10:00,
2013-08-29 07:11:00,63.2,63.2,30.03,NNW,341,0.0,2.0,100,0.00,,,0.00,8.30,VWS V14.01,2013-08-29 11:11:00,
2013-08-29 07:12:00,63.3,63.3,30.01,NNW,341,0.0,0.0,100,0.00,,,0.00,0.00,VWS V14.01,2013-08-29 11:12:00,
2013-08-29 07:13:00,63.4,63.4,30.00,NW,313,0.0,0.0,100,0.00,,,0.00,0.00,VWS V14.01,2013-08-29 11:13:00,
2013-08-29 07:14:00,63.1,63.1,30.02,NNW,330,2.0,2.2,100,0.00,,,0.00,11.29,VWS V14.01,2013-08-29 11:14:00,
2013-08-29 07:15:00,62.8,62.8,30.01,NW,313,0.0,0.0,100,0.00,,,0.00,0.67,VWS V14.01,2013-08-29 11:15:00,
2013-08-29 07:16:00,63.1,63.1,30.03,NNW,330,0.0,2.2,100,0.00,,,0.00,12.27,VWS V14.01,2013-08-29 11:16:00,
2013-08-29 07:17:00,63.3,63.3,30.03,NNW,330,0.0,2.2,100,0.00,,,0.00,14.65,VWS V14.01,2013-08-29 11:17:00,
2013-08-29 07:18:00,63.0,63.0,30.02,NW,313,0.0,0.0,100,0.00,,,0.00,0.00,VWS V14.01,2013-08-29 11:18:00,
2013-08-29 07:19:00,64.0,64.0,30.03,NNW,330,1.8,2.2,100,0.00,,,0.00,22.28,VWS V14.01,2013-08-29 11:19:00,
2013-08-29 07:20:00,64.2,64.2,30.03,NW,320,2.7,2.7,100,0.00,,,0.00,24.24,VWS V14.01,2013-08-29 11:20:00,
2013-08-29 07:21:00,64.0,64.0,30.03,NW,320,0.0,2.7,100,0.00,,,0.00,25.21,VWS V14.01,2013-08-29 11:21:00,
2013-08-29 07:22:00,64.2,64.2,30.03,NW,320,0.0,2.7,100,0.00,,,0.00,26.62,VWS V14.01,2013-08-29 11:22:00,
2013-08-29 07:23:00,63.6,63.6,30.01,WNW,301,0.0,0.0,100,0.00,,,0.00,0.00,VWS V14.01,2013-08-29 11:23:00,
2013-08-29 07:24:00,63.6,63.6,30.01,WNW,301,0.0,0.0,100,0.00,,,0.00,0.43,VWS V14.01,2013-08-29 11:24:00,
2013-08-29 07:25:00,64.3,64.3,30.02,North,352,0.0,2.7,100,0.00,,,0.00,31.56,VWS V14.01,2013-08-29 11:25:00,
2013-08-29 07:26:00,63.5,63.5,30.01,WNW,301,0.0,0.0,100,0.00,,,0.00,0.00,VWS V14.01,2013-08-29 11:26:00,
2013-08-29 07:27:00,64.8,64.8,30.03,North,352,0.0,2.7,100,0.00,,,0.00,36.45,VWS V14.01,2013-08-29 11:27:00,
2013-08-29 07:28:00,64.7,64.7,30.03,NNE,14,2.3,2.7,100,0.00,,,0.00,38.16,VWS V14.01,2013-08-29 11:28:00,
2013-08-29 07:29:00,64.1,64.1,30.01,WNW,301,0.0,0.0,100,0.00,,,0.00,0.00,VWS V14.01,2013-08-29 11:29:00,
2013-08-29 07:30:00,64.8,64.8,30.03,NNE,30,1.0,2.7,100,0.00,,,0.00,41.33,VWS V14.01,2013-08-29 11:30:00,
2013-08-29 07:31:00,65.0,65.0,30.03,NNE,13,1.6,2.7,100,0.00,,,0.00,44.99,VWS V14.01,2013-08-29 11:31:00,
2013-08-29 07:32:00,63.8,63.8,30.01,NNE,30,0.0,0.0,100,0.00,,,0.00,0.00,VWS V14.01,2013-08-29 11:32:00,
2013-08-29 07:33:00,64.9,64.9,30.04,NNE,32,1.1,2.7,100,0.00,,,0.00,47.86,VWS V14.01,2013-08-29 11:33:00,
2013-08-29 07:34:00,63.8,63.8,30.01,North,11,0.0,0.0,100,0.00,,,0.00,0.00,VWS V14.01,2013-08-29 11:34:00,
2013-08-29 07:35:00,63.9,63.9,30.01,North,11,0.0,0.0,100,0.00,,,0.00,0.00,VWS V14.01,2013-08-29 11:35:00,
2013-08-29 07:36:00,64.8,64.8,30.03,NNE,24,1.3,2.7,100,0.00,,,0.00,54.52,VWS V14.01,2013-08-29 11:36:00,
2013-08-29 07:37:00,63.5,63.5,30.01,North,11,0.0,0.0,100,0.00,,,0.00,0.12,VWS V14.01,2013-08-29 11:37:00,
2013-08-29 07:38:00,64.5,64.5,30.04,NNE,25,5.1,5.1,100,0.00,,,0.00,58.06,VWS V14.01,2013-08-29 11:38:00,
2013-08-29 07:39:00,64.9,64.9,30.04,NNE,27,3.4,5.1,100,0.00,,,0.00,61.48,VWS V14.01,2013-08-29 11:39:00,
2013-08-29 07:40:00,65.0,65.0,30.04,NNE,24,2.2,5.1,100,0.00,,,0.00,61.78,VWS V14.01,2013-08-29 11:40:00,
2013-08-29 07:41:00,63.3,63.3,30.01,North,11,0.0,0.0,100,0.00,,,0.00,0.00,VWS V14.01,2013-08-29 11:41:00,
2013-08-29 07:42:00,63.2,63.2,30.01,North,11,0.0,0.0,100,0.00,,,0.00,0.00,VWS V14.01,2013-08-29 11:42:00,
2013-08-29 07:43:00,65.5,65.5,30.03,NNE,31,0.0,5.1,100,0.00,,,0.00,68.19,VWS V14.01,2013-08-29 11:43:00,
2013-08-29 07:44:00,65.2,65.2,30.04,NNE,27,2.2,5.1,100,0.00,,,0.00,71.37,VWS V14.01,2013-08-29 11:44:00,
2013-08-29 07:45:00,63.1,63.1,30.01,North,11,0.0,0.0,100,0.00,,,0.00,0.00,VWS V14.01,2013-08-29 11:45:00,
2013-08-29 07:46:00,65.3,65.3,30.03,NNE,15,3.2,5.1,100,0.00,,,0.00,73.08,VWS V14.01,2013-08-29 11:46:00,
2013-08-29 07:47:00,65.8,65.8,30.03,NNW,334,1.5,5.1,100,0.00,,,0.00,77.23,VWS V14.01,2013-08-29 11:47:00,
2013-08-29 07:48:00,62.6,62.6,30.01,North,11,0.0,0.0,100,0.00,,,0.00,0.06,VWS V14.01,2013-08-29 11:48:00,
2013-08-29 07:49:00,66.0,66.0,30.03,NNW,344,0.0,5.1,100,0.00,,,0.00,82.11,VWS V14.01,2013-08-29 11:49:00,
2013-08-29 07:50:00,65.8,65.8,30.04,NNE,14,3.5,5.1,100,0.00,,,0.00,78.88,VWS V14.01,2013-08-29 11:50:00,
2013-08-29 07:51:00,65.7,65.7,30.04,NNE,32,2.8,5.1,100,0.00,,,0.00,84.31,VWS V14.01,2013-08-29 11:51:00,
2013-08-29 07:52:00,65.9,66.0,30.03,NNE,21,3.5,5.1,100,0.00,,,0.00,87.73,VWS V14.01,2013-08-29 11:52:00,
2013-08-29 07:53:00,62.5,62.5,30.02,NNE,25,0.0,0.0,100,0.00,,,0.00,1.53,VWS V14.01,2013-08-29 11:53:00,
2013-08-29 07:54:00,63.3,63.3,30.02,NNE,25,0.0,0.0,100,0.00,,,0.00,1.53,VWS V14.01,2013-08-29 11:54:00,
2013-08-29 07:55:00,66.6,66.6,30.03,North,4,1.8,5.2,100,0.00,,,0.00,94.81,VWS V14.01,2013-08-29 11:55:00,
2013-08-29 07:56:00,67.1,67.1,30.04,North,11,0.0,5.2,100,0.00,,,0.00,97.19,VWS V14.01,2013-08-29 11:56:00,
2013-08-29 07:57:00,66.8,66.8,30.04,NE,42,2.7,5.2,100,0.00,,,0.00,100.24,VWS V14.01,2013-08-29 11:57:00,
2013-08-29 07:58:00,66.5,66.5,30.04,NNE,25,4.0,5.2,100,0.00,,,0.00,102.38,VWS V14.01,2013-08-29 11:58:00,
2013-08-29 07:59:00,63.2,63.2,30.02,NW,309,0.0,0.0,100,0.00,,,0.00,2.50,VWS V14.01,2013-08-29 11:59:00,
2013-08-29 08:00:00,66.6,66.1,30.03,North,2,4.9,5.2,98,0.00,,,0.00,104.52,VWS V14.01,2013-08-29 12:00:00,
2013-08-29 08:01:00,67.0,66.3,30.04,NNE,20,2.7,5.2,98,0.00,,,0.00,109.71,VWS V14.01,2013-08-29 12:01:00,
2013-08-29 08:02:00,67.0,66.3,30.04,NNE,20,2.7,5.2,98,0.00,,,0.00,109.71,VWS V14.01,2013-08-29 12:02:00,
2013-08-29 08:03:00,67.9,67.0,30.02,NNE,19,0.0,2.3,97,0.00,,,0.00,114.59,VWS V14.01,2013-08-29 12:03:00,
2013-08-29 08:04:00,67.5,66.3,30.03,NNE,14,1.5,1.5,96,0.00,,,0.00,118.99,VWS V14.01,2013-08-29 12:04:00,
2013-08-29 08:05:00,67.0,65.7,30.03,NNE,24,3.5,3.5,95,0.00,,,0.00,121.67,VWS V14.01,2013-08-29 12:05:00,
2013-08-29 08:06:00,68.2,66.8,30.03,WNW,291,1.0,3.5,95,0.00,,,0.00,119.72,VWS V14.01,2013-08-29 12:06:00,
2013-08-29 08:07:00,67.3,65.8,30.03,NNE,30,1.5,2.8,95,0.00,,,0.00,124.36,VWS V14.01,2013-08-29 12:07:00,
2013-08-29 08:08:00,67.7,65.8,30.04,NE,36,1.0,1.0,94,0.00,,,0.00,127.41,VWS V14.01,2013-08-29 12:08:00,
2013-08-29 08:09:00,67.7,65.8,30.04,NE,36,1.0,1.0,94,0.00,,,0.00,127.41,VWS V14.01,2013-08-29 12:09:00,
2013-08-29 08:10:00,68.0,65.8,30.06,NNE,21,1.1,3.2,93,0.00,,,0.00,131.69,VWS V14.01,2013-08-29 12:10:00,
2013-08-29 08:11:00,67.0,64.8,30.04,NNE,30,3.0,3.0,93,0.00,,,0.00,134.13,VWS V14.01,2013-08-29 12:11:00,
2013-08-29 08:12:00,67.4,65.3,30.04,NNE,17,4.0,4.0,93,0.00,,,0.00,133.88,VWS V14.01,2013-08-29 12:12:00,
2013-08-29 08:13:00,67.1,64.9,30.03,NE,37,4.2,4.2,93,0.00,,,0.00,135.41,VWS V14.01,2013-08-29 12:13:00,
2013-08-29 08:14:00,68.3,66.3,30.04,North,4,0.0,2.3,93,0.00,,,0.00,136.81,VWS V14.01,2013-08-29 12:14:00,
2013-08-29 08:15:00,68.3,66.3,30.04,North,4,0.0,2.3,93,0.00,,,0.00,136.81,VWS V14.01,2013-08-29 12:15:00,
2013-08-29 08:16:00,68.1,66.0,30.04,NW,308,0.0,1.3,93,0.00,,,0.00,140.48,VWS V14.01,2013-08-29 12:16:00,
2013-08-29 08:17:00,67.7,65.0,30.04,NNE,25,3.5,3.5,91,0.00,,,0.00,148.78,VWS V14.01,2013-08-29 12:17:00,
2013-08-29 08:18:00,67.7,65.0,30.04,NNE,25,3.5,3.5,91,0.00,,,0.00,148.78,VWS V14.01,2013-08-29 12:18:00,
2013-08-29 08:19:00,67.9,65.0,30.06,NNE,33,2.5,2.5,90,0.00,,,0.00,151.34,VWS V14.01,2013-08-29 12:19:00,
2013-08-29 08:20:00,68.4,65.8,30.05,North,351,1.3,2.5,91,0.00,,,0.00,151.22,VWS V14.01,2013-08-29 12:20:00,
2013-08-29 08:21:00,67.5,64.6,30.04,NE,44,3.2,3.2,90,0.00,,,0.00,154.76,VWS V14.01,2013-08-29 12:21:00,
2013-08-29 08:22:00,67.8,65.0,30.04,North,6,2.2,3.2,91,0.00,,,0.00,158.91,VWS V14.01,2013-08-29 12:22:00,
2013-08-29 08:23:00,67.8,65.0,30.04,NNE,29,1.8,1.8,91,0.00,,,0.00,164.16,VWS V14.01,2013-08-29 12:23:00,
2013-08-29 08:24:00,68.0,65.2,30.04,NNE,17,2.5,2.5,91,0.00,,,0.00,161.23,VWS V14.01,2013-08-29 12:24:00,
2013-08-29 08:25:00,68.6,65.7,30.06,North,2,2.2,3.0,91,0.00,,,0.00,163.43,VWS V14.01,2013-08-29 12:25:00,
2013-08-29 08:26:00,69.0,66.3,30.04,NE,45,0.0,2.2,91,0.00,,,0.00,166.36,VWS V14.01,2013-08-29 12:26:00,
2013-08-29 08:27:00,69.4,66.4,30.03,NE,39,0.0,2.0,90,0.00,,,0.00,166.85,VWS V14.01,2013-08-29 12:27:00,
2013-08-29 08:28:00,69.1,65.7,30.04,NNE,23,2.0,2.0,89,0.00,,,0.00,164.65,VWS V14.01,2013-08-29 12:28:00,
2013-08-29 08:29:00,69.0,65.2,30.05,NNE,26,2.2,2.2,88,0.00,,,0.00,173.20,VWS V14.01,2013-08-29 12:29:00,
2013-08-29 08:30:00,68.8,64.7,30.05,NNE,23,2.8,2.8,87,0.00,,,0.00,171.98,VWS V14.01,2013-08-29 12:30:00,
2013-08-29 08:31:00,68.9,64.3,30.04,NNW,329,0.0,3.2,85,0.00,,,0.00,175.89,VWS V14.01,2013-08-29 12:31:00,
2013-08-29 08:32:00,69.3,65.6,30.04,NNE,32,1.5,1.5,88,0.00,,,0.00,181.20,VWS V14.01,2013-08-29 12:32:00,
2013-08-29 08:33:00,70.1,66.3,30.05,NNW,340,0.0,1.5,88,0.00,,,0.00,180.22,VWS V14.01,2013-08-29 12:33:00,
2013-08-29 08:34:00,69.7,64.9,30.04,North,6,2.7,3.5,85,0.00,,,0.00,181.26,VWS V14.01,2013-08-29 12:34:00,
2013-08-29 08:35:00,70.7,66.4,30.03,NNE,33,0.0,2.7,86,0.00,,,0.00,182.91,VWS V14.01,2013-08-29 12:35:00,
2013-08-29 08:36:00,69.5,64.9,30.04,NNE,26,2.3,2.3,86,0.00,,,0.00,185.84,VWS V14.01,2013-08-29 12:36:00,
2013-08-29 08:37:00,70.0,65.3,30.04,North,351,3.4,3.4,85,0.00,,,0.00,187.85,VWS V14.01,2013-08-29 12:37:00,
2013-08-29 08:38:00,69.6,65.1,30.04,NE,34,3.2,3.4,85,0.00,,,0.00,190.90,VWS V14.01,2013-08-29 12:38:00,
2013-08-29 08:39:00,70.2,65.8,30.05,North,4,3.4,3.4,86,0.00,,,0.00,192.74,VWS V14.01,2013-08-29 12:39:00,
2013-08-29 08:40:00,70.4,65.9,30.04,NNE,25,2.3,3.0,86,0.00,,,0.00,197.25,VWS V14.01,2013-08-29 12:40:00,
2013-08-29 08:41:00,69.7,65.1,30.05,NE,40,3.0,3.0,85,0.00,,,0.00,196.89,VWS V14.01,2013-08-29 12:41:00,
2013-08-29 08:42:00,70.4,64.9,30.04,NE,42,1.8,3.0,83,0.00,,,0.00,198.84,VWS V14.01,2013-08-29 12:42:00,
2013-08-29 08:43:00,70.7,64.9,30.05,North,0,3.0,3.0,82,0.00,,,0.00,204.70,VWS V14.01,2013-08-29 12:43:00,
2013-08-29 08:44:00,71.2,65.7,30.04,NNE,13,2.2,3.0,83,0.00,,,0.00,204.95,VWS V14.01,2013-08-29 12:44:00,
2013-08-29 08:45:00,71.3,65.8,30.04,NNW,345,2.5,2.5,83,0.00,,,0.00,204.95,VWS V14.01,2013-08-29 12:45:00,
2013-08-29 08:46:00,71.5,66.1,30.04,NNE,15,0.0,2.2,83,0.00,,,0.00,206.90,VWS V14.01,2013-08-29 12:46:00,
2013-08-29 08:47:00,70.3,64.8,30.04,NNE,28,3.7,3.7,83,0.00,,,0.00,212.27,VWS V14.01,2013-08-29 12:47:00,
2013-08-29 08:48:00,69.8,64.0,30.04,NNE,20,4.4,4.4,82,0.00,,,0.00,212.76,VWS V14.01,2013-08-29 12:48:00,
2013-08-29 08:49:00,69.8,64.2,30.04,NE,44,2.3,4.4,82,0.00,,,0.00,214.96,VWS V14.01,2013-08-29 12:49:00,
2013-08-29 08:50:00,70.0,64.2,30.04,NE,51,2.8,2.8,82,0.00,,,0.00,215.75,VWS V14.01,2013-08-29 12:50:00,
2013-08-29 08:51:00,71.8,66.4,30.04,NNE,19,1.1,4.0,83,0.00,,,0.00,222.34,VWS V14.01,2013-08-29 12:51:00,
2013-08-29 08:52:00,70.5,64.7,30.03,NE,51,3.2,4.0,82,0.00,,,0.00,225.09,VWS V14.01,2013-08-29 12:52:00,
2013-08-29 08:53:00,70.9,64.6,30.03,NE,45,2.7,3.2,81,0.00,,,0.00,225.46,VWS V14.01,2013-08-29 12:53:00,
2013-08-29 08:54:00,72.6,66.1,30.04,NE,42,3.2,3.5,80,0.00,,,0.00,223.38,VWS V14.01,2013-08-29 12:54:00,
2013-08-29 08:55:00,70.1,63.2,30.04,NE,53,4.0,4.0,79,0.00,,,0.00,225.34,VWS V14.01,2013-08-29 12:55:00,
2013-08-29 08:56:00,70.8,64.2,30.04,NE,49,3.4,4.4,80,0.00,,,0.00,229.37,VWS V14.01,2013-08-29 12:56:00,
2013-08-29 08:57:00,70.7,64.4,30.05,NNE,33,4.5,4.5,81,0.00,,,0.00,231.93,VWS V14.01,2013-08-29 12:57:00,
2013-08-29 08:58:00,71.7,64.6,30.05,North,5,2.2,2.5,78,0.00,,,0.00,234.92,VWS V14.01,2013-08-29 12:58:00,
2013-08-29 08:59:00,71.2,64.4,30.04,NNE,17,3.5,4.2,79,0.00,,,0.00,234.74,VWS V14.01,2013-08-29 12:59:00,
2013-08-29 09:00:00,69.6,61.8,30.04,NE,36,6.3,6.3,76,0.00,,,0.00,239.44,VWS V14.01,2013-08-29 13:00:00,
2013-08-29 09:02:00,69.9,62.7,30.03,NNE,27,5.2,5.2,78,0.00,,,0.00,242.06,VWS V14.01,2013-08-29 13:02:00,
2013-08-29 09:03:00,70.6,63.7,30.04,NE,39,3.7,5.2,79,0.00,,,0.00,246.76,VWS V14.01,2013-08-29 13:03:00,
2013-08-29 09:06:00,70.4,62.9,30.04,ENE,64,4.9,6.1,77,0.00,,,0.00,254.09,VWS V14.01,2013-08-29 13:06:00,
2013-08-29 09:07:00,70.8,63.8,30.04,NE,47,3.5,6.1,78,0.00,,,0.00,254.70,VWS V14.01,2013-08-29 13:07:00,
2013-08-29 09:10:00,71.8,63.6,30.04,NW,319,2.5,6.1,75,0.00,,,0.00,266.00,VWS V14.01,2013-08-29 13:10:00,
2013-08-29 09:11:00,70.5,62.1,30.04,NNE,30,3.0,6.1,75,0.00,,,0.00,269.05,VWS V14.01,2013-08-29 13:11:00,
2013-08-29 09:12:00,70.8,62.6,30.05,NNE,28,3.7,6.1,75,0.00,,,0.00,271.06,VWS V14.01,2013-08-29 13:12:00,
2013-08-29 09:13:00,71.4,63.3,30.05,NNE,13,4.2,6.1,75,0.00,,,0.00,271.43,VWS V14.01,2013-08-29 13:13:00,
2013-08-29 09:15:00,72.7,64.4,30.04,NNE,17,2.0,6.1,75,0.00,,,0.00,280.16,VWS V14.01,2013-08-29 13:15:00,
2013-08-29 09:18:00,71.5,62.5,30.04,NE,42,2.8,6.1,73,0.00,,,0.00,283.27,VWS V14.01,2013-08-29 13:18:00,
2013-08-29 09:19:00,71.6,61.8,30.04,NE,37,4.4,6.1,71,0.00,,,0.00,287.24,VWS V14.01,2013-08-29 13:19:00,
2013-08-29 09:20:00,72.2,62.9,30.04,NE,42,2.8,6.1,73,0.00,,,0.00,288.71,VWS V14.01,2013-08-29 13:20:00,
2013-08-29 09:23:00,72.2,62.2,30.05,NNE,12,4.7,6.1,71,0.00,,,0.00,296.28,VWS V14.01,2013-08-29 13:23:00,
2013-08-29 09:24:00,71.8,61.8,30.05,NE,42,3.9,6.8,71,0.00,,,0.00,299.63,VWS V14.01,2013-08-29 13:24:00,
2013-08-29 09:25:00,71.9,62.2,30.04,ENE,57,3.7,6.8,72,0.00,,,0.00,305.07,VWS V14.01,2013-08-29 13:25:00,
2013-08-29 09:26:00,71.8,61.8,30.04,ENE,57,4.5,6.8,71,0.00,,,0.00,307.81,VWS V14.01,2013-08-29 13:26:00,
2013-08-29 09:28:00,73.7,63.6,30.04,NE,51,2.3,6.8,71,0.00,,,0.00,308.24,VWS V14.01,2013-08-29 13:28:00,
2013-08-29 09:30:00,71.8,61.4,30.04,NE,52,5.7,6.8,70,0.00,,,0.00,315.57,VWS V14.01,2013-08-29 13:30:00,
2013-08-29 09:31:00,73.3,62.9,30.04,North,8,2.8,6.8,70,0.00,,,0.00,319.41,VWS V14.01,2013-08-29 13:31:00,
2013-08-29 09:33:00,71.4,60.2,30.04,NE,43,4.5,6.8,68,0.00,,,0.00,322.16,VWS V14.01,2013-08-29 13:33:00,
2013-08-29 09:35:00,72.3,62.2,30.04,NE,34,4.4,6.8,71,0.00,,,0.00,327.29,VWS V14.01,2013-08-29 13:35:00,
2013-08-29 09:37:00,72.7,62.2,30.04,NE,39,3.9,6.8,69,0.00,,,0.00,334.37,VWS V14.01,2013-08-29 13:37:00,
2013-08-29 09:38:00,73.9,63.8,30.05,North,9,2.7,6.8,71,0.00,,,0.00,339.26,VWS V14.01,2013-08-29 13:38:00,
2013-08-29 09:40:00,73.1,62.4,30.04,NNE,18,3.5,6.8,69,0.00,,,0.00,344.14,VWS V14.01,2013-08-29 13:40:00,
2013-08-29 09:41:00,72.3,61.5,30.05,NE,55,3.5,6.8,69,0.00,,,0.00,346.83,VWS V14.01,2013-08-29 13:41:00,
2013-08-29 09:42:00,72.5,61.8,30.04,East,86,3.0,6.8,69,0.00,,,0.00,352.08,VWS V14.01,2013-08-29 13:42:00,
2013-08-29 09:43:00,72.5,61.2,30.04,NE,54,3.2,6.8,68,0.00,,,0.00,353.42,VWS V14.01,2013-08-29 13:43:00,
2013-08-29 09:44:00,73.4,62.3,30.04,NE,48,1.5,6.8,68,0.00,,,0.00,354.82,VWS V14.01,2013-08-29 13:44:00,
2013-08-29 09:48:00,73.5,62.0,30.03,East,89,5.2,6.8,67,0.00,,,0.00,361.23,VWS V14.01,2013-08-29 13:48:00,
2013-08-29 09:49:00,73.7,61.9,30.04,NE,35,2.0,6.8,67,0.00,,,0.00,366.36,VWS V14.01,2013-08-29 13:49:00,
2013-08-29 09:50:00,74.9,63.4,30.05,South,175,3.0,6.8,67,0.00,,,0.00,370.76,VWS V14.01,2013-08-29 13:50:00,
2013-08-29 09:51:00,74.9,63.4,30.05,South,175,3.0,6.8,67,0.00,,,0.00,370.76,VWS V14.01,2013-08-29 13:51:00,
2013-08-29 09:53:00,72.8,61.1,30.04,NNE,20,4.4,6.8,67,0.00,,,0.00,375.89,VWS V14.01,2013-08-29 13:53:00,
2013-08-29 09:55:00,72.7,60.7,30.04,East,84,4.9,6.8,66,0.00,,,0.00,384.13,VWS V14.01,2013-08-29 13:55:00,
2013-08-29 09:56:00,73.3,61.8,30.04,NE,54,3.5,6.8,67,0.00,,,0.00,386.57,VWS V14.01,2013-08-29 13:56:00,
2013-08-29 09:59:00,74.3,60.9,30.04,ENE,66,4.9,6.8,63,0.00,,,0.00,392.98,VWS V14.01,2013-08-29 13:59:00,
2013-08-29 10:00:00,74.3,60.9,30.04,ENE,66,4.9,6.8,63,0.00,,,0.00,392.98,VWS V14.01,2013-08-29 14:00:00,
2013-08-29 10:01:00,74.3,60.9,30.04,ENE,66,4.9,6.8,63,0.00,,,0.00,392.98,VWS V14.01,2013-08-29 14:01:00,
2013-08-29 10:03:00,74.4,60.3,30.04,NNE,27,0.0,3.7,61,0.00,,,0.00,395.42,VWS V14.01,2013-08-29 14:03:00,
2013-08-29 10:05:00,74.4,60.3,30.04,NNE,27,0.0,3.7,61,0.00,,,0.00,395.42,VWS V14.01,2013-08-29 14:05:00,
2013-08-29 10:06:00,75.0,61.1,30.04,East,84,4.9,4.9,62,0.00,,,0.00,408.55,VWS V14.01,2013-08-29 14:06:00,
2013-08-29 10:07:00,75.8,61.8,30.04,NE,44,3.7,3.7,62,0.00,,,0.00,410.07,VWS V14.01,2013-08-29 14:07:00,
2013-08-29 10:08:00,75.6,61.0,30.04,ESE,120,3.7,3.7,61,0.00,,,0.00,412.27,VWS V14.01,2013-08-29 14:08:00,
2013-08-29 10:11:00,74.1,59.7,30.04,ENE,72,3.7,3.7,61,0.00,,,0.00,419.60,VWS V14.01,2013-08-29 14:11:00,
2013-08-29 10:12:00,74.1,59.9,30.03,ENE,62,4.5,4.5,61,0.00,,,0.00,425.15,VWS V14.01,2013-08-29 14:12:00,
2013-08-29 10:13:00,74.6,60.6,30.04,ENE,62,4.7,4.7,62,0.00,,,0.00,424.73,VWS V14.01,2013-08-29 14:13:00,
2013-08-29 10:15:00,76.0,62.3,30.04,ENE,76,3.0,6.1,63,0.00,,,0.00,429.61,VWS V14.01,2013-08-29 14:15:00,
2013-08-29 10:16:00,74.5,60.5,30.04,East,90,4.0,4.9,62,0.00,,,0.00,430.53,VWS V14.01,2013-08-29 14:16:00,
2013-08-29 10:17:00,74.7,60.2,30.04,ENE,75,4.5,4.7,61,0.00,,,0.00,435.71,VWS V14.01,2013-08-29 14:17:00,
2013-08-29 10:18:00,74.6,60.4,30.04,NE,54,4.9,4.9,61,0.00,,,0.00,436.94,VWS V14.01,2013-08-29 14:18:00,
2013-08-29 10:19:00,75.0,60.5,30.04,ENE,68,4.5,4.9,61,0.00,,,0.00,439.38,VWS V14.01,2013-08-29 14:19:00,
2013-08-29 10:20:00,74.9,60.3,30.04,East,83,5.1,5.1,61,0.00,,,0.00,441.82,VWS V14.01,2013-08-29 14:20:00,
2013-08-29 10:21:00,75.2,60.2,30.04,ENE,75,5.4,5.4,60,0.00,,,0.00,445.97,VWS V14.01,2013-08-29 14:21:00,
2013-08-29 10:22:00,75.9,61.1,30.04,East,91,3.7,3.7,60,0.00,,,0.00,448.41,VWS V14.01,2013-08-29 14:22:00,
2013-08-29 10:24:00,76.2,61.8,30.04,ENE,58,3.7,4.4,61,0.00,,,0.00,443.28,VWS V14.01,2013-08-29 14:24:00,
2013-08-29 10:25:00,75.8,60.7,30.04,East,85,4.5,5.9,59,0.00,,,0.00,449.57,VWS V14.01,2013-08-29 14:25:00,
2013-08-29 10:26:00,76.8,61.8,30.04,East,94,3.9,3.9,60,0.00,,,0.00,444.26,VWS V14.01,2013-08-29 14:26:00,
2013-08-29 10:28:00,75.4,59.3,30.04,NE,38,3.9,4.0,57,0.00,,,0.00,456.96,VWS V14.01,2013-08-29 14:28:00,
2013-08-29 10:29:00,76.8,60.9,30.04,East,97,2.3,3.9,58,0.00,,,0.00,454.76,VWS V14.01,2013-08-29 14:29:00,
2013-08-29 10:30:00,75.0,59.1,30.03,ENE,63,4.9,4.9,58,0.00,,,0.00,461.36,VWS V14.01,2013-08-29 14:30:00,
2013-08-29 10:32:00,76.9,61.5,30.03,ENE,61,2.7,4.9,59,0.00,,,0.00,468.44,VWS V14.01,2013-08-29 14:32:00,
2013-08-29 10:34:00,77.9,62.2,30.04,SSW,197,1.5,5.6,58,0.00,,,0.00,474.66,VWS V14.01,2013-08-29 14:34:00,
2013-08-29 10:35:00,75.3,58.8,30.04,ENE,74,5.6,5.6,56,0.00,,,0.00,479.79,VWS V14.01,2013-08-29 14:35:00,
2013-08-29 10:39:00,75.3,59.5,30.04,NE,53,4.9,6.6,58,0.00,,,0.00,484.25,VWS V14.01,2013-08-29 14:39:00,
2013-08-29 10:40:00,76.8,60.9,30.04,ENE,64,3.5,4.4,58,0.00,,,0.00,480.89,VWS V14.01,2013-08-29 14:40:00,
2013-08-29 10:41:00,76.6,61.0,30.05,ENE,73,2.8,3.5,58,0.00,,,0.00,487.12,VWS V14.01,2013-08-29 14:41:00,
2013-08-29 10:44:00,75.6,58.4,30.04,NE,53,4.4,4.4,55,0.00,,,0.00,495.97,VWS V14.01,2013-08-29 14:44:00,
2013-08-29 10:45:00,77.6,60.6,30.04,ENE,70,1.5,2.5,56,0.00,,,0.00,499.70,VWS V14.01,2013-08-29 14:45:00,
2013-08-29 10:47:00,78.5,62.2,30.04,SW,217,2.3,3.0,57,0.00,,,0.00,498.47,VWS V14.01,2013-08-29 14:47:00,
2013-08-29 10:49:00,77.5,60.4,30.04,NNE,27,1.3,2.7,56,0.00,,,0.00,502.87,VWS V14.01,2013-08-29 14:49:00,
2013-08-29 10:50:00,77.3,59.1,30.04,NE,56,3.4,3.4,53,0.00,,,0.00,497.99,VWS V14.01,2013-08-29 14:50:00,
2013-08-29 10:51:00,77.8,59.8,30.03,NNW,344,3.5,3.5,54,0.00,,,0.00,507.81,VWS V14.01,2013-08-29 14:51:00,
2013-08-29 10:54:00,77.9,60.1,30.04,ENE,61,5.1,5.1,54,0.00,,,0.00,514.35,VWS V14.01,2013-08-29 14:54:00,
2013-08-29 10:56:00,76.1,57.8,30.05,ENE,62,4.7,5.4,53,0.00,,,0.00,519.72,VWS V14.01,2013-08-29 14:56:00,
2013-08-29 10:57:00,77.8,60.5,30.04,NE,49,2.3,2.7,55,0.00,,,0.00,523.87,VWS V14.01,2013-08-29 14:57:00,
2013-08-29 10:59:00,77.2,57.7,30.04,NNE,23,3.7,3.7,51,0.00,,,0.00,527.84,VWS V14.01,2013-08-29 14:59:00,
2013-08-29 11:01:00,78.8,59.2,30.04,ESE,108,3.9,4.0,51,0.00,,,0.00,532.48,VWS V14.01,2013-08-29 15:01:00,
2013-08-29 11:02:00,78.0,59.2,30.03,East,79,3.0,4.9,52,0.00,,,0.00,530.71,VWS V14.01,2013-08-29 15:02:00,
2013-08-29 11:03:00,79.1,60.7,30.03,SE,128,3.5,4.9,53,0.00,,,0.00,527.05,VWS V14.01,2013-08-29 15:03:00,
2013-08-29 11:04:00,76.2,56.9,30.04,East,86,5.6,5.6,51,0.00,,,0.00,529.49,VWS V14.01,2013-08-29 15:04:00,
2013-08-29 11:05:00,75.1,61.3,30.04,NE,50,3.0,3.0,62,0.00,,,0.00,405.49,VWS V14.01,2013-08-29 15:05:00,
2013-08-29 11:06:00,78.6,59.9,30.03,SE,132,2.3,5.6,53,0.00,,,0.00,532.17,VWS V14.01,2013-08-29 15:06:00,
2013-08-29 11:07:00,75.6,61.0,30.04,ESE,120,3.7,3.7,61,0.00,,,0.00,412.27,VWS V14.01,2013-08-29 15:07:00,
2013-08-29 11:08:00,78.4,57.8,30.03,NNE,26,0.0,5.6,49,0.00,,,0.00,539.26,VWS V14.01,2013-08-29 15:08:00,
2013-08-29 11:09:00,76.3,62.1,30.04,East,98,2.0,3.7,61,0.00,,,0.00,417.40,VWS V14.01,2013-08-29 15:09:00,
2013-08-29 11:10:00,75.1,61.2,30.04,East,91,3.9,3.9,62,0.00,,,0.00,422.59,VWS V14.01,2013-08-29 15:10:00,
2013-08-29 11:11:00,78.2,58.3,30.04,NW,323,2.0,5.6,51,0.00,,,0.00,547.50,VWS V14.01,2013-08-29 15:11:00,
2013-08-29 11:12:00,79.2,57.4,30.04,ENE,65,1.8,5.6,47,0.00,,,0.00,552.14,VWS V14.01,2013-08-29 15:12:00,
2013-08-29 11:13:00,79.8,58.6,30.04,ENE,76,2.2,5.6,48,0.00,,,0.00,551.71,VWS V14.01,2013-08-29 15:13:00,
2013-08-29 11:14:00,76.9,55.7,30.03,East,88,4.0,5.6,48,0.00,,,0.00,556.29,VWS V14.01,2013-08-29 15:14:00,
2013-08-29 11:15:00,74.5,60.5,30.04,East,90,4.0,4.9,62,0.00,,,0.00,430.53,VWS V14.01,2013-08-29 15:15:00,
2013-08-29 11:16:00,78.3,56.5,30.03,East,97,2.7,5.9,47,0.00,,,0.00,552.99,VWS V14.01,2013-08-29 15:16:00,
2013-08-29 11:17:00,80.9,58.1,30.04,East,83,0.0,5.9,46,0.00,,,0.00,547.62,VWS V14.01,2013-08-29 15:17:00,
2013-08-29 11:18:00,79.3,55.6,30.04,NNE,28,2.3,5.9,44,0.00,,,0.00,558.85,VWS V14.01,2013-08-29 15:18:00,
2013-08-29 11:19:00,80.1,55.8,30.04,ENE,75,0.0,5.9,43,0.00,,,0.00,561.72,VWS V14.01,2013-08-29 15:19:00,
2013-08-29 11:20:00,76.9,62.5,30.04,SE,130,3.2,5.1,61,0.00,,,0.00,443.28,VWS V14.01,2013-08-29 15:20:00,
2013-08-29 11:21:00,75.3,59.7,30.04,East,88,5.7,5.7,58,0.00,,,0.00,449.15,VWS V14.01,2013-08-29 15:21:00,
2013-08-29 11:22:00,75.9,61.1,30.04,East,91,3.7,4.9,60,0.00,,,0.00,448.41,VWS V14.01,2013-08-29 15:22:00,
2013-08-29 11:23:00,79.1,56.1,30.04,SE,143,1.8,5.9,45,0.00,,,0.00,572.10,VWS V14.01,2013-08-29 15:23:00,
2013-08-29 11:24:00,80.3,58.2,30.04,SSE,158,1.1,5.9,47,0.00,,,0.00,570.94,VWS V14.01,2013-08-29 15:24:00,
2013-08-29 11:25:00,79.0,54.8,30.04,NNE,30,2.3,5.9,43,0.00,,,0.00,568.32,VWS V14.01,2013-08-29 15:25:00,
2013-08-29 11:26:00,76.0,60.4,30.04,East,86,2.8,3.9,58,0.00,,,0.00,453.79,VWS V14.01,2013-08-29 15:26:00,
2013-08-29 11:27:00,75.4,59.3,30.04,NE,38,3.9,4.0,57,0.00,,,0.00,456.96,VWS V14.01,2013-08-29 15:27:00,
2013-08-29 11:28:00,76.8,60.9,30.04,East,97,2.3,3.9,58,0.00,,,0.00,454.76,VWS V14.01,2013-08-29 15:28:00,
2013-08-29 11:29:00,80.2,57.4,30.03,NE,34,3.9,5.9,46,0.00,,,0.00,578.57,VWS V14.01,2013-08-29 15:29:00,
2013-08-29 11:30:00,78.8,54.6,30.03,ENE,62,3.9,5.9,43,0.00,,,0.00,581.01,VWS V14.01,2013-08-29 15:30:00,
2013-08-29 11:31:00,79.7,55.3,30.04,North,11,4.0,5.9,43,0.00,,,0.00,585.17,VWS V14.01,2013-08-29 15:31:00,
2013-08-29 11:32:00,75.0,59.0,30.04,ENE,66,5.6,5.6,57,0.00,,,0.00,471.37,VWS V14.01,2013-08-29 15:32:00,
2013-08-29 11:33:00,77.9,62.2,30.04,SSW,197,1.5,5.6,58,0.00,,,0.00,474.66,VWS V14.01,2013-08-29 15:33:00,
2013-08-29 11:34:00,78.1,53.9,30.03,ESE,105,4.0,5.9,43,0.00,,,0.00,566.36,VWS V14.01,2013-08-29 15:34:00,
2013-08-29 11:35:00,76.4,60.3,30.04,ESE,114,4.4,5.6,57,0.00,,,0.00,479.06,VWS V14.01,2013-08-29 15:35:00,
2013-08-29 11:36:00,81.6,60.1,30.04,SSW,192,0.0,5.9,48,0.00,,,0.00,588.34,VWS V14.01,2013-08-29 15:36:00,
2013-08-29 11:37:00,74.9,58.5,30.04,NE,53,6.6,6.6,57,0.00,,,0.00,479.67,VWS V14.01,2013-08-29 15:37:00,
2013-08-29 11:38:00,79.8,56.5,30.03,East,93,3.5,5.9,45,0.00,,,0.00,591.27,VWS V14.01,2013-08-29 15:38:00,
2013-08-29 11:39:00,76.8,60.9,30.04,ENE,64,3.5,4.4,58,0.00,,,0.00,480.89,VWS V14.01,2013-08-29 15:39:00,
2013-08-29 11:40:00,76.6,61.0,30.05,ENE,73,2.8,3.5,58,0.00,,,0.00,487.12,VWS V14.01,2013-08-29 15:40:00,
2013-08-29 11:41:00,75.9,59.3,30.03,East,86,3.9,4.7,56,0.00,,,0.00,490.66,VWS V14.01,2013-08-29 15:41:00,
2013-08-29 11:42:00,80.0,55.7,30.03,North,9,2.0,5.9,43,0.00,,,0.00,603.48,VWS V14.01,2013-08-29 15:42:00,
2013-08-29 11:43:00,83.2,59.1,30.03,SSE,162,0.0,5.9,44,0.00,,,0.00,613.68,VWS V14.01,2013-08-29 15:43:00,
2013-08-29 11:44:00,83.2,59.1,30.03,SSE,162,0.0,5.9,44,0.00,,,0.00,613.68,VWS V14.01,2013-08-29 15:44:00,
2013-08-29 11:45:00,76.5,59.3,30.04,NNE,33,3.0,3.0,55,0.00,,,0.00,498.29,VWS V14.01,2013-08-29 15:45:00,
2013-08-29 11:46:00,80.1,54.5,30.04,ESE,111,3.2,5.9,41,0.00,,,0.00,603.48,VWS V14.01,2013-08-29 15:46:00,
2013-08-29 11:47:00,78.1,60.5,30.04,East,94,2.7,2.7,55,0.00,,,0.00,501.04,VWS V14.01,2013-08-29 15:47:00,
2013-08-29 11:48:00,80.7,55.6,30.04,ENE,69,1.5,5.9,42,0.00,,,0.00,607.88,VWS V14.01,2013-08-29 15:48:00,
2013-08-29 11:49:00,80.2,56.0,30.03,NE,55,3.0,5.9,44,0.00,,,0.00,608.18,VWS V14.01,2013-08-29 15:49:00,
2013-08-29 11:50:00,81.9,56.8,30.04,NNE,31,4.0,5.9,42,0.00,,,0.00,618.44,VWS V14.01,2013-08-29 15:50:00,
2013-08-29 11:51:00,78.6,52.5,30.04,ENE,78,5.2,5.9,40,0.00,,,0.00,556.35,VWS V14.01,2013-08-29 15:51:00,
2013-08-29 11:52:00,78.0,60.1,30.04,North,8,3.0,3.7,54,0.00,,,0.00,517.83,VWS V14.01,2013-08-29 15:52:00,
2013-08-29 11:53:00,77.9,60.1,30.04,ENE,61,5.1,5.1,54,0.00,,,0.00,514.35,VWS V14.01,2013-08-29 15:53:00,
2013-08-29 11:54:00,79.9,53.3,30.04,NNE,32,2.0,5.9,40,0.00,,,0.00,620.33,VWS V14.01,2013-08-29 15:54:00,
2013-08-29 11:55:00,81.9,56.7,30.03,NNE,33,5.1,5.9,42,0.00,,,0.00,626.37,VWS V14.01,2013-08-29 15:55:00,
2013-08-29 11:56:00,77.8,60.5,30.04,NE,49,2.3,2.7,55,0.00,,,0.00,523.87,VWS V14.01,2013-08-29 15:56:00,
2013-08-29 11:57:00,77.8,52.2,30.03,East,82,6.3,6.3,41,0.00,,,0.00,627.41,VWS V14.01,2013-08-29 15:57:00,
2013-08-29 11:58:00,79.5,56.0,30.04,ESE,102,2.8,6.3,44,0.00,,,0.00,410.07,VWS V14.01,2013-08-29 15:58:00,
2013-08-29 11:59:00,78.8,54.7,30.04,East,81,4.2,6.3,43,0.00,,,0.00,614.90,VWS V14.01,2013-08-29 15:59:00,
2013-08-29 12:00:00,81.0,56.9,30.03,NNE,31,4.0,6.3,44,0.00,,,0.00,624.97,VWS V14.01,2013-08-29 16:00:00,
2013-08-29 12:01:00,81.0,56.9,30.03,NNE,31,4.0,6.3,44,0.00,,,0.00,624.97,VWS V14.01,2013-08-29 16:01:00,
2013-08-29 12:03:00,81.3,56.5,30.04,NE,35,2.8,7.1,43,0.00,,,0.00,634.25,VWS V14.01,2013-08-29 16:03:00,
2013-08-29 12:04:00,80.1,53.9,30.04,NNE,21,2.7,7.1,41,0.00,,,0.00,229.85,VWS V14.01,2013-08-29 16:04:00,
2013-08-29 12:06:00,82.8,57.4,30.04,NNE,16,0.0,7.1,42,0.00,,,0.00,519.96,VWS V14.01,2013-08-29 16:06:00,
2013-08-29 12:08:00,81.1,54.2,30.04,SE,144,3.2,7.1,39,0.00,,,0.00,655.74,VWS V14.01,2013-08-29 16:08:00,
2013-08-29 12:09:00,81.3,54.9,30.03,ENE,69,3.9,7.1,40,0.00,,,0.00,383.21,VWS V14.01,2013-08-29 16:09:00,
2013-08-29 12:10:00,80.5,53.6,30.04,NNE,27,4.2,7.1,39,0.00,,,0.00,222.28,VWS V14.01,2013-08-29 16:10:00,
2013-08-29 12:11:00,79.1,53.7,30.03,East,80,4.0,7.1,41,0.00,,,0.00,173.20,VWS V14.01,2013-08-29 16:11:00,
2013-08-29 12:12:00,79.6,54.5,30.03,NE,49,5.2,7.1,42,0.00,,,0.00,591.70,VWS V14.01,2013-08-29 16:12:00,
2013-08-29 12:15:00,81.5,55.9,30.04,East,95,3.5,7.1,41,0.00,,,0.00,700.67,VWS V14.01,2013-08-29 16:15:00,
2013-08-29 12:17:00,82.0,54.9,30.03,SSE,154,5.2,7.1,39,0.00,,,0.00,710.93,VWS V14.01,2013-08-29 16:17:00,
2013-08-29 12:18:00,82.6,56.1,30.04,East,97,3.4,7.1,40,0.00,,,0.00,717.77,VWS V14.01,2013-08-29 16:18:00,
2013-08-29 12:19:00,80.1,53.2,30.03,East,88,6.4,7.1,39,0.00,,,0.00,688.46,VWS V14.01,2013-08-29 16:19:00,
2013-08-29 12:20:00,80.9,54.5,30.04,NE,53,2.7,7.1,40,0.00,,,0.00,678.69,VWS V14.01,2013-08-29 16:20:00,
2013-08-29 12:22:00,81.2,55.3,30.03,ENE,61,5.7,7.1,41,0.00,,,0.00,720.70,VWS V14.01,2013-08-29 16:22:00,
2013-08-29 12:24:00,80.6,52.4,30.03,NE,38,5.2,7.1,38,0.00,,,0.00,737.30,VWS V14.01,2013-08-29 16:24:00,
2013-08-29 12:25:00,81.2,53.1,30.03,NE,41,2.2,7.1,38,0.00,,,0.00,730.89,VWS V14.01,2013-08-29 16:25:00,
2013-08-29 12:27:00,79.5,52.8,30.03,NE,51,4.5,7.1,40,0.00,,,0.00,748.54,VWS V14.01,2013-08-29 16:27:00,
2013-08-29 12:28:00,82.4,54.2,30.04,East,94,2.8,7.1,38,0.00,,,0.00,708.00,VWS V14.01,2013-08-29 16:28:00,
2013-08-29 12:29:00,81.9,53.8,30.04,NNE,28,1.5,7.1,38,0.00,,,0.00,743.47,VWS V14.01,2013-08-29 16:29:00,
2013-08-29 12:30:00,79.6,52.7,30.03,East,84,4.4,7.1,39,0.00,,,0.00,780.95,VWS V14.01,2013-08-29 16:30:00,
2013-08-29 12:31:00,82.2,55.5,30.03,NE,39,2.3,7.1,40,0.00,,,0.00,688.22,VWS V14.01,2013-08-29 16:31:00,
2013-08-29 12:34:00,84.7,54.9,30.03,NNW,340,0.0,7.1,36,0.00,,,0.00,785.84,VWS V14.01,2013-08-29 16:34:00,
2013-08-29 12:35:00,84.4,53.6,30.03,SW,229,3.2,7.1,35,0.00,,,0.00,788.52,VWS V14.01,2013-08-29 16:35:00,
2013-08-29 12:36:00,83.2,52.7,30.03,SE,145,2.7,7.1,35,0.00,,,0.00,788.58,VWS V14.01,2013-08-29 16:36:00,
2013-08-29 12:37:00,81.8,50.5,30.03,ESE,114,5.7,7.1,34,0.00,,,0.00,794.20,VWS V14.01,2013-08-29 16:37:00,
2013-08-29 12:40:00,83.5,53.0,30.03,NE,51,5.4,7.1,35,0.00,,,0.00,847.19,VWS V14.01,2013-08-29 16:40:00,
2013-08-29 12:41:00,83.5,52.4,30.03,North,6,5.9,7.1,34,0.00,,,0.00,840.17,VWS V14.01,2013-08-29 16:41:00,
2013-08-29 12:42:00,83.4,55.1,30.03,East,83,3.7,7.1,38,0.00,,,0.00,407.69,VWS V14.01,2013-08-29 16:42:00,
2013-08-29 12:43:00,82.9,53.2,30.03,NNE,32,2.7,7.1,36,0.00,,,0.00,292.86,VWS V14.01,2013-08-29 16:43:00,
2013-08-29 12:44:00,84.1,53.8,30.03,NNE,31,4.0,7.1,35,0.00,,,0.00,259.40,VWS V14.01,2013-08-29 16:44:00,
2013-08-29 12:45:00,81.8,50.3,30.03,East,96,6.3,7.1,34,0.00,,,0.00,221.55,VWS V14.01,2013-08-29 16:45:00,
2013-08-29 12:48:00,83.0,52.2,30.03,ESE,103,4.9,7.1,35,0.00,,,0.00,207.08,VWS V14.01,2013-08-29 16:48:00,
2013-08-29 12:49:00,83.7,53.0,30.03,ESE,111,3.5,7.1,35,0.00,,,0.00,208.61,VWS V14.01,2013-08-29 16:49:00,
2013-08-29 12:51:00,83.1,52.1,30.03,ESE,105,6.4,7.1,34,0.00,,,0.00,235.47,VWS V14.01,2013-08-29 16:51:00,
2013-08-29 12:54:00,80.2,50.2,30.04,ENE,70,4.0,7.5,35,0.00,,,0.00,160.99,VWS V14.01,2013-08-29 16:54:00,
2013-08-29 12:55:00,81.5,52.6,30.04,ENE,64,3.9,7.5,37,0.00,,,0.00,281.87,VWS V14.01,2013-08-29 16:55:00,
2013-08-29 12:56:00,80.6,51.2,30.03,ENE,73,4.4,7.5,36,0.00,,,0.00,756.84,VWS V14.01,2013-08-29 16:56:00,
2013-08-29 12:58:00,81.6,52.2,30.05,ESE,116,6.3,7.5,36,0.00,,,0.00,756.53,VWS V14.01,2013-08-29 16:58:00,
2013-08-29 12:59:00,81.9,51.2,30.04,SE,145,5.9,7.5,35,0.00,,,0.00,767.83,VWS V14.01,2013-08-29 16:59:00,
2013-08-29 13:00:00,81.9,51.2,30.04,SE,145,5.9,7.5,35,0.00,,,0.00,767.83,VWS V14.01,2013-08-29 17:00:00,
2013-08-29 13:01:00,83.4,53.9,30.03,SSE,158,4.0,7.5,36,0.00,,,0.00,769.05,VWS V14.01,2013-08-29 17:01:00,
2013-08-29 13:02:00,81.3,56.7,30.04,ESE,111,0.0,6.3,43,0.00,,,0.00,646.95,VWS V14.01,2013-08-29 17:02:00,
2013-08-29 13:03:00,82.9,51.3,30.03,SE,145,5.1,5.1,34,0.00,,,0.00,781.20,VWS V14.01,2013-08-29 17:03:00,
2013-08-29 13:05:00,82.4,50.6,30.03,SE,129,5.1,7.5,33,0.00,,,0.00,793.83,VWS V14.01,2013-08-29 17:05:00,
2013-08-29 13:06:00,83.8,53.1,30.02,NE,37,3.5,7.5,35,0.00,,,0.00,328.75,VWS V14.01,2013-08-29 17:06:00,
2013-08-29 13:07:00,83.8,53.1,30.02,NE,37,3.5,7.5,35,0.00,,,0.00,328.75,VWS V14.01,2013-08-29 17:07:00,
2013-08-29 13:08:00,84.1,53.7,30.03,SSE,153,4.5,7.5,35,0.00,,,0.00,583.46,VWS V14.01,2013-08-29 17:08:00,
2013-08-29 13:09:00,84.3,54.2,30.02,SE,124,2.7,7.5,36,0.00,,,0.00,708.00,VWS V14.01,2013-08-29 17:09:00,
2013-08-29 13:11:00,81.8,50.0,30.03,East,94,7.5,7.5,33,0.00,,,0.00,854.52,VWS V14.01,2013-08-29 17:11:00,
2013-08-29 13:12:00,82.6,52.7,30.02,ENE,74,4.2,7.5,36,0.00,,,0.00,343.41,VWS V14.01,2013-08-29 17:12:00,
2013-08-29 13:14:00,81.1,53.0,30.03,ENE,75,6.9,8.7,38,0.00,,,0.00,690.90,VWS V14.01,2013-08-29 17:14:00,
2013-08-29 13:15:00,81.8,54.0,30.03,SE,139,3.5,8.7,38,0.00,,,0.00,276.37,VWS V14.01,2013-08-29 17:15:00,
2013-08-29 13:18:00,81.4,51.8,30.03,North,9,5.1,8.7,36,0.00,,,0.00,766.61,VWS V14.01,2013-08-29 17:18:00,
2013-08-29 13:19:00,82.5,53.7,30.03,East,86,4.2,8.7,37,0.00,,,0.00,771.49,VWS V14.01,2013-08-29 17:19:00,
2013-08-29 13:20:00,83.9,53.9,30.03,ESE,119,5.7,8.7,36,0.00,,,0.00,778.82,VWS V14.01,2013-08-29 17:20:00,
2013-08-29 13:21:00,83.1,53.2,30.03,ESE,109,6.6,8.7,36,0.00,,,0.00,773.44,VWS V14.01,2013-08-29 17:21:00,
2013-08-29 13:24:00,83.3,53.5,30.04,NE,52,3.0,8.7,36,0.00,,,0.00,774.18,VWS V14.01,2013-08-29 17:24:00,
2013-08-29 13:25:00,83.5,53.0,30.03,NE,55,4.5,8.7,35,0.00,,,0.00,781.26,VWS V14.01,2013-08-29 17:25:00,
2013-08-29 13:27:00,82.6,53.1,30.03,SE,138,5.6,8.7,36,0.00,,,0.00,620.39,VWS V14.01,2013-08-29 17:27:00,
2013-08-29 13:29:00,82.8,52.7,30.03,ESE,106,4.7,8.7,35,0.00,,,0.00,233.15,VWS V14.01,2013-08-29 17:29:00,
2013-08-29 13:30:00,82.8,52.7,30.03,ESE,106,4.7,8.7,35,0.00,,,0.00,233.15,VWS V14.01,2013-08-29 17:30:00,
2013-08-29 13:31:00,82.6,51.7,30.03,ESE,109,4.5,8.7,34,0.00,,,0.00,214.96,VWS V14.01,2013-08-29 17:31:00,
2013-08-29 13:33:00,81.1,52.2,30.02,East,96,3.2,8.7,37,0.00,,,0.00,198.23,VWS V14.01,2013-08-29 17:33:00,
2013-08-29 13:35:00,82.9,53.7,30.02,NE,55,2.2,8.7,37,0.00,,,0.00,808.18,VWS V14.01,2013-08-29 17:35:00,
2013-08-29 13:36:00,82.6,51.2,30.02,ENE,75,2.3,8.7,34,0.00,,,0.00,773.93,VWS V14.01,2013-08-29 17:36:00,
2013-08-29 13:37:00,84.8,53.3,30.01,NNE,33,0.0,8.7,34,0.00,,,0.00,778.82,VWS V14.01,2013-08-29 17:37:00,
2013-08-29 13:38:00,84.0,50.3,30.02,North,7,3.4,8.7,31,0.00,,,0.00,766.36,VWS V14.01,2013-08-29 17:38:00,
2013-08-29 13:39:00,85.5,53.0,30.02,NE,52,3.5,8.7,33,0.00,,,0.00,688.46,VWS V14.01,2013-08-29 17:39:00,
2013-08-29 13:41:00,84.1,52.9,30.02,South,182,6.6,8.7,34,0.00,,,0.00,715.57,VWS V14.01,2013-08-29 17:41:00,
2013-08-29 13:43:00,82.0,49.8,30.01,East,88,4.9,8.7,33,0.00,,,0.00,810.68,VWS V14.01,2013-08-29 17:43:00,
2013-08-29 13:44:00,81.3,48.9,30.01,ESE,111,5.4,8.7,32,0.00,,,0.00,766.61,VWS V14.01,2013-08-29 17:44:00,
2013-08-29 13:45:00,82.2,51.0,30.02,South,184,3.2,8.7,34,0.00,,,0.00,195.18,VWS V14.01,2013-08-29 17:45:00,
2013-08-29 13:48:00,82.7,51.1,30.02,NE,43,3.2,8.7,34,0.00,,,0.00,315.45,VWS V14.01,2013-08-29 17:48:00,
2013-08-29 13:49:00,82.0,50.6,30.01,NW,322,4.0,8.7,34,0.00,,,0.00,225.09,VWS V14.01,2013-08-29 17:49:00,
2013-08-29 13:51:00,80.8,49.7,30.01,NNE,31,4.0,8.7,34,0.00,,,0.00,216.42,VWS V14.01,2013-08-29 17:51:00,
2013-08-29 13:54:00,86.6,57.3,30.02,SE,130,0.0,8.7,37,0.00,,,0.00,816.67,VWS V14.01,2013-08-29 17:54:00,
2013-08-29 13:55:00,83.9,51.3,30.02,SSE,156,5.7,8.7,33,0.00,,,0.00,820.57,VWS V14.01,2013-08-29 17:55:00,
2013-08-29 13:56:00,83.3,50.5,30.01,ESE,122,4.2,8.7,32,0.00,,,0.00,830.59,VWS V14.01,2013-08-29 17:56:00,
2013-08-29 13:57:00,83.7,50.8,30.02,South,189,3.5,8.7,32,0.00,,,0.00,836.20,VWS V14.01,2013-08-29 17:57:00,
2013-08-29 13:58:00,84.1,51.4,30.01,SE,145,3.9,8.7,32,0.00,,,0.00,300.49,VWS V14.01,2013-08-29 17:58:00,
2013-08-29 13:59:00,83.4,53.9,30.03,SSE,158,4.0,7.5,36,0.00,,,0.00,769.05,VWS V14.01,2013-08-29 17:59:00,
2013-08-29 14:00:00,85.1,53.3,30.02,NE,53,5.2,8.7,34,0.00,,,0.00,796.70,VWS V14.01,2013-08-29 18:00:00,
2013-08-29 14:01:00,85.1,53.3,30.02,NE,53,5.2,8.7,34,0.00,,,0.00,796.70,VWS V14.01,2013-08-29 18:01:00,
2013-08-29 14:02:00,83.2,51.1,30.01,ESE,103,5.7,8.7,33,0.00,,,0.00,673.50,VWS V14.01,2013-08-29 18:02:00,
2013-08-29 14:03:00,84.7,52.0,30.01,SSE,163,3.5,8.7,32,0.00,,,0.00,798.60,VWS V14.01,2013-08-29 18:03:00,
2013-08-29 14:04:00,86.2,54.4,30.02,SE,146,3.5,3.5,34,0.00,,,0.00,792.74,VWS V14.01,2013-08-29 18:04:00,
2013-08-29 14:05:00,83.7,48.9,30.02,SSE,149,6.9,6.9,30,0.00,,,0.00,791.03,VWS V14.01,2013-08-29 18:05:00,
2013-08-29 14:06:00,84.2,49.6,30.02,SE,146,3.5,6.9,30,0.00,,,0.00,788.83,VWS V14.01,2013-08-29 18:06:00,
2013-08-29 14:07:00,84.2,49.6,30.02,SE,146,3.5,6.9,30,0.00,,,0.00,788.83,VWS V14.01,2013-08-29 18:07:00,
2013-08-29 14:08:00,84.8,50.3,30.01,ENE,64,4.0,4.0,30,0.00,,,0.00,789.19,VWS V14.01,2013-08-29 18:08:00,
2013-08-29 14:09:00,83.3,47.8,30.01,NNE,13,5.2,5.2,29,0.00,,,0.00,791.21,VWS V14.01,2013-08-29 18:09:00,
2013-08-29 14:10:00,84.5,48.9,30.02,SSE,163,5.1,5.1,29,0.00,,,0.00,787.85,VWS V14.01,2013-08-29 18:10:00,
2013-08-29 14:11:00,85.2,47.2,30.01,SE,130,3.2,5.1,27,0.00,,,0.00,798.35,VWS V14.01,2013-08-29 18:11:00,
2013-08-29 14:12:00,86.2,51.2,30.02,SE,146,2.7,3.7,30,0.00,,,0.00,807.88,VWS V14.01,2013-08-29 18:12:00,
2013-08-29 14:13:00,83.1,49.5,30.02,East,100,4.2,4.4,31,0.00,,,0.00,808.30,VWS V14.01,2013-08-29 18:13:00,
2013-08-29 14:14:00,84.0,50.2,30.01,ESE,104,6.4,6.4,31,0.00,,,0.00,809.04,VWS V14.01,2013-08-29 18:14:00,
2013-08-29 14:15:00,83.4,51.1,30.01,SE,124,3.7,6.1,33,0.00,,,0.00,237.91,VWS V14.01,2013-08-29 18:15:00,
2013-08-29 14:16:00,82.8,49.8,30.01,SE,141,3.7,3.7,32,0.00,,,0.00,263.55,VWS V14.01,2013-08-29 18:16:00,
2013-08-29 14:17:00,84.4,51.7,30.01,East,99,1.6,3.7,32,0.00,,,0.00,808.61,VWS V14.01,2013-08-29 18:17:00,
2013-08-29 14:18:00,83.1,50.2,30.01,NE,54,3.9,3.9,32,0.00,,,0.00,310.93,VWS V14.01,2013-08-29 18:18:00,
2013-08-29 14:19:00,82.6,50.3,30.01,NE,39,5.7,5.7,33,0.00,,,0.00,817.89,VWS V14.01,2013-08-29 18:19:00,
2013-08-29 14:20:00,84.8,53.5,30.01,NE,54,3.7,5.7,34,0.00,,,0.00,818.38,VWS V14.01,2013-08-29 18:20:00,
2013-08-29 14:21:00,84.8,53.5,30.01,NE,54,3.7,5.7,34,0.00,,,0.00,818.38,VWS V14.01,2013-08-29 18:21:00,
2013-08-29 14:22:00,83.1,50.3,30.01,East,90,5.2,5.4,32,0.00,,,0.00,830.10,VWS V14.01,2013-08-29 18:22:00,
2013-08-29 14:23:00,85.5,52.3,30.01,ESE,114,3.9,5.2,32,0.00,,,0.00,825.21,VWS V14.01,2013-08-29 18:23:00,
2013-08-29 14:24:00,84.7,51.4,30.01,SE,126,4.5,4.5,32,0.00,,,0.00,815.69,VWS V14.01,2013-08-29 18:24:00,
2013-08-29 14:25:00,84.5,51.1,30.01,ENE,75,3.9,4.5,32,0.00,,,0.00,791.03,VWS V14.01,2013-08-29 18:25:00,
2013-08-29 14:26:00,84.5,49.8,30.01,East,84,7.1,7.1,30,0.00,,,0.00,800.86,VWS V14.01,2013-08-29 18:26:00,
2013-08-29 14:27:00,84.5,49.9,30.01,ESE,118,3.9,7.1,30,0.00,,,0.00,783.70,VWS V14.01,2013-08-29 18:27:00,
2013-08-29 14:28:00,84.8,49.0,30.01,SE,143,4.0,4.0,29,0.00,,,0.00,774.18,VWS V14.01,2013-08-29 18:28:00,
2013-08-29 14:29:00,84.0,48.2,30.01,NE,45,6.9,6.9,29,0.00,,,0.00,764.16,VWS V14.01,2013-08-29 18:29:00,
2013-08-29 14:30:00,86.6,52.4,30.01,SW,214,4.4,6.9,31,0.00,,,0.00,754.40,VWS V14.01,2013-08-29 18:30:00,
2013-08-29 14:31:00,85.4,49.8,30.00,SSE,164,5.6,6.1,29,0.00,,,0.00,754.15,VWS V14.01,2013-08-29 18:31:00,
2013-08-29 14:32:00,85.4,49.8,30.00,SSE,164,5.6,6.1,29,0.00,,,0.00,754.15,VWS V14.01,2013-08-29 18:32:00,
2013-08-29 14:33:00,85.0,48.5,30.00,SE,142,8.1,8.1,28,0.00,,,0.00,749.51,VWS V14.01,2013-08-29 18:33:00,
2013-08-29 14:34:00,82.6,45.0,30.00,East,98,6.9,8.1,27,0.00,,,0.00,744.14,VWS V14.01,2013-08-29 18:34:00,
2013-08-29 14:35:00,84.3,48.0,30.00,ENE,67,4.9,6.9,28,0.00,,,0.00,736.81,VWS V14.01,2013-08-29 18:35:00,
2013-08-29 14:36:00,83.7,47.3,30.00,SE,142,5.2,6.4,28,0.00,,,0.00,731.56,VWS V14.01,2013-08-29 18:36:00,
2013-08-29 14:37:00,85.3,49.9,30.00,SE,131,4.4,5.2,30,0.00,,,0.00,739.99,VWS V14.01,2013-08-29 18:37:00,
2013-08-29 14:38:00,85.3,49.9,30.00,SE,131,4.4,5.2,30,0.00,,,0.00,739.99,VWS V14.01,2013-08-29 18:38:00,
2013-08-29 14:39:00,85.3,49.6,30.00,ESE,118,3.5,3.9,29,0.00,,,0.00,622.83,VWS V14.01,2013-08-29 18:39:00,
2013-08-29 14:40:00,86.0,51.1,30.01,ESE,102,3.4,3.5,30,0.00,,,0.00,718.01,VWS V14.01,2013-08-29 18:40:00,
2013-08-29 14:41:00,85.2,49.1,30.01,NE,49,3.2,3.2,29,0.00,,,0.00,737.30,VWS V14.01,2013-08-29 18:41:00,
2013-08-29 14:42:00,84.0,48.9,30.00,SSE,147,6.6,6.6,30,0.00,,,0.00,729.98,VWS V14.01,2013-08-29 18:42:00,
2013-08-29 14:43:00,85.2,50.9,30.00,SE,140,4.0,6.6,31,0.00,,,0.00,684.68,VWS V14.01,2013-08-29 18:43:00,
2013-08-29 14:44:00,83.8,47.6,30.00,SE,136,2.8,6.4,28,0.00,,,0.00,331.93,VWS V14.01,2013-08-29 18:44:00,
2013-08-29 14:45:00,82.6,48.4,30.00,SE,135,3.7,3.7,30,0.00,,,0.00,177.90,VWS V14.01,2013-08-29 18:45:00,
2013-08-29 14:46:00,82.3,50.1,30.00,SE,129,5.9,6.6,33,0.00,,,0.00,165.08,VWS V14.01,2013-08-29 18:46:00,
2013-08-29 14:47:00,82.7,50.8,30.01,SE,135,2.0,5.9,33,0.00,,,0.00,172.65,VWS V14.01,2013-08-29 18:47:00,
2013-08-29 14:48:00,82.6,50.7,30.01,SE,131,4.2,4.2,33,0.00,,,0.00,187.85,VWS V14.01,2013-08-29 18:48:00,
2013-08-29 14:49:00,83.8,52.0,30.01,SSW,194,3.2,3.2,33,0.00,,,0.00,417.40,VWS V14.01,2013-08-29 18:49:00,
2013-08-29 14:50:00,85.0,51.8,30.01,SE,131,5.2,5.2,32,0.00,,,0.00,724.79,VWS V14.01,2013-08-29 18:50:00,
2013-08-29 14:51:00,85.0,51.8,30.01,SE,131,5.2,5.2,32,0.00,,,0.00,724.79,VWS V14.01,2013-08-29 18:51:00,
2013-08-29 14:52:00,84.7,51.2,30.01,East,88,4.4,5.9,32,0.00,,,0.00,722.65,VWS V14.01,2013-08-29 18:52:00,
2013-08-29 14:53:00,83.9,48.4,30.01,East,90,6.4,7.3,29,0.00,,,0.00,705.86,VWS V14.01,2013-08-29 18:53:00,
2013-08-29 14:54:00,82.7,46.0,30.01,East,98,7.1,7.1,28,0.00,,,0.00,690.90,VWS V14.01,2013-08-29 18:54:00,
2013-08-29 14:55:00,84.5,49.8,30.01,SE,138,4.5,7.1,30,0.00,,,0.00,688.46,VWS V14.01,2013-08-29 18:55:00,
2013-08-29 14:56:00,84.2,49.8,30.00,ESE,117,4.2,4.2,30,0.00,,,0.00,688.22,VWS V14.01,2013-08-29 18:56:00,
2013-08-29 14:57:00,85.3,50.2,30.00,SE,140,5.4,5.4,30,0.00,,,0.00,690.97,VWS V14.01,2013-08-29 18:57:00,
2013-08-29 14:58:00,84.6,49.8,30.00,SSW,193,7.1,7.1,30,0.00,,,0.00,696.22,VWS V14.01,2013-08-29 18:58:00,
2013-08-29 14:59:00,83.8,49.0,30.00,ESE,119,4.5,4.5,30,0.00,,,0.00,690.90,VWS V14.01,2013-08-29 18:59:00,
2013-08-29 15:00:00,84.8,51.0,30.00,East,89,4.7,5.7,31,0.00,,,0.00,688.10,VWS V14.01,2013-08-29 19:00:00,
2013-08-29 15:01:00,85.7,51.6,30.01,SSE,150,4.2,4.7,31,0.00,,,0.00,689.93,VWS V14.01,2013-08-29 19:01:00,
2013-08-29 15:02:00,84.9,49.2,30.01,SSE,149,1.8,4.9,29,0.00,,,0.00,685.41,VWS V14.01,2013-08-29 19:02:00,
2013-08-29 15:03:00,85.3,50.8,30.02,SE,145,4.7,4.7,30,0.00,,,0.00,684.55,VWS V14.01,2013-08-29 19:03:00,
2013-08-29 15:04:00,86.2,51.8,30.01,NNE,16,3.7,4.7,31,0.00,,,0.00,683.82,VWS V14.01,2013-08-29 19:04:00,
2013-08-29 15:05:00,84.6,48.7,30.00,SE,133,3.5,6.3,29,0.00,,,0.00,682.66,VWS V14.01,2013-08-29 19:05:00,
2013-08-29 15:07:00,85.4,49.1,30.00,ESE,122,2.8,2.8,29,0.00,,,0.00,677.96,VWS V14.01,2013-08-29 19:07:00,
2013-08-29 15:08:00,86.5,50.8,30.00,South,169,3.4,3.4,29,0.00,,,0.00,675.52,VWS V14.01,2013-08-29 19:08:00,
2013-08-29 15:09:00,83.3,46.2,30.00,ESE,102,7.6,7.6,27,0.00,,,0.00,669.90,VWS V14.01,2013-08-29 19:09:00,
2013-08-29 15:10:00,85.6,49.7,30.00,East,88,1.5,7.6,29,0.00,,,0.00,690.35,VWS V14.01,2013-08-29 19:10:00,
2013-08-29 15:11:00,85.5,51.2,30.00,SE,138,5.4,6.6,31,0.00,,,0.00,688.46,VWS V14.01,2013-08-29 19:11:00,
2013-08-29 15:12:00,84.6,48.4,30.00,SSE,158,4.4,5.4,29,0.00,,,0.00,674.05,VWS V14.01,2013-08-29 19:12:00,
2013-08-29 15:13:00,85.4,50.9,30.00,ESE,110,4.9,9.7,31,0.00,,,0.00,678.21,VWS V14.01,2013-08-29 19:13:00,
2013-08-29 15:14:00,84.1,50.0,30.01,ESE,112,6.6,7.1,31,0.00,,,0.00,689.19,VWS V14.01,2013-08-29 19:14:00,
2013-08-29 15:15:00,83.8,43.2,30.00,East,97,8.8,8.8,24,0.00,,,0.00,693.65,VWS V14.01,2013-08-29 19:15:00,
2013-08-29 15:16:00,83.6,49.2,30.00,East,79,6.6,8.8,30,0.00,,,0.00,700.43,VWS V14.01,2013-08-29 19:16:00,
2013-08-29 15:17:00,84.8,51.1,30.00,ESE,111,4.7,6.6,31,0.00,,,0.00,706.04,VWS V14.01,2013-08-29 19:17:00,
2013-08-29 15:18:00,85.6,50.7,30.00,East,82,2.8,5.2,30,0.00,,,0.00,705.07,VWS V14.01,2013-08-29 19:18:00,
2013-08-29 15:19:00,87.7,52.7,30.00,South,171,0.0,2.8,30,0.00,,,0.00,674.12,VWS V14.01,2013-08-29 19:19:00,
2013-08-29 15:20:00,84.5,48.6,30.00,SSE,150,5.1,5.1,29,0.00,,,0.00,685.78,VWS V14.01,2013-08-29 19:20:00,
2013-08-29 15:21:00,83.5,48.2,30.00,SE,124,4.0,4.0,29,0.00,,,0.00,175.64,VWS V14.01,2013-08-29 19:21:00,
2013-08-29 15:22:00,83.2,48.8,30.00,SE,136,6.1,6.1,30,0.00,,,0.00,179.06,VWS V14.01,2013-08-29 19:22:00,
2013-08-29 15:23:00,83.3,47.2,30.00,East,89,5.4,7.8,28,0.00,,,0.00,672.28,VWS V14.01,2013-08-29 19:23:00,
2013-08-29 15:24:00,85.2,52.2,30.00,ESE,118,3.7,5.4,32,0.00,,,0.00,677.96,VWS V14.01,2013-08-29 19:24:00,
2013-08-29 15:25:00,83.2,50.0,30.00,East,97,6.9,6.9,32,0.00,,,0.00,671.37,VWS V14.01,2013-08-29 19:25:00,
2013-08-29 15:26:00,85.4,52.6,30.00,SE,146,2.7,6.9,33,0.00,,,0.00,668.93,VWS V14.01,2013-08-29 19:26:00,
2013-08-29 15:27:00,84.7,51.8,30.00,SE,133,4.9,5.1,32,0.00,,,0.00,659.16,VWS V14.01,2013-08-29 19:27:00,
2013-08-29 15:28:00,83.8,49.9,30.00,South,180,3.4,4.9,31,0.00,,,0.00,657.20,VWS V14.01,2013-08-29 19:28:00,
2013-08-29 15:29:00,84.4,51.2,30.00,East,84,6.4,6.4,32,0.00,,,0.00,664.29,VWS V14.01,2013-08-29 19:29:00,
2013-08-29 15:30:00,84.7,50.7,30.01,East,97,4.4,4.4,31,0.00,,,0.00,666.48,VWS V14.01,2013-08-29 19:30:00,
2013-08-29 15:31:00,84.9,50.5,30.01,ENE,60,4.9,4.9,30,0.00,,,0.00,672.28,VWS V14.01,2013-08-29 19:31:00,
2013-08-29 15:32:00,86.4,52.7,30.00,SE,140,3.5,4.9,32,0.00,,,0.00,671.98,VWS V14.01,2013-08-29 19:32:00,
2013-08-29 15:33:00,85.1,49.8,29.99,SSE,165,4.7,4.7,30,0.00,,,0.00,676.25,VWS V14.01,2013-08-29 19:33:00,
2013-08-29 15:34:00,87.3,53.7,30.00,SE,140,5.1,5.1,32,0.00,,,0.00,677.47,VWS V14.01,2013-08-29 19:34:00,
2013-08-29 15:35:00,86.8,51.4,30.00,SSE,165,4.2,5.1,30,0.00,,,0.00,671.37,VWS V14.01,2013-08-29 19:35:00,
2013-08-29 15:36:00,85.5,51.0,30.00,SSE,165,6.6,6.6,30,0.00,,,0.00,677.96,VWS V14.01,2013-08-29 19:36:00,
2013-08-29 15:37:00,84.4,49.2,30.00,SE,134,7.3,7.3,30,0.00,,,0.00,681.07,VWS V14.01,2013-08-29 19:37:00,
2013-08-29 15:38:00,85.5,51.0,30.00,South,190,5.6,7.3,30,0.00,,,0.00,688.40,VWS V14.01,2013-08-29 19:38:00,
2013-08-29 15:39:00,83.4,48.7,30.00,ESE,105,7.8,7.8,30,0.00,,,0.00,695.79,VWS V14.01,2013-08-29 19:39:00,
2013-08-29 15:40:00,84.6,51.6,30.00,ESE,118,3.2,7.8,32,0.00,,,0.00,701.40,VWS V14.01,2013-08-29 19:40:00,
2013-08-29 15:41:00,84.6,51.6,30.00,ESE,118,3.2,7.8,32,0.00,,,0.00,701.40,VWS V14.01,2013-08-29 19:41:00,
2013-08-29 15:42:00,84.2,50.5,30.00,ENE,68,7.1,7.1,31,0.00,,,0.00,697.92,VWS V14.01,2013-08-29 19:42:00,
2013-08-29 15:43:00,85.1,50.8,30.00,ENE,75,5.2,7.1,31,0.00,,,0.00,688.95,VWS V14.01,2013-08-29 19:43:00,
2013-08-29 15:44:00,83.7,49.4,30.00,ENE,64,2.7,5.4,30,0.00,,,0.00,676.25,VWS V14.01,2013-08-29 19:44:00,
2013-08-29 15:45:00,83.4,48.2,30.01,ENE,73,4.4,4.4,29,0.00,,,0.00,676.25,VWS V14.01,2013-08-29 19:45:00,
2013-08-29 15:46:00,84.9,50.0,30.00,NE,34,5.2,5.2,30,0.00,,,0.00,667.70,VWS V14.01,2013-08-29 19:46:00,
2013-08-29 15:47:00,86.2,51.9,30.00,ENE,64,3.4,4.2,31,0.00,,,0.00,665.93,VWS V14.01,2013-08-29 19:47:00,
2013-08-29 15:48:00,85.3,50.4,30.00,ESE,102,5.9,5.9,30,0.00,,,0.00,661.29,VWS V14.01,2013-08-29 19:48:00,
2013-08-29 15:49:00,83.8,48.1,30.00,East,80,7.6,7.8,29,0.00,,,0.00,629.85,VWS V14.01,2013-08-29 19:49:00,
2013-08-29 15:50:00,85.7,51.0,29.99,SW,222,5.9,7.6,30,0.00,,,0.00,190.42,VWS V14.01,2013-08-29 19:50:00,
2013-08-29 15:51:00,84.2,49.7,30.01,ESE,115,3.2,5.9,30,0.00,,,0.00,165.14,VWS V14.01,2013-08-29 19:51:00,
2013-08-29 15:52:00,82.7,47.8,30.01,East,91,4.5,5.9,30,0.00,,,0.00,154.40,VWS V14.01,2013-08-29 19:52:00,
2013-08-29 15:53:00,82.9,45.4,30.00,SSE,161,2.7,5.7,27,0.00,,,0.00,161.97,VWS V14.01,2013-08-29 19:53:00,
2013-08-29 15:54:00,85.0,50.4,30.01,North,1,1.0,2.7,30,0.00,,,0.00,657.33,VWS V14.01,2013-08-29 19:54:00,
2013-08-29 15:55:00,84.9,49.5,30.00,SSE,158,5.4,5.4,29,0.00,,,0.00,637.42,VWS V14.01,2013-08-29 19:55:00,
2013-08-29 15:56:00,84.5,49.1,30.00,East,88,4.4,5.4,29,0.00,,,0.00,632.30,VWS V14.01,2013-08-29 19:56:00,
2013-08-29 15:57:00,84.5,49.1,30.00,East,88,4.4,5.4,29,0.00,,,0.00,632.30,VWS V14.01,2013-08-29 19:57:00,
2013-08-29 15:58:00,85.1,50.0,30.00,East,99,5.1,5.1,30,0.00,,,0.00,630.46,VWS V14.01,2013-08-29 19:58:00,
2013-08-29 15:59:00,84.2,48.7,30.00,NE,53,6.1,6.1,29,0.00,,,0.00,627.66,VWS V14.01,2013-08-29 19:59:00,
2013-08-29 16:00:00,84.3,49.0,30.00,East,91,6.4,6.4,29,0.00,,,0.00,624.97,VWS V14.01,2013-08-29 20:00:00,
2013-08-29 16:01:00,84.3,49.0,30.00,East,91,6.4,6.4,29,0.00,,,0.00,624.97,VWS V14.01,2013-08-29 20:01:00,
2013-08-29 16:02:00,83.5,48.8,30.00,ENE,67,6.1,6.1,30,0.00,,,0.00,613.00,VWS V14.01,2013-08-29 20:02:00,
2013-08-29 16:03:00,84.0,49.5,30.00,East,86,5.9,6.1,30,0.00,,,0.00,599.57,VWS V14.01,2013-08-29 20:03:00,
2013-08-29 16:04:00,84.6,50.0,30.00,East,97,5.9,7.6,30,0.00,,,0.00,598.54,VWS V14.01,2013-08-29 20:04:00,
2013-08-29 16:05:00,84.1,49.3,30.00,East,95,6.1,6.3,30,0.00,,,0.00,583.46,VWS V14.01,2013-08-29 20:05:00,
2013-08-29 16:06:00,84.1,49.3,30.00,East,95,6.1,6.3,30,0.00,,,0.00,583.46,VWS V14.01,2013-08-29 20:06:00,
2013-08-29 16:07:00,83.5,47.7,30.00,ESE,102,4.0,4.0,29,0.00,,,0.00,563.68,VWS V14.01,2013-08-29 20:07:00,
2013-08-29 16:08:00,83.2,47.3,30.00,East,89,3.9,5.1,29,0.00,,,0.00,136.81,VWS V14.01,2013-08-29 20:08:00,
2013-08-29 16:09:00,83.2,48.8,30.00,East,98,2.7,5.6,30,0.00,,,0.00,134.13,VWS V14.01,2013-08-29 20:09:00,
2013-08-29 16:10:00,83.4,48.5,30.00,SSW,203,3.9,5.1,30,0.00,,,0.00,429.30,VWS V14.01,2013-08-29 20:10:00,
2013-08-29 16:11:00,83.4,48.8,30.00,East,91,4.2,4.2,30,0.00,,,0.00,566.36,VWS V14.01,2013-08-29 20:11:00,
2013-08-29 16:12:00,82.8,47.4,29.99,East,98,4.4,4.4,29,0.00,,,0.00,426.43,VWS V14.01,2013-08-29 20:12:00,
2013-08-29 16:13:00,83.8,49.4,30.00,NE,50,3.9,4.2,30,0.00,,,0.00,148.78,VWS V14.01,2013-08-29 20:13:00,
2013-08-29 16:14:00,84.3,50.4,30.00,ESE,122,3.2,4.7,31,0.00,,,0.00,510.68,VWS V14.01,2013-08-29 20:14:00,
2013-08-29 16:15:00,84.7,51.7,30.00,ESE,121,3.0,3.2,32,0.00,,,0.00,496.15,VWS V14.01,2013-08-29 20:15:00,
2013-08-29 16:16:00,83.6,49.1,30.01,East,89,5.7,5.7,30,0.00,,,0.00,574.60,VWS V14.01,2013-08-29 20:16:00,
2013-08-29 16:17:00,84.9,51.0,29.99,ENE,67,4.0,4.0,31,0.00,,,0.00,560.01,VWS V14.01,2013-08-29 20:17:00,
2013-08-29 16:18:00,84.3,50.4,29.99,NE,53,5.9,5.9,31,0.00,,,0.00,554.64,VWS V14.01,2013-08-29 20:18:00,
2013-08-29 16:19:00,83.9,48.4,30.01,East,95,5.1,5.9,29,0.00,,,0.00,551.65,VWS V14.01,2013-08-29 20:19:00,
2013-08-29 16:20:00,84.5,50.0,30.00,East,88,4.0,4.9,30,0.00,,,0.00,554.15,VWS V14.01,2013-08-29 20:20:00,
2013-08-29 16:21:00,84.4,49.2,30.00,ESE,122,7.8,7.8,30,0.00,,,0.00,550.37,VWS V14.01,2013-08-29 20:21:00,
2013-08-29 16:22:00,84.2,48.6,30.00,East,82,3.4,7.8,29,0.00,,,0.00,548.78,VWS V14.01,2013-08-29 20:22:00,
2013-08-29 16:23:00,84.8,49.6,29.99,East,85,3.5,3.5,30,0.00,,,0.00,540.35,VWS V14.01,2013-08-29 20:23:00,
2013-08-29 16:24:00,84.8,49.6,29.99,East,85,3.5,3.5,30,0.00,,,0.00,540.35,VWS V14.01,2013-08-29 20:24:00,
2013-08-29 16:25:00,84.8,50.2,29.99,SE,127,4.2,5.7,30,0.00,,,0.00,540.23,VWS V14.01,2013-08-29 20:25:00,
2013-08-29 16:26:00,85.6,51.2,29.99,SSE,154,3.0,6.6,31,0.00,,,0.00,420.88,VWS V14.01,2013-08-29 20:26:00,
2013-08-29 16:27:00,83.7,49.3,29.99,East,92,5.2,7.3,30,0.00,,,0.00,405.13,VWS V14.01,2013-08-29 20:27:00,
2013-08-29 16:28:00,84.3,49.8,29.99,ESE,120,4.5,5.2,30,0.00,,,0.00,429.61,VWS V14.01,2013-08-29 20:28:00,
2013-08-29 16:29:00,84.1,50.0,29.99,SSE,157,6.3,6.3,31,0.00,,,0.00,541.21,VWS V14.01,2013-08-29 20:29:00,
2013-08-29 16:30:00,85.5,51.5,30.00,East,99,3.2,6.3,31,0.00,,,0.00,526.56,VWS V14.01,2013-08-29 20:30:00,
2013-08-29 16:31:00,84.4,49.6,29.99,East,81,5.9,5.9,30,0.00,,,0.00,534.01,VWS V14.01,2013-08-29 20:31:00,
2013-08-29 16:32:00,84.7,50.3,29.99,ESE,107,4.4,4.4,30,0.00,,,0.00,530.89,VWS V14.01,2013-08-29 20:32:00,
2013-08-29 16:33:00,85.8,52.0,29.99,ESE,123,5.9,5.9,31,0.00,,,0.00,526.98,VWS V14.01,2013-08-29 20:33:00,
2013-08-29 16:34:00,85.0,50.8,29.99,SE,133,5.6,5.9,31,0.00,,,0.00,524.60,VWS V14.01,2013-08-29 20:34:00,
2013-08-29 16:35:00,85.3,51.0,29.99,SE,128,5.2,6.6,31,0.00,,,0.00,517.28,VWS V14.01,2013-08-29 20:35:00,
2013-08-29 16:36:00,84.0,49.4,29.98,SE,134,7.5,7.5,30,0.00,,,0.00,512.09,VWS V14.01,2013-08-29 20:36:00,
2013-08-29 16:37:00,84.0,48.2,29.99,SE,136,6.3,6.3,29,0.00,,,0.00,506.29,VWS V14.01,2013-08-29 20:37:00,
2013-08-29 16:38:00,85.1,50.6,29.99,SSE,149,6.4,6.4,30,0.00,,,0.00,503.85,VWS V14.01,2013-08-29 20:38:00,
2013-08-29 16:39:00,84.5,50.2,29.99,SSE,151,5.4,6.4,31,0.00,,,0.00,510.32,VWS V14.01,2013-08-29 20:39:00,
2013-08-29 16:40:00,85.0,51.1,29.99,East,100,4.7,5.6,31,0.00,,,0.00,505.92,VWS V14.01,2013-08-29 20:40:00,
2013-08-29 16:41:00,84.5,50.2,29.99,ENE,60,4.4,4.7,30,0.00,,,0.00,499.94,VWS V14.01,2013-08-29 20:41:00,
2013-08-29 16:42:00,84.2,48.8,29.99,ESE,104,6.4,6.4,29,0.00,,,0.00,493.10,VWS V14.01,2013-08-29 20:42:00,
2013-08-29 16:43:00,84.9,50.2,29.99,ENE,58,8.1,8.1,30,0.00,,,0.00,486.45,VWS V14.01,2013-08-29 20:43:00,
2013-08-29 16:44:00,84.4,50.1,29.99,ESE,116,4.2,8.1,31,0.00,,,0.00,473.57,VWS V14.01,2013-08-29 20:44:00,
2013-08-29 16:45:00,84.0,48.5,29.99,SE,133,5.6,5.7,29,0.00,,,0.00,463.49,VWS V14.01,2013-08-29 20:45:00,
2013-08-29 16:46:00,84.0,48.7,29.99,SE,134,6.3,6.3,29,0.00,,,0.00,456.96,VWS V14.01,2013-08-29 20:46:00,
2013-08-29 16:47:00,83.3,49.2,29.99,East,96,6.9,6.9,31,0.00,,,0.00,452.20,VWS V14.01,2013-08-29 20:47:00,
2013-08-29 16:48:00,83.4,48.9,29.99,East,85,4.0,4.5,30,0.00,,,0.00,481.20,VWS V14.01,2013-08-29 20:48:00,
2013-08-29 16:49:00,83.9,49.4,29.99,ENE,67,3.5,4.0,30,0.00,,,0.00,479.91,VWS V14.01,2013-08-29 20:49:00,
2013-08-29 16:50:00,85.4,51.0,29.99,South,185,5.1,5.1,31,0.00,,,0.00,478.63,VWS V14.01,2013-08-29 20:50:00,
2013-08-29 16:51:00,85.1,50.9,29.99,East,99,7.5,7.8,31,0.00,,,0.00,477.90,VWS V14.01,2013-08-29 20:51:00,
2013-08-29 16:52:00,85.1,50.5,29.99,SE,125,5.6,5.6,30,0.00,,,0.00,476.37,VWS V14.01,2013-08-29 20:52:00,
2013-08-29 16:53:00,85.0,50.4,29.99,SSE,148,4.7,5.9,30,0.00,,,0.00,468.93,VWS V14.01,2013-08-29 20:53:00,
2013-08-29 16:54:00,86.1,52.4,29.98,East,93,3.2,5.1,32,0.00,,,0.00,462.94,VWS V14.01,2013-08-29 20:54:00,
2013-08-29 16:55:00,86.4,51.9,29.98,SSE,157,3.5,3.5,31,0.00,,,0.00,461.36,VWS V14.01,2013-08-29 20:55:00,
2013-08-29 16:56:00,84.2,47.0,29.99,ESE,115,6.8,6.8,27,0.00,,,0.00,453.97,VWS V14.01,2013-08-29 20:56:00,
2013-08-29 16:57:00,84.8,48.2,29.99,SSE,163,7.6,7.6,28,0.00,,,0.00,456.47,VWS V14.01,2013-08-29 20:57:00,
2013-08-29 16:58:00,85.2,49.1,29.99,NE,47,6.1,6.1,29,0.00,,,0.00,457.94,VWS V14.01,2013-08-29 20:58:00,
2013-08-29 16:59:00,85.4,48.8,29.99,ENE,61,3.7,6.1,28,0.00,,,0.00,457.88,VWS V14.01,2013-08-29 20:59:00,
2013-08-29 17:00:00,85.2,48.2,29.99,East,100,2.5,3.7,28,0.00,,,0.00,454.27,VWS V14.01,2013-08-29 21:00:00,
2013-08-29 17:01:00,84.3,47.7,29.98,ENE,61,4.2,4.2,28,0.00,,,0.00,448.17,VWS V14.01,2013-08-29 21:01:00,
2013-08-29 17:02:00,84.0,47.0,29.99,ESE,109,5.2,5.2,28,0.00,,,0.00,444.57,VWS V14.01,2013-08-29 21:02:00,
2013-08-29 17:03:00,85.3,49.3,29.98,SE,136,3.7,5.2,29,0.00,,,0.00,442.06,VWS V14.01,2013-08-29 21:03:00,
2013-08-29 17:04:00,85.5,49.4,29.98,South,171,3.7,6.4,29,0.00,,,0.00,441.51,VWS V14.01,2013-08-29 21:04:00,
2013-08-29 17:05:00,85.4,48.8,29.98,SE,144,4.5,4.5,28,0.00,,,0.00,440.66,VWS V14.01,2013-08-29 21:05:00,
2013-08-29 17:06:00,84.8,47.7,29.98,SE,145,6.3,6.3,28,0.00,,,0.00,439.87,VWS V14.01,2013-08-29 21:06:00,
2013-08-29 17:07:00,84.4,48.2,29.99,East,88,6.4,6.4,28,0.00,,,0.00,436.94,VWS V14.01,2013-08-29 21:07:00,
2013-08-29 17:08:00,84.9,49.2,29.98,SE,140,4.7,6.4,29,0.00,,,0.00,436.33,VWS V14.01,2013-08-29 21:08:00,
2013-08-29 17:09:00,84.1,47.7,30.00,SE,142,4.5,4.7,28,0.00,,,0.00,431.75,VWS V14.01,2013-08-29 21:09:00,
2013-08-29 17:10:00,85.0,49.8,29.99,SSE,147,5.9,5.9,30,0.00,,,0.00,426.43,VWS V14.01,2013-08-29 21:10:00,
2013-08-29 17:11:00,84.5,49.0,29.99,ESE,103,6.4,6.4,29,0.00,,,0.00,422.04,VWS V14.01,2013-08-29 21:11:00,
2013-08-29 17:12:00,83.2,47.1,29.98,ESE,108,5.9,7.5,28,0.00,,,0.00,419.60,VWS V14.01,2013-08-29 21:12:00,
2013-08-29 17:13:00,84.2,48.9,29.98,SSE,147,5.1,5.9,29,0.00,,,0.00,418.86,VWS V14.01,2013-08-29 21:13:00,
2013-08-29 17:14:00,84.2,49.1,29.98,ESE,123,4.2,5.1,30,0.00,,,0.00,417.89,VWS V14.01,2013-08-29 21:14:00,
2013-08-29 17:15:00,83.9,48.3,29.98,ENE,69,3.9,5.7,29,0.00,,,0.00,408.06,VWS V14.01,2013-08-29 21:15:00,
2013-08-29 17:16:00,84.4,48.6,29.99,SSE,160,4.5,4.5,29,0.00,,,0.00,407.63,VWS V14.01,2013-08-29 21:16:00,
2013-08-29 17:17:00,84.8,49.5,29.98,SSE,148,5.9,5.9,30,0.00,,,0.00,399.94,VWS V14.01,2013-08-29 21:17:00,
2013-08-29 17:18:00,83.7,48.0,29.99,ESE,117,9.0,9.0,29,0.00,,,0.00,392.98,VWS V14.01,2013-08-29 21:18:00,
2013-08-29 17:19:00,84.2,49.2,29.98,ENE,74,5.1,9.0,30,0.00,,,0.00,389.80,VWS V14.01,2013-08-29 21:19:00,
2013-08-29 17:20:00,84.1,49.4,29.99,SSW,205,9.0,9.0,30,0.00,,,0.00,378.33,VWS V14.01,2013-08-29 21:20:00,
2013-08-29 17:21:00,84.9,49.9,29.98,East,98,5.6,9.0,30,0.00,,,0.00,383.82,VWS V14.01,2013-08-29 21:21:00,
2013-08-29 17:22:00,83.9,49.0,29.99,ESE,112,3.7,6.6,30,0.00,,,0.00,396.15,VWS V14.01,2013-08-29 21:22:00,
2013-08-29 17:23:00,83.4,43.1,29.98,ESE,105,6.1,6.6,24,0.00,,,0.00,395.67,VWS V14.01,2013-08-29 21:23:00,
2013-08-29 17:24:00,84.8,50.4,29.98,ESE,122,3.5,6.6,31,0.00,,,0.00,394.32,VWS V14.01,2013-08-29 21:24:00,
2013-08-29 17:25:00,83.8,49.1,29.99,SSE,155,8.3,8.3,30,0.00,,,0.00,391.94,VWS V14.01,2013-08-29 21:25:00,
2013-08-29 17:26:00,83.7,48.7,29.98,NE,50,6.8,8.3,30,0.00,,,0.00,386.14,VWS V14.01,2013-08-29 21:26:00,
2013-08-29 17:27:00,84.1,49.3,29.99,ESE,121,4.5,6.8,30,0.00,,,0.00,382.72,VWS V14.01,2013-08-29 21:27:00,
2013-08-29 17:28:00,84.0,49.1,29.99,East,99,3.9,4.5,30,0.00,,,0.00,380.77,VWS V14.01,2013-08-29 21:28:00,
2013-08-29 17:29:00,84.2,49.2,29.99,East,84,4.9,4.9,30,0.00,,,0.00,378.33,VWS V14.01,2013-08-29 21:29:00,
2013-08-29 17:30:00,84.1,48.9,29.99,SSE,149,6.3,6.3,30,0.00,,,0.00,375.89,VWS V14.01,2013-08-29 21:30:00,
2013-08-29 17:31:00,83.6,47.8,29.99,SE,137,4.2,6.3,29,0.00,,,0.00,371.86,VWS V14.01,2013-08-29 21:31:00,
2013-08-29 17:32:00,83.1,47.6,29.99,ESE,115,7.1,7.1,29,0.00,,,0.00,368.56,VWS V14.01,2013-08-29 21:32:00,
2013-08-29 17:33:00,83.2,48.3,29.98,ENE,72,6.9,7.1,30,0.00,,,0.00,360.93,VWS V14.01,2013-08-29 21:33:00,
2013-08-29 17:34:00,84.2,50.1,29.99,NE,52,3.7,3.7,31,0.00,,,0.00,354.82,VWS V14.01,2013-08-29 21:34:00,
2013-08-29 17:35:00,83.9,49.3,29.98,East,88,5.4,5.4,30,0.00,,,0.00,354.40,VWS V14.01,2013-08-29 21:35:00,
2013-08-29 17:36:00,83.9,49.2,29.98,East,97,5.6,5.6,30,0.00,,,0.00,353.91,VWS V14.01,2013-08-29 21:36:00,
2013-08-29 17:37:00,84.5,49.8,29.98,ESE,102,2.3,3.2,30,0.00,,,0.00,352.38,VWS V14.01,2013-08-29 21:37:00,
2013-08-29 17:38:00,85.0,49.2,29.99,NNE,17,1.3,2.3,29,0.00,,,0.00,348.05,VWS V14.01,2013-08-29 21:38:00,
2013-08-29 17:39:00,84.7,49.0,29.98,SE,136,4.2,4.7,29,0.00,,,0.00,336.81,VWS V14.01,2013-08-29 21:39:00,
2013-08-29 17:40:00,84.9,50.4,29.98,SE,144,3.4,4.2,30,0.00,,,0.00,334.07,VWS V14.01,2013-08-29 21:40:00,
2013-08-29 17:41:00,84.6,49.9,29.98,East,82,3.2,3.4,30,0.00,,,0.00,331.93,VWS V14.01,2013-08-29 21:41:00,
2013-08-29 17:42:00,83.5,48.7,29.99,ESE,110,4.4,6.8,30,0.00,,,0.00,336.81,VWS V14.01,2013-08-29 21:42:00,
2013-08-29 17:43:00,85.0,50.9,29.98,SSE,149,5.7,5.7,31,0.00,,,0.00,335.10,VWS V14.01,2013-08-29 21:43:00,
2013-08-29 17:44:00,84.4,50.0,29.98,SSE,148,3.7,5.7,31,0.00,,,0.00,333.88,VWS V14.01,2013-08-29 21:44:00,
2013-08-29 17:45:00,84.5,49.8,29.98,SE,125,4.0,5.1,30,0.00,,,0.00,334.19,VWS V14.01,2013-08-29 21:45:00,
2013-08-29 17:46:00,84.5,49.9,29.98,East,97,4.2,4.2,30,0.00,,,0.00,332.97,VWS V14.01,2013-08-29 21:46:00,
2013-08-29 17:47:00,83.8,47.9,29.99,SE,128,4.9,4.9,29,0.00,,,0.00,335.04,VWS V14.01,2013-08-29 21:47:00,
2013-08-29 17:48:00,84.5,49.6,29.98,ESE,103,4.0,5.1,30,0.00,,,0.00,326.74,VWS V14.01,2013-08-29 21:48:00,
2013-08-29 17:49:00,83.6,47.9,29.98,ESE,116,4.4,4.4,29,0.00,,,0.00,323.87,VWS V14.01,2013-08-29 21:49:00,
2013-08-29 17:50:00,84.8,50.4,29.98,ESE,109,1.5,4.4,31,0.00,,,0.00,319.41,VWS V14.01,2013-08-29 21:50:00,
2013-08-29 17:51:00,85.0,50.4,29.98,SE,140,2.8,2.8,30,0.00,,,0.00,316.97,VWS V14.01,2013-08-29 21:51:00,
2013-08-29 17:52:00,83.7,49.9,29.98,ESE,120,6.3,6.3,31,0.00,,,0.00,312.39,VWS V14.01,2013-08-29 21:52:00,
2013-08-29 17:53:00,83.6,49.9,29.98,East,100,7.3,7.3,31,0.00,,,0.00,312.09,VWS V14.01,2013-08-29 21:53:00,
2013-08-29 17:54:00,84.5,51.5,29.98,ESE,117,2.3,7.3,32,0.00,,,0.00,307.51,VWS V14.01,2013-08-29 21:54:00,
2013-08-29 17:55:00,84.8,51.9,29.99,SE,139,3.4,3.4,32,0.00,,,0.00,303.85,VWS V14.01,2013-08-29 21:55:00,
2013-08-29 17:56:00,83.4,48.4,29.99,ESE,119,7.3,7.3,30,0.00,,,0.00,298.96,VWS V14.01,2013-08-29 21:56:00,
2013-08-29 17:57:00,84.1,49.6,29.99,ENE,74,3.7,7.3,30,0.00,,,0.00,296.22,VWS V14.01,2013-08-29 21:57:00,
2013-08-29 17:58:00,84.2,49.5,29.98,East,100,4.2,4.2,30,0.00,,,0.00,293.35,VWS V14.01,2013-08-29 21:58:00,
2013-08-29 17:59:00,83.7,48.9,29.99,SE,124,5.6,5.6,30,0.00,,,0.00,290.42,VWS V14.01,2013-08-29 21:59:00,
2013-08-29 18:01:00,85.1,51.2,29.99,SE,133,4.2,5.6,31,0.00,,,0.00,283.76,VWS V14.01,2013-08-29 22:01:00,
2013-08-29 18:02:00,83.9,49.9,29.98,ESE,105,5.1,5.6,31,0.00,,,0.00,287.97,VWS V14.01,2013-08-29 22:02:00,
2013-08-29 18:03:00,83.9,49.9,29.98,ESE,105,5.1,5.6,31,0.00,,,0.00,287.97,VWS V14.01,2013-08-29 22:03:00,
2013-08-29 18:04:00,84.1,44.8,29.98,SE,133,5.9,5.9,25,0.00,,,0.00,281.01,VWS V14.01,2013-08-29 22:04:00,
2013-08-29 18:05:00,84.5,50.6,29.99,SE,126,4.7,5.9,31,0.00,,,0.00,277.17,VWS V14.01,2013-08-29 22:05:00,
2013-08-29 18:06:00,84.8,49.2,29.98,SE,141,5.1,6.3,29,0.00,,,0.00,273.63,VWS V14.01,2013-08-29 22:06:00,
2013-08-29 18:07:00,85.7,50.1,29.99,NE,53,4.7,6.4,29,0.00,,,0.00,269.41,VWS V14.01,2013-08-29 22:07:00,
2013-08-29 18:08:00,84.2,48.5,29.99,SE,135,5.4,5.4,29,0.00,,,0.00,266.91,VWS V14.01,2013-08-29 22:08:00,
2013-08-29 18:09:00,85.0,48.3,29.99,SSE,151,4.5,6.4,28,0.00,,,0.00,271.49,VWS V14.01,2013-08-29 22:09:00,
2013-08-29 18:10:00,85.3,51.2,29.99,SE,135,4.9,4.9,31,0.00,,,0.00,271.61,VWS V14.01,2013-08-29 22:10:00,
2013-08-29 18:12:00,83.5,49.6,29.99,SE,142,4.5,5.6,31,0.00,,,0.00,268.44,VWS V14.01,2013-08-29 22:12:00,
2013-08-29 18:13:00,85.5,52.3,29.98,SSE,148,3.4,4.2,32,0.00,,,0.00,263.80,VWS V14.01,2013-08-29 22:13:00,
2013-08-29 18:14:00,84.5,51.0,29.99,ESE,115,3.9,4.2,32,0.00,,,0.00,264.16,VWS V14.01,2013-08-29 22:14:00,
2013-08-29 18:15:00,84.5,51.0,29.99,ESE,115,3.9,4.2,32,0.00,,,0.00,264.16,VWS V14.01,2013-08-29 22:15:00,
2013-08-29 18:16:00,85.1,52.1,29.98,South,191,6.8,6.8,32,0.00,,,0.00,256.23,VWS V14.01,2013-08-29 22:16:00,
2013-08-29 18:17:00,83.9,50.4,29.98,ESE,118,5.4,5.4,31,0.00,,,0.00,252.26,VWS V14.01,2013-08-29 22:17:00,
2013-08-29 18:18:00,84.1,51.0,29.99,ESE,108,3.9,5.4,32,0.00,,,0.00,250.00,VWS V14.01,2013-08-29 22:18:00,
2013-08-29 18:19:00,86.6,54.0,29.99,SSE,157,1.0,3.9,33,0.00,,,0.00,244.26,VWS V14.01,2013-08-29 22:19:00,
2013-08-29 18:20:00,83.8,50.5,29.99,ESE,121,5.2,5.2,32,0.00,,,0.00,244.02,VWS V14.01,2013-08-29 22:20:00,
2013-08-29 18:21:00,84.1,51.0,29.99,ENE,66,4.5,5.2,32,0.00,,,0.00,241.64,VWS V14.01,2013-08-29 22:21:00,
2013-08-29 18:22:00,84.0,50.9,29.98,East,90,3.5,3.5,32,0.00,,,0.00,236.69,VWS V14.01,2013-08-29 22:22:00,
2013-08-29 18:23:00,85.2,52.5,29.98,ENE,75,2.2,3.5,33,0.00,,,0.00,234.19,VWS V14.01,2013-08-29 22:23:00,
2013-08-29 18:24:00,84.2,51.3,29.99,SE,129,4.9,4.9,32,0.00,,,0.00,231.69,VWS V14.01,2013-08-29 22:24:00,
2013-08-29 18:25:00,84.3,51.5,29.98,ESE,123,5.1,5.1,32,0.00,,,0.00,227.53,VWS V14.01,2013-08-29 22:25:00,
2013-08-29 18:26:00,83.5,50.6,29.99,East,97,5.2,5.2,32,0.00,,,0.00,224.48,VWS V14.01,2013-08-29 22:26:00,
2013-08-29 18:27:00,85.0,50.5,29.99,SSE,154,4.0,4.4,30,0.00,,,0.00,221.73,VWS V14.01,2013-08-29 22:27:00,
2013-08-29 18:28:00,84.6,52.1,29.99,SE,130,2.8,4.0,33,0.00,,,0.00,219.60,VWS V14.01,2013-08-29 22:28:00,
2013-08-29 18:29:00,84.6,52.6,29.98,ESE,110,2.3,4.0,33,0.00,,,0.00,216.91,VWS V14.01,2013-08-29 22:29:00,
2013-08-29 18:30:00,86.0,54.5,29.99,SSE,147,1.0,2.3,34,0.00,,,0.00,214.71,VWS V14.01,2013-08-29 22:30:00,
2013-08-29 18:31:00,84.4,51.8,29.99,ESE,122,4.0,4.0,33,0.00,,,0.00,211.97,VWS V14.01,2013-08-29 22:31:00,
2013-08-29 18:32:00,83.7,50.7,29.99,SE,130,4.5,4.5,32,0.00,,,0.00,208.61,VWS V14.01,2013-08-29 22:32:00,
2013-08-29 18:33:00,83.6,50.7,29.98,SE,132,7.5,7.5,32,0.00,,,0.00,204.95,VWS V14.01,2013-08-29 22:33:00,
2013-08-29 18:34:00,84.2,51.5,29.99,SE,127,2.7,7.5,32,0.00,,,0.00,202.26,VWS V14.01,2013-08-29 22:34:00,
2013-08-29 18:35:00,83.3,50.0,29.98,ESE,120,3.2,3.2,31,0.00,,,0.00,199.76,VWS V14.01,2013-08-29 22:35:00,
2013-08-29 18:36:00,83.2,50.4,29.98,SE,124,3.2,3.2,32,0.00,,,0.00,197.62,VWS V14.01,2013-08-29 22:36:00,
2013-08-29 18:37:00,83.4,50.0,29.98,SE,127,4.2,4.2,31,0.00,,,0.00,199.08,VWS V14.01,2013-08-29 22:37:00,
2013-08-29 18:38:00,82.9,50.7,29.99,ESE,106,3.2,5.2,33,0.00,,,0.00,194.20,VWS V14.01,2013-08-29 22:38:00,
2013-08-29 18:39:00,82.7,51.0,29.98,ESE,115,3.2,3.2,33,0.00,,,0.00,191.76,VWS V14.01,2013-08-29 22:39:00,
2013-08-29 18:40:00,83.0,51.1,29.98,East,100,2.3,3.5,33,0.00,,,0.00,187.79,VWS V14.01,2013-08-29 22:40:00,
2013-08-29 18:41:00,82.7,50.3,29.98,SE,132,4.2,4.7,32,0.00,,,0.00,185.90,VWS V14.01,2013-08-29 22:41:00,
2013-08-29 18:42:00,83.3,51.5,30.00,East,96,1.6,4.2,33,0.00,,,0.00,182.60,VWS V14.01,2013-08-29 22:42:00,
2013-08-29 18:43:00,82.7,50.9,29.99,South,180,3.5,3.5,33,0.00,,,0.00,178.69,VWS V14.01,2013-08-29 22:43:00,
2013-08-29 18:44:00,82.7,50.9,29.99,South,180,3.5,3.5,33,0.00,,,0.00,178.69,VWS V14.01,2013-08-29 22:44:00,
2013-08-29 18:45:00,83.3,52.1,29.99,ESE,115,2.7,3.5,34,0.00,,,0.00,171.00,VWS V14.01,2013-08-29 22:45:00,
2013-08-29 18:46:00,82.8,51.5,29.98,ESE,106,3.4,3.4,34,0.00,,,0.00,170.45,VWS V14.01,2013-08-29 22:46:00,
2013-08-29 18:47:00,83.0,52.6,29.98,ENE,57,2.8,4.0,35,0.00,,,0.00,164.29,VWS V14.01,2013-08-29 22:47:00,
2013-08-29 18:48:00,82.2,50.9,29.99,East,100,4.9,4.9,34,0.00,,,0.00,163.43,VWS V14.01,2013-08-29 22:48:00,
2013-08-29 18:49:00,82.9,52.3,29.98,SE,132,3.4,5.1,35,0.00,,,0.00,160.68,VWS V14.01,2013-08-29 22:49:00,
2013-08-29 18:50:00,82.2,51.9,29.98,SE,124,4.2,5.9,35,0.00,,,0.00,158.55,VWS V14.01,2013-08-29 22:50:00,
2013-08-29 18:51:00,82.6,52.0,29.98,SE,125,3.2,3.5,35,0.00,,,0.00,151.22,VWS V14.01,2013-08-29 22:51:00,
2013-08-29 18:52:00,82.6,52.0,29.98,SE,125,3.2,3.5,35,0.00,,,0.00,151.22,VWS V14.01,2013-08-29 22:52:00,
2013-08-29 18:53:00,82.3,48.8,29.98,ESE,122,3.2,3.9,31,0.00,,,0.00,148.78,VWS V14.01,2013-08-29 22:53:00,
2013-08-29 18:54:00,82.4,51.8,29.98,ESE,116,3.4,3.4,35,0.00,,,0.00,146.34,VWS V14.01,2013-08-29 22:54:00,
2013-08-29 18:55:00,82.9,52.7,29.99,SSE,159,0.0,2.8,35,0.00,,,0.00,140.48,VWS V14.01,2013-08-29 22:55:00,
2013-08-29 18:56:00,82.3,51.7,29.98,East,98,2.8,2.8,35,0.00,,,0.00,135.35,VWS V14.01,2013-08-29 22:56:00,
2013-08-29 18:57:00,82.7,52.6,29.98,ESE,122,1.8,2.8,35,0.00,,,0.00,146.34,VWS V14.01,2013-08-29 22:57:00,
2013-08-29 18:58:00,82.6,52.7,29.98,SE,141,3.2,3.2,36,0.00,,,0.00,136.69,VWS V14.01,2013-08-29 22:58:00,
2013-08-29 18:59:00,81.9,51.8,30.01,ESE,117,3.2,3.2,35,0.00,,,0.00,133.64,VWS V14.01,2013-08-29 22:59:00,
2013-08-29 19:00:00,82.0,52.4,29.99,SE,128,2.5,3.2,36,0.00,,,0.00,131.38,VWS V14.01,2013-08-29 23:00:00,
2013-08-29 19:02:00,82.3,53.0,29.98,ESE,109,2.2,2.8,36,0.00,,,0.00,121.92,VWS V14.01,2013-08-29 23:02:00,
2013-08-29 19:03:00,82.1,52.9,29.98,ESE,117,3.4,3.4,37,0.00,,,0.00,124.85,VWS V14.01,2013-08-29 23:03:00,
2013-08-29 19:05:00,82.2,53.5,29.98,ESE,117,1.1,3.4,37,0.00,,,0.00,121.92,VWS V14.01,2013-08-29 23:05:00,
2013-08-29 19:06:00,82.0,53.7,29.98,ESE,117,2.2,3.5,38,0.00,,,0.00,119.47,VWS V14.01,2013-08-29 23:06:00,
2013-08-29 19:08:00,81.7,53.2,29.99,ESE,105,2.0,3.5,37,0.00,,,0.00,91.09,VWS V14.01,2013-08-29 23:08:00,
2013-08-29 19:11:00,81.7,54.0,29.98,SE,129,2.5,3.5,38,0.00,,,0.00,108.36,VWS V14.01,2013-08-29 23:11:00,
2013-08-29 19:12:00,81.4,53.7,29.98,East,99,4.2,4.2,38,0.00,,,0.00,104.82,VWS V14.01,2013-08-29 23:12:00,
2013-08-29 19:13:00,81.7,54.1,29.99,SE,133,2.7,4.2,39,0.00,,,0.00,102.08,VWS V14.01,2013-08-29 23:13:00,
2013-08-29 19:15:00,81.6,54.2,29.98,SE,127,3.4,4.2,39,0.00,,,0.00,96.76,VWS V14.01,2013-08-29 23:15:00,
2013-08-29 19:17:00,81.3,54.3,29.98,SE,125,3.7,4.2,39,0.00,,,0.00,92.86,VWS V14.01,2013-08-29 23:17:00,
2013-08-29 19:18:00,81.4,54.6,29.98,SE,124,3.9,4.2,40,0.00,,,0.00,100.31,VWS V14.01,2013-08-29 23:18:00,
2013-08-29 19:21:00,81.0,54.0,29.98,ESE,109,3.2,4.2,39,0.00,,,0.00,84.55,VWS V14.01,2013-08-29 23:21:00,
2013-08-29 19:22:00,81.2,54.5,29.98,ESE,123,2.7,4.2,40,0.00,,,0.00,85.29,VWS V14.01,2013-08-29 23:22:00,
2013-08-29 19:23:00,81.1,54.8,29.98,SE,138,2.8,4.2,40,0.00,,,0.00,78.94,VWS V14.01,2013-08-29 23:23:00,
2013-08-29 19:25:00,80.8,51.4,29.98,ESE,116,2.7,4.2,36,0.00,,,0.00,76.13,VWS V14.01,2013-08-29 23:25:00,
2013-08-29 19:28:00,80.5,54.5,30.00,ESE,109,2.3,5.1,41,0.00,,,0.00,66.97,VWS V14.01,2013-08-29 23:28:00,
2013-08-29 19:29:00,80.7,54.9,29.98,ESE,113,3.0,5.1,41,0.00,,,0.00,65.02,VWS V14.01,2013-08-29 23:29:00,
2013-08-29 19:30:00,80.7,54.8,29.98,ESE,116,4.2,5.1,41,0.00,,,0.00,56.96,VWS V14.01,2013-08-29 23:30:00,
2013-08-29 19:31:00,80.7,55.5,29.98,SE,140,1.3,5.1,42,0.00,,,0.00,60.87,VWS V14.01,2013-08-29 23:31:00,
2013-08-29 19:34:00,80.4,55.5,29.98,ESE,108,2.5,5.1,43,0.00,,,0.00,54.64,VWS V14.01,2013-08-29 23:34:00,
2013-08-29 19:35:00,80.5,56.0,29.98,SE,136,2.0,5.1,43,0.00,,,0.00,52.63,VWS V14.01,2013-08-29 23:35:00,
2013-08-29 19:37:00,80.1,55.6,29.98,ESE,112,0.0,5.1,43,0.00,,,0.00,48.90,VWS V14.01,2013-08-29 23:37:00,
2013-08-29 19:38:00,80.1,55.8,29.98,ESE,106,1.1,5.1,43,0.00,,,0.00,46.21,VWS V14.01,2013-08-29 23:38:00,
2013-08-29 19:40:00,79.7,56.0,29.98,ESE,121,2.0,5.1,44,0.00,,,0.00,42.55,VWS V14.01,2013-08-29 23:40:00,
2013-08-29 19:41:00,79.8,56.3,29.98,SE,130,2.3,5.1,45,0.00,,,0.00,41.33,VWS V14.01,2013-08-29 23:41:00,
2013-08-29 19:42:00,79.0,52.4,29.98,SE,128,0.0,5.1,40,0.00,,,0.00,38.89,VWS V14.01,2013-08-29 23:42:00,
2013-08-29 19:43:00,79.3,56.5,29.98,SE,128,0.0,5.1,46,0.00,,,0.00,34.74,VWS V14.01,2013-08-29 23:43:00,
2013-08-29 19:44:00,79.6,57.3,29.98,ESE,122,1.8,5.1,47,0.00,,,0.00,33.52,VWS V14.01,2013-08-29 23:44:00,
2013-08-29 19:45:00,79.1,57.1,29.98,ESE,122,0.0,5.1,47,0.00,,,0.00,34.00,VWS V14.01,2013-08-29 23:45:00,
2013-08-29 19:47:00,79.1,57.4,29.98,SE,139,1.1,5.1,47,0.00,,,0.00,30.10,VWS V14.01,2013-08-29 23:47:00,
2013-08-29 19:48:00,79.0,55.9,29.98,SE,145,1.5,5.1,45,0.00,,,0.00,29.12,VWS V14.01,2013-08-29 23:48:00,
2013-08-29 19:49:00,78.3,57.2,29.98,SE,142,0.0,5.1,48,0.00,,,0.00,26.37,VWS V14.01,2013-08-29 23:49:00,
2013-08-29 19:50:00,78.4,57.4,29.98,SE,142,0.0,5.1,48,0.00,,,0.00,24.85,VWS V14.01,2013-08-29 23:50:00,
2013-08-29 19:52:00,78.3,57.7,29.99,ESE,123,0.0,5.1,49,0.00,,,0.00,21.79,VWS V14.01,2013-08-29 23:52:00,
2013-08-29 19:53:00,78.3,57.7,29.99,ESE,123,0.0,5.1,49,0.00,,,0.00,21.79,VWS V14.01,2013-08-29 23:53:00,
2013-08-29 19:54:00,78.2,57.8,29.98,ESE,123,0.0,5.1,50,0.00,,,0.00,19.96,VWS V14.01,2013-08-29 23:54:00,
2013-08-29 19:55:00,77.9,57.9,29.98,ESE,123,0.0,5.1,50,0.00,,,0.00,19.66,VWS V14.01,2013-08-29 23:55:00,
2013-08-29 19:57:00,77.8,58.2,29.99,East,99,0.0,5.1,51,0.00,,,0.00,14.47,VWS V14.01,2013-08-29 23:57:00,
2013-08-29 19:58:00,77.9,58.5,29.99,East,95,0.0,5.1,51,0.00,,,0.00,13.25,VWS V14.01,2013-08-29 23:58:00,
2013-08-29 19:59:00,77.9,58.4,29.98,East,95,0.0,5.1,51,0.00,,,0.00,12.33,VWS V14.01,2013-08-29 23:59:00,
2013-08-29 20:00:00,82.2,53.2,29.98,SE,128,2.8,2.8,37,0.00,,,0.00,129.24,VWS V14.01,2013-08-30 00:00:00,
2013-08-29 20:01:00,77.8,58.4,29.98,East,95,0.0,5.1,51,0.00,,,0.00,11.42,VWS V14.01,2013-08-30 00:01:00,
2013-08-29 20:02:00,78.1,58.7,29.98,East,95,0.0,5.1,51,0.00,,,0.00,9.83,VWS V14.01,2013-08-30 00:02:00,
2013-08-29 20:03:00,78.1,58.8,29.99,East,95,0.0,0.0,52,0.00,,,0.00,9.58,VWS V14.01,2013-08-30 00:03:00,
2013-08-29 20:05:00,76.8,58.5,29.99,East,95,0.0,0.0,53,0.00,,,0.00,7.14,VWS V14.01,2013-08-30 00:05:00,
2013-08-29 20:06:00,76.5,58.8,29.99,East,95,0.0,0.0,54,0.00,,,0.00,6.23,VWS V14.01,2013-08-30 00:06:00,
2013-08-29 20:07:00,77.8,59.8,29.99,East,95,0.0,0.0,54,0.00,,,0.00,7.14,VWS V14.01,2013-08-30 00:07:00,
2013-08-29 20:08:00,77.9,59.9,29.99,NE,36,0.0,0.0,54,0.00,,,0.00,5.43,VWS V14.01,2013-08-30 00:08:00,
2013-08-29 20:09:00,78.0,59.8,29.99,NE,36,0.0,0.0,54,0.00,,,0.00,5.19,VWS V14.01,2013-08-30 00:09:00,
2013-08-29 20:10:00,77.9,59.6,29.99,NE,36,0.0,0.0,53,0.00,,,0.00,4.70,VWS V14.01,2013-08-30 00:10:00,
2013-08-29 20:13:00,76.5,60.1,29.99,NE,36,0.0,0.0,57,0.00,,,0.00,4.46,VWS V14.01,2013-08-30 00:13:00,
2013-08-29 20:14:00,76.3,60.2,30.00,NE,36,0.0,0.0,57,0.00,,,0.00,4.27,VWS V14.01,2013-08-30 00:14:00,
2013-08-29 20:15:00,75.6,60.0,29.99,NE,36,0.0,0.0,58,0.00,,,0.00,2.63,VWS V14.01,2013-08-30 00:15:00,
2013-08-29 20:16:00,75.7,60.1,29.98,NE,36,0.0,0.0,58,0.00,,,0.00,2.26,VWS V14.01,2013-08-30 00:16:00,
2013-08-29 20:17:00,75.9,60.8,29.99,NE,36,0.0,0.0,60,0.00,,,0.00,1.95,VWS V14.01,2013-08-30 00:17:00,
2013-08-29 20:19:00,75.4,61.4,29.99,NE,36,0.0,0.0,62,0.00,,,0.00,2.26,VWS V14.01,2013-08-30 00:19:00,
2013-08-29 20:21:00,75.8,61.3,30.00,NE,37,0.0,0.0,61,0.00,,,0.00,2.01,VWS V14.01,2013-08-30 00:21:00,
2013-08-29 20:23:00,76.1,61.4,30.00,NE,37,0.0,0.0,60,0.00,,,0.00,2.08,VWS V14.01,2013-08-30 00:23:00,
2013-08-29 20:24:00,75.9,61.3,30.00,NE,37,0.0,0.0,61,0.00,,,0.00,0.79,VWS V14.01,2013-08-30 00:24:00,
2013-08-29 20:26:00,76.9,61.5,29.99,NE,37,0.0,0.0,59,0.00,,,0.00,0.31,VWS V14.01,2013-08-30 00:26:00,
2013-08-29 20:27:00,76.9,61.5,29.99,NE,37,0.0,0.0,59,0.00,,,0.00,0.31,VWS V14.01,2013-08-30 00:27:00,
2013-08-29 20:28:00,75.7,60.6,29.99,NNE,20,0.0,0.0,59,0.00,,,0.00,0.55,VWS V14.01,2013-08-30 00:28:00,
2013-08-29 20:29:00,77.1,61.5,30.00,NNE,20,0.0,0.0,59,0.00,,,0.00,0.73,VWS V14.01,2013-08-30 00:29:00,
2013-08-29 20:32:00,74.2,59.9,30.00,NNE,20,0.0,1.3,61,0.00,,,0.00,0.43,VWS V14.01,2013-08-30 00:32:00,
2013-08-29 20:34:00,74.8,62.2,29.99,NNE,20,2.3,2.3,65,0.00,,,0.00,0.67,VWS V14.01,2013-08-30 00:34:00,
2013-08-29 20:38:00,75.7,62.1,30.00,NE,36,2.0,2.5,63,0.00,,,0.00,0.00,VWS V14.01,2013-08-30 00:38:00,
2013-08-29 20:39:00,75.6,62.0,30.00,NE,35,2.0,2.0,63,0.00,,,0.00,0.00,VWS V14.01,2013-08-30 00:39:00,
2013-08-29 20:40:00,75.5,61.9,30.00,NE,35,2.0,2.0,63,0.00,,,0.00,0.12,VWS V14.01,2013-08-30 00:40:00,
2013-08-29 20:42:00,73.9,61.3,30.00,NE,35,2.3,2.5,65,0.00,,,0.00,0.00,VWS V14.01,2013-08-30 00:42:00,
2013-08-29 20:44:00,73.4,62.1,30.00,NNE,31,2.0,2.2,68,0.00,,,0.00,0.00,VWS V14.01,2013-08-30 00:44:00,
2013-08-29 20:45:00,73.4,62.3,30.00,NNE,31,2.0,2.0,68,0.00,,,0.00,0.00,VWS V14.01,2013-08-30 00:45:00,
2013-08-29 20:46:00,73.3,62.6,30.01,NNE,31,1.0,2.0,69,0.00,,,0.00,0.00,VWS V14.01,2013-08-30 00:46:00,
2013-08-29 20:48:00,73.0,62.2,30.00,NNE,31,0.0,1.3,69,0.00,,,0.00,0.43,VWS V14.01,2013-08-30 00:48:00,
2013-08-29 20:49:00,73.0,62.9,30.00,NNE,31,0.0,0.0,71,0.00,,,0.00,0.00,VWS V14.01,2013-08-30 00:49:00,
2013-08-29 20:50:00,72.7,62.6,30.00,NNE,31,0.0,0.0,71,0.00,,,0.00,0.00,VWS V14.01,2013-08-30 00:50:00,
2013-08-29 20:51:00,72.1,62.0,30.00,NNE,31,0.0,0.0,71,0.00,,,0.00,0.00,VWS V14.01,2013-08-30 00:51:00,
2013-08-29 20:52:00,71.8,62.1,30.00,NNE,31,0.0,0.0,71,0.00,,,0.00,0.00,VWS V14.01,2013-08-30 00:52:00,
2013-08-29 20:54:00,71.8,60.5,30.00,NNE,31,0.0,0.0,68,0.00,,,0.00,0.00,VWS V14.01,2013-08-30 00:54:00,
2013-08-29 20:57:00,71.5,64.1,30.00,NNE,31,0.0,0.0,78,0.00,,,0.00,0.00,VWS V14.01,2013-08-30 00:57:00,
2013-08-29 20:58:00,71.5,64.1,30.00,NNE,31,0.0,0.0,78,0.00,,,0.00,0.00,VWS V14.01,2013-08-30 00:58:00,
2013-08-29 20:59:00,71.1,63.9,30.00,NNE,31,0.0,0.0,78,0.00,,,0.00,0.00,VWS V14.01,2013-08-30 00:59:00,
2013-08-29 21:00:00,71.6,64.5,30.00,NNE,31,0.0,0.0,78,0.00,,,0.00,0.00,VWS V14.01,2013-08-30 01:00:00,
2013-08-29 21:01:00,71.6,64.5,30.00,NNE,31,0.0,0.0,78,0.00,,,0.00,0.00,VWS V14.01,2013-08-30 01:01:00,
2013-08-29 21:02:00,77.9,58.7,29.99,East,95,0.0,0.0,52,0.00,,,0.00,9.58,VWS V14.01,2013-08-30 01:02:00,
2013-08-29 21:03:00,71.5,64.9,30.00,NNE,31,0.0,0.0,80,0.00,,,0.00,0.00,VWS V14.01,2013-08-30 01:03:00,
2013-08-29 21:04:00,71.3,64.9,30.00,NNE,31,0.0,0.0,80,0.00,,,0.00,0.00,VWS V14.01,2013-08-30 01:04:00,
2013-08-29 21:05:00,76.8,58.5,29.99,East,95,0.0,0.0,53,0.00,,,0.00,7.14,VWS V14.01,2013-08-30 01:05:00,
2013-08-29 21:06:00,76.5,58.8,29.99,East,95,0.0,0.0,54,0.00,,,0.00,6.23,VWS V14.01,2013-08-30 01:06:00,
2013-08-29 21:07:00,71.0,64.8,29.99,NNE,31,0.0,0.0,81,0.00,,,0.00,0.00,VWS V14.01,2013-08-30 01:07:00,
2013-08-29 21:08:00,71.4,65.6,29.99,NNE,31,0.0,0.0,82,0.00,,,0.00,0.00,VWS V14.01,2013-08-30 01:08:00,
2013-08-29 21:09:00,71.6,66.0,30.00,NNE,31,0.0,0.0,82,0.00,,,0.00,0.00,VWS V14.01,2013-08-30 01:09:00,
2013-08-29 21:10:00,77.9,59.6,29.99,NE,36,0.0,0.0,53,0.00,,,0.00,4.70,VWS V14.01,2013-08-30 01:10:00,
2013-08-29 21:11:00,77.2,59.2,30.00,NE,36,0.0,0.0,54,0.00,,,0.00,4.70,VWS V14.01,2013-08-30 01:11:00,
2013-08-29 21:12:00,73.2,67.5,30.00,NNE,31,0.0,0.0,82,0.00,,,0.00,0.00,VWS V14.01,2013-08-30 01:12:00,
2013-08-29 21:13:00,73.2,67.5,30.00,NNE,31,0.0,0.0,82,0.00,,,0.00,0.00,VWS V14.01,2013-08-30 01:13:00,
2013-08-29 21:14:00,73.1,66.5,30.00,NNE,31,0.0,1.8,80,0.00,,,0.00,0.73,VWS V14.01,2013-08-30 01:14:00,
2013-08-29 21:15:00,75.8,60.2,29.99,NE,36,0.0,0.0,58,0.00,,,0.00,4.64,VWS V14.01,2013-08-30 01:15:00,
2013-08-29 21:16:00,72.6,66.0,30.01,NNE,31,0.0,1.8,80,0.00,,,0.00,0.43,VWS V14.01,2013-08-30 01:16:00,
2013-08-29 21:17:00,75.9,60.8,29.99,NE,36,0.0,0.0,60,0.00,,,0.00,1.95,VWS V14.01,2013-08-30 01:17:00,
2013-08-29 21:18:00,75.5,61.2,29.99,NE,36,0.0,0.0,61,0.00,,,0.00,2.87,VWS V14.01,2013-08-30 01:18:00,
2013-08-29 21:19:00,72.4,66.3,30.00,NNE,31,0.0,1.8,81,0.00,,,0.00,0.43,VWS V14.01,2013-08-30 01:19:00,
2013-08-29 21:20:00,75.8,61.3,30.00,NE,37,0.0,0.0,61,0.00,,,0.00,2.01,VWS V14.01,2013-08-30 01:20:00,
2013-08-29 21:21:00,72.1,66.3,30.01,NNE,31,0.0,1.8,82,0.00,,,0.00,0.43,VWS V14.01,2013-08-30 01:21:00,
2013-08-29 21:22:00,76.0,61.4,29.99,NE,37,0.0,0.0,61,0.00,,,0.00,2.87,VWS V14.01,2013-08-30 01:22:00,
2013-08-29 21:23:00,76.1,61.4,30.00,NE,37,0.0,0.0,60,0.00,,,0.00,2.08,VWS V14.01,2013-08-30 01:23:00,
2013-08-29 21:24:00,71.6,66.3,30.00,ENE,71,2.3,2.3,83,0.00,,,0.00,0.00,VWS V14.01,2013-08-30 01:24:00,
2013-08-29 21:25:00,71.2,65.9,30.01,ENE,71,2.5,2.5,83,0.00,,,0.00,0.00,VWS V14.01,2013-08-30 01:25:00,
2013-08-29 21:26:00,71.4,66.2,30.00,ENE,71,2.3,2.5,84,0.00,,,0.00,0.00,VWS V14.01,2013-08-30 01:26:00,
2013-08-29 21:27:00,71.0,66.0,30.00,ENE,71,2.2,2.5,84,0.00,,,0.00,0.00,VWS V14.01,2013-08-30 01:27:00,
2013-08-29 21:28:00,73.7,68.8,30.00,ENE,71,1.8,2.5,85,0.00,,,0.00,0.00,VWS V14.01,2013-08-30 01:28:00,
2013-08-29 21:29:00,77.1,61.5,30.00,NNE,20,0.0,0.0,59,0.00,,,0.00,0.73,VWS V14.01,2013-08-30 01:29:00,
2013-08-29 21:30:00,71.3,66.0,30.00,ENE,71,1.3,2.5,83,0.00,,,0.00,0.00,VWS V14.01,2013-08-30 01:30:00,
2013-08-29 21:31:00,72.8,67.6,30.01,ENE,71,0.0,2.5,84,0.00,,,0.00,0.00,VWS V14.01,2013-08-30 01:31:00,
2013-08-29 21:32:00,72.6,67.2,30.01,ENE,71,0.0,2.5,83,0.00,,,0.00,0.43,VWS V14.01,2013-08-30 01:32:00,
2013-08-29 21:33:00,74.1,60.9,30.00,NNE,20,1.1,1.1,63,0.00,,,0.00,0.00,VWS V14.01,2013-08-30 01:33:00,
2013-08-29 21:34:00,72.3,67.0,30.01,ENE,70,0.0,2.5,83,0.00,,,0.00,0.00,VWS V14.01,2013-08-30 01:34:00,
2013-08-29 21:35:00,73.2,67.7,30.01,ENE,70,0.0,2.5,83,0.00,,,0.00,0.00,VWS V14.01,2013-08-30 01:35:00,
2013-08-29 21:36:00,75.4,62.6,30.00,NNE,20,2.3,2.5,64,0.00,,,0.00,0.43,VWS V14.01,2013-08-30 01:36:00,
2013-08-29 21:37:00,73.1,66.7,30.01,NE,44,2.0,2.5,80,0.00,,,0.00,0.00,VWS V14.01,2013-08-30 01:37:00,
2013-08-29 21:38:00,75.7,62.1,30.00,NE,36,2.0,2.5,63,0.00,,,0.00,0.00,VWS V14.01,2013-08-30 01:38:00,
2013-08-29 21:39:00,72.8,66.1,30.01,NE,44,0.0,2.5,80,0.00,,,0.00,0.00,VWS V14.01,2013-08-30 01:39:00,
2013-08-29 21:40:00,72.7,66.0,30.01,NE,44,2.0,2.5,79,0.00,,,0.00,0.00,VWS V14.01,2013-08-30 01:40:00,
2013-08-29 21:41:00,71.8,64.9,30.00,NE,44,0.0,2.5,79,0.00,,,0.00,0.00,VWS V14.01,2013-08-30 01:41:00,
2013-08-29 21:42:00,72.5,66.4,30.01,NE,44,0.0,2.5,81,0.00,,,0.00,0.00,VWS V14.01,2013-08-30 01:42:00,
2013-08-29 21:43:00,73.8,62.0,30.00,NNE,31,2.2,2.3,66,0.00,,,0.00,0.43,VWS V14.01,2013-08-30 01:43:00,
2013-08-29 21:44:00,73.4,62.1,30.00,NNE,31,2.0,2.2,68,0.00,,,0.00,0.00,VWS V14.01,2013-08-30 01:44:00,
2013-08-29 21:45:00,70.6,63.6,30.03,NE,44,0.0,2.5,78,0.00,,,0.00,0.00,VWS V14.01,2013-08-30 01:45:00,
2013-08-29 21:46:00,70.1,63.4,30.02,NE,44,0.0,2.5,79,0.00,,,0.00,0.12,VWS V14.01,2013-08-30 01:46:00,
2013-08-29 21:47:00,73.5,63.1,30.00,NNE,31,1.3,1.3,70,0.00,,,0.00,0.00,VWS V14.01,2013-08-30 01:47:00,
2013-08-29 21:48:00,69.8,64.3,30.00,NE,44,0.0,2.5,83,0.00,,,0.00,0.00,VWS V14.01,2013-08-30 01:48:00,
2013-08-29 21:49:00,73.3,63.1,30.01,NNE,31,0.0,0.0,71,0.00,,,0.00,0.00,VWS V14.01,2013-08-30 01:49:00,
2013-08-29 21:50:00,72.7,62.6,30.00,NNE,31,0.0,0.0,71,0.00,,,0.00,0.00,VWS V14.01,2013-08-30 01:50:00,
2013-08-29 21:51:00,72.1,62.0,30.00,NNE,31,0.0,0.0,71,0.00,,,0.00,0.00,VWS V14.01,2013-08-30 01:51:00,
2013-08-29 21:52:00,69.4,64.5,30.02,NE,44,0.0,2.5,84,0.00,,,0.00,0.00,VWS V14.01,2013-08-30 01:52:00,
2013-08-29 21:53:00,71.5,66.1,30.02,NE,44,0.0,2.5,83,0.00,,,0.00,0.73,VWS V14.01,2013-08-30 01:53:00,
2013-08-29 21:54:00,72.2,68.4,30.02,NE,44,0.0,2.5,88,0.00,,,0.00,0.00,VWS V14.01,2013-08-30 01:54:00,
2013-08-29 21:55:00,72.2,68.4,30.02,NE,44,0.0,2.5,88,0.00,,,0.00,0.00,VWS V14.01,2013-08-30 01:55:00,
2013-08-29 21:56:00,71.6,63.9,30.01,NNE,31,0.0,0.0,77,0.00,,,0.00,0.00,VWS V14.01,2013-08-30 01:56:00,
2013-08-29 21:57:00,71.4,66.8,30.01,NE,44,0.0,2.5,85,0.00,,,0.00,0.73,VWS V14.01,2013-08-30 01:57:00,
2013-08-29 21:58:00,71.3,64.1,30.01,NNE,31,0.0,0.0,78,0.00,,,0.00,0.00,VWS V14.01,2013-08-30 01:58:00,
2013-08-29 21:59:00,71.2,66.5,30.01,NE,44,0.0,2.5,85,0.00,,,0.00,0.00,VWS V14.01,2013-08-30 01:59:00,
2013-08-29 22:00:00,71.8,67.1,30.01,NE,44,0.0,2.5,85,0.00,,,0.00,0.00,VWS V14.01,2013-08-30 02:00:00,
2013-08-29 22:01:00,71.8,67.0,30.01,NE,44,0.0,2.5,85,0.00,,,0.00,0.00,VWS V14.01,2013-08-30 02:01:00,
2013-08-29 22:02:00,72.1,67.2,30.01,NE,44,0.0,0.0,85,0.00,,,0.00,0.43,VWS V14.01,2013-08-30 02:02:00,
2013-08-29 22:03:00,72.3,67.3,30.01,NE,44,0.0,0.0,84,0.00,,,0.00,0.43,VWS V14.01,2013-08-30 02:03:00,
2013-08-29 22:04:00,72.2,67.1,30.01,NE,44,0.0,0.0,84,0.00,,,0.00,0.00,VWS V14.01,2013-08-30 02:04:00,
2013-08-29 22:05:00,72.0,66.7,30.01,NE,44,0.0,0.0,83,0.00,,,0.00,0.43,VWS V14.01,2013-08-30 02:05:00,
2013-08-29 22:06:00,72.0,66.5,30.01,NE,44,0.0,0.0,83,0.00,,,0.00,0.00,VWS V14.01,2013-08-30 02:06:00,
2013-08-29 22:07:00,71.8,66.3,30.02,NE,44,0.0,0.0,83,0.00,,,0.00,0.00,VWS V14.01,2013-08-30 02:07:00,
2013-08-29 22:08:00,71.6,66.2,30.01,NE,44,0.0,0.0,83,0.00,,,0.00,0.00,VWS V14.01,2013-08-30 02:08:00,
2013-08-29 22:09:00,71.5,66.2,30.01,NE,44,0.0,0.0,83,0.00,,,0.00,0.00,VWS V14.01,2013-08-30 02:09:00,
2013-08-29 22:10:00,71.5,66.3,30.01,NE,44,0.0,0.0,84,0.00,,,0.00,0.00,VWS V14.01,2013-08-30 02:10:00,
2013-08-29 22:11:00,70.2,65.2,30.01,NE,44,0.0,0.0,84,0.00,,,0.00,0.00,VWS V14.01,2013-08-30 02:11:00,
2013-08-29 22:12:00,69.3,63.3,30.01,NE,44,0.0,0.0,81,0.00,,,0.00,0.43,VWS V14.01,2013-08-30 02:12:00,
2013-08-29 22:13:00,69.4,63.7,30.01,NE,44,0.0,0.0,82,0.00,,,0.00,0.43,VWS V14.01,2013-08-30 02:13:00,
2013-08-29 22:14:00,69.4,63.7,30.01,NE,44,0.0,0.0,82,0.00,,,0.00,0.43,VWS V14.01,2013-08-30 02:14:00,
2013-08-29 22:15:00,68.9,64.5,30.01,NE,44,0.0,0.0,86,0.00,,,0.00,0.00,VWS V14.01,2013-08-30 02:15:00,
2013-08-29 22:16:00,68.6,64.4,30.02,NE,44,0.0,0.0,87,0.00,,,0.00,0.00,VWS V14.01,2013-08-30 02:16:00,
2013-08-29 22:17:00,68.8,64.8,30.01,NE,44,0.0,0.0,87,0.00,,,0.00,0.00,VWS V14.01,2013-08-30 02:17:00,
2013-08-29 22:18:00,68.8,65.4,30.02,NE,44,0.0,0.0,89,0.00,,,0.00,0.00,VWS V14.01,2013-08-30 02:18:00,
2013-08-29 22:19:00,68.7,65.3,30.01,NE,44,0.0,0.0,89,0.00,,,0.00,0.43,VWS V14.01,2013-08-30 02:19:00,
2013-08-29 22:20:00,68.7,65.4,30.01,NE,44,0.0,0.0,89,0.00,,,0.00,0.00,VWS V14.01,2013-08-30 02:20:00,
2013-08-29 22:21:00,68.9,65.8,30.04,NE,44,0.0,0.0,90,0.00,,,0.00,0.06,VWS V14.01,2013-08-30 02:21:00,
2013-08-29 22:22:00,68.8,65.7,30.01,NE,44,0.0,0.0,90,0.00,,,0.00,0.00,VWS V14.01,2013-08-30 02:22:00,
2013-08-29 22:23:00,68.5,65.5,30.01,NE,44,0.0,0.0,90,0.00,,,0.00,0.00,VWS V14.01,2013-08-30 02:23:00,
2013-08-29 22:24:00,68.4,65.5,30.03,NE,44,0.0,0.0,90,0.00,,,0.00,0.00,VWS V14.01,2013-08-30 02:24:00,
2013-08-29 22:25:00,68.5,65.7,30.00,NE,44,0.0,0.0,91,0.00,,,0.00,0.00,VWS V14.01,2013-08-30 02:25:00,
2013-08-29 22:26:00,68.6,66.0,30.00,NE,44,0.0,0.0,91,0.00,,,0.00,0.00,VWS V14.01,2013-08-30 02:26:00,
2013-08-29 22:27:00,68.7,66.2,30.01,NE,44,0.0,0.0,92,0.00,,,0.00,0.00,VWS V14.01,2013-08-30 02:27:00,
2013-08-29 22:28:00,68.8,66.5,30.01,NE,44,0.0,0.0,92,0.00,,,0.00,0.00,VWS V14.01,2013-08-30 02:28:00,
2013-08-29 22:29:00,68.8,66.6,30.01,NE,44,0.0,0.0,93,0.00,,,0.00,0.00,VWS V14.01,2013-08-30 02:29:00,
2013-08-29 22:30:00,69.2,67.2,30.01,NE,44,0.0,0.0,93,0.00,,,0.00,0.00,VWS V14.01,2013-08-30 02:30:00,
2013-08-29 22:31:00,69.2,67.3,30.01,NE,44,0.0,0.0,94,0.00,,,0.00,0.00,VWS V14.01,2013-08-30 02:31:00,
2013-08-29 22:32:00,69.2,67.3,30.01,NE,44,0.0,0.0,94,0.00,,,0.00,0.00,VWS V14.01,2013-08-30 02:32:00,
2013-08-29 22:33:00,69.3,67.6,30.00,NE,44,0.0,0.0,94,0.00,,,0.00,0.00,VWS V14.01,2013-08-30 02:33:00,
2013-08-29 22:34:00,69.4,67.7,30.00,NE,44,0.0,0.0,94,0.00,,,0.00,0.00,VWS V14.01,2013-08-30 02:34:00,
2013-08-29 22:35:00,69.5,67.9,30.00,NE,44,0.0,0.0,95,0.00,,,0.00,0.00,VWS V14.01,2013-08-30 02:35:00,
2013-08-29 22:36:00,70.7,69.1,30.00,NE,44,0.0,0.0,95,0.00,,,0.00,0.43,VWS V14.01,2013-08-30 02:36:00,
2013-08-29 22:37:00,70.8,69.2,30.00,NE,44,0.0,0.0,95,0.00,,,0.00,0.00,VWS V14.01,2013-08-30 02:37:00,
2013-08-29 22:38:00,71.2,69.7,30.00,NE,44,0.0,0.0,95,0.00,,,0.00,0.00,VWS V14.01,2013-08-30 02:38:00,
2013-08-29 22:39:00,71.2,69.3,30.01,NE,44,1.3,1.3,94,0.00,,,0.00,0.12,VWS V14.01,2013-08-30 02:39:00,
2013-08-29 22:40:00,71.3,69.2,30.00,NE,44,1.5,1.5,93,0.00,,,0.00,0.00,VWS V14.01,2013-08-30 02:40:00,
2013-08-29 22:41:00,71.0,68.4,30.00,NE,44,1.1,1.5,91,0.00,,,0.00,0.00,VWS V14.01,2013-08-30 02:41:00,
2013-08-29 22:42:00,71.1,68.2,30.01,NE,44,0.0,1.3,91,0.00,,,0.00,0.00,VWS V14.01,2013-08-30 02:42:00,
2013-08-29 22:43:00,71.1,68.1,30.01,NE,44,0.0,1.0,90,0.00,,,0.00,0.00,VWS V14.01,2013-08-30 02:43:00,
2013-08-29 22:44:00,70.4,67.2,30.00,NE,44,0.0,0.0,90,0.00,,,0.00,0.00,VWS V14.01,2013-08-30 02:44:00,
2013-08-29 22:45:00,70.9,67.7,30.00,NE,44,0.0,0.0,90,0.00,,,0.00,0.00,VWS V14.01,2013-08-30 02:45:00,
2013-08-29 22:46:00,70.8,67.6,30.00,NE,44,0.0,0.0,90,0.00,,,0.00,0.00,VWS V14.01,2013-08-30 02:46:00,
2013-08-29 22:47:00,68.8,64.8,30.00,NE,44,0.0,0.0,87,0.00,,,0.00,0.00,VWS V14.01,2013-08-30 02:47:00,
2013-08-29 22:48:00,68.8,64.8,30.00,NE,44,0.0,0.0,87,0.00,,,0.00,0.00,VWS V14.01,2013-08-30 02:48:00,
2013-08-29 22:49:00,68.2,63.6,29.99,NE,44,0.0,0.0,85,0.00,,,0.00,0.00,VWS V14.01,2013-08-30 02:49:00,
2013-08-29 22:50:00,68.0,63.8,30.00,NE,44,0.0,0.0,87,0.00,,,0.00,0.00,VWS V14.01,2013-08-30 02:50:00,
2013-08-29 22:51:00,67.8,64.0,30.00,NE,44,0.0,0.0,87,0.00,,,0.00,0.00,VWS V14.01,2013-08-30 02:51:00,
2013-08-29 22:52:00,67.7,64.1,29.99,NE,44,0.0,0.0,88,0.00,,,0.00,0.00,VWS V14.01,2013-08-30 02:52:00,
2013-08-29 22:53:00,67.9,64.3,29.99,NE,44,0.0,0.0,88,0.00,,,0.00,0.00,VWS V14.01,2013-08-30 02:53:00,
2013-08-29 22:54:00,67.7,64.6,29.99,NE,44,0.0,0.0,90,0.00,,,0.00,0.00,VWS V14.01,2013-08-30 02:54:00,
2013-08-29 22:55:00,67.6,64.5,29.99,NE,44,0.0,0.0,90,0.00,,,0.00,0.00,VWS V14.01,2013-08-30 02:55:00,
2013-08-29 22:56:00,68.9,66.3,29.99,NE,44,0.0,0.0,92,0.00,,,0.00,0.00,VWS V14.01,2013-08-30 02:56:00,
2013-08-29 22:57:00,70.0,68.0,29.99,NE,44,0.0,0.0,93,0.00,,,0.00,0.43,VWS V14.01,2013-08-30 02:57:00,
2013-08-29 22:58:00,70.0,68.2,29.98,NE,44,0.0,0.0,94,0.00,,,0.00,0.00,VWS V14.01,2013-08-30 02:58:00,
2013-08-29 22:59:00,70.2,68.6,29.98,NE,44,0.0,0.0,95,0.00,,,0.00,0.00,VWS V14.01,2013-08-30 02:59:00,
2013-08-29 23:00:00,70.2,68.7,29.98,NE,44,0.0,0.0,95,0.00,,,0.00,0.43,VWS V14.01,2013-08-30 03:00:00,
2013-08-29 23:01:00,70.1,68.5,29.98,NE,44,0.0,0.0,94,0.00,,,0.00,0.00,VWS V14.01,2013-08-30 03:01:00,
2013-08-29 23:02:00,70.3,68.6,29.99,NE,44,0.0,0.0,94,0.00,,,0.00,0.43,VWS V14.01,2013-08-30 03:02:00,
2013-08-29 23:04:00,70.1,68.2,29.99,NE,44,0.0,0.0,94,0.00,,,0.00,0.12,VWS V14.01,2013-08-30 03:04:00,
2013-08-29 23:06:00,68.2,65.2,29.99,NE,44,0.0,0.0,90,0.00,,,0.00,0.00,VWS V14.01,2013-08-30 03:06:00,
2013-08-29 23:08:00,68.1,64.6,30.00,NE,44,0.0,0.0,89,0.00,,,0.00,0.00,VWS V14.01,2013-08-30 03:08:00,
2013-08-29 23:09:00,68.1,64.9,30.00,NE,44,0.0,0.0,90,0.00,,,0.00,0.00,VWS V14.01,2013-08-30 03:09:00,
2013-08-29 23:11:00,68.3,65.7,29.99,NE,44,0.0,0.0,91,0.00,,,0.00,0.00,VWS V14.01,2013-08-30 03:11:00,
2013-08-29 23:13:00,68.2,65.7,29.99,NE,44,0.0,0.0,92,0.00,,,0.00,0.00,VWS V14.01,2013-08-30 03:13:00,
2013-08-29 23:14:00,67.9,65.4,30.00,NE,44,0.0,0.0,92,0.00,,,0.00,0.00,VWS V14.01,2013-08-30 03:14:00,
2013-08-29 23:15:00,67.6,64.9,29.98,NE,44,0.0,0.0,91,0.00,,,0.00,0.00,VWS V14.01,2013-08-30 03:15:00,
2013-08-29 23:16:00,68.3,65.7,29.99,NE,44,0.0,0.0,91,0.00,,,0.00,0.00,VWS V14.01,2013-08-30 03:16:00,
2013-08-29 23:19:00,67.8,65.4,29.98,NE,44,0.0,0.0,92,0.00,,,0.00,0.00,VWS V14.01,2013-08-30 03:19:00,
2013-08-29 23:20:00,68.4,66.4,29.99,NE,44,0.0,0.0,93,0.00,,,0.00,0.00,VWS V14.01,2013-08-30 03:20:00,
2013-08-29 23:21:00,68.6,66.5,30.00,NE,44,0.0,0.0,93,0.00,,,0.00,0.00,VWS V14.01,2013-08-30 03:21:00,
2013-08-29 23:22:00,68.6,66.5,30.00,NE,44,0.0,0.0,93,0.00,,,0.00,0.00,VWS V14.01,2013-08-30 03:22:00,
2013-08-29 23:23:00,68.6,64.9,29.99,NE,44,0.0,0.0,88,0.00,,,0.00,0.00,VWS V14.01,2013-08-30 03:23:00,
2013-08-29 23:24:00,68.4,66.2,30.00,NE,44,0.0,0.0,93,0.00,,,0.00,0.00,VWS V14.01,2013-08-30 03:24:00,
2013-08-29 23:26:00,70.0,67.0,29.99,NE,44,2.0,2.0,90,0.00,,,0.00,0.43,VWS V14.01,2013-08-30 03:26:00,
2013-08-29 23:27:00,70.8,69.0,29.99,NE,44,2.0,2.0,94,0.00,,,0.00,0.00,VWS V14.01,2013-08-30 03:27:00,
2013-08-29 23:28:00,70.5,68.6,29.99,NE,44,2.3,2.3,94,0.00,,,0.00,0.00,VWS V14.01,2013-08-30 03:28:00,
2013-08-29 23:32:00,68.6,64.5,29.98,NE,42,0.0,0.0,87,0.00,,,0.00,0.00,VWS V14.01,2013-08-30 03:32:00,
2013-08-29 23:33:00,68.6,64.5,29.98,NE,42,0.0,0.0,87,0.00,,,0.00,0.00,VWS V14.01,2013-08-30 03:33:00,
2013-08-29 23:34:00,68.1,64.1,29.98,NE,42,0.0,0.0,87,0.00,,,0.00,0.00,VWS V14.01,2013-08-30 03:34:00,
2013-08-29 23:38:00,67.5,64.3,29.99,NE,42,0.0,0.0,89,0.00,,,0.00,0.00,VWS V14.01,2013-08-30 03:38:00,
2013-08-29 23:39:00,67.5,64.3,29.99,NE,42,0.0,0.0,89,0.00,,,0.00,0.00,VWS V14.01,2013-08-30 03:39:00,
2013-08-29 23:41:00,67.1,63.9,29.97,NE,42,0.0,0.0,89,0.00,,,0.00,0.06,VWS V14.01,2013-08-30 03:41:00,
2013-08-29 23:42:00,67.0,63.6,29.99,NE,42,0.0,0.0,89,0.00,,,0.00,0.00,VWS V14.01,2013-08-30 03:42:00,
2013-08-29 23:44:00,66.6,63.2,29.99,NE,42,0.0,0.0,89,0.00,,,0.00,0.43,VWS V14.01,2013-08-30 03:44:00,
2013-08-29 23:45:00,66.4,63.2,29.99,NE,42,0.0,0.0,89,0.00,,,0.00,0.00,VWS V14.01,2013-08-30 03:45:00,
2013-08-29 23:48:00,66.6,64.0,29.99,NE,42,0.0,0.0,92,0.00,,,0.00,0.00,VWS V14.01,2013-08-30 03:48:00,
2013-08-29 23:49:00,67.2,65.3,29.99,NE,42,0.0,0.0,94,0.00,,,0.00,0.43,VWS V14.01,2013-08-30 03:49:00,
2013-08-29 23:50:00,67.2,64.9,29.99,NE,42,0.0,0.0,92,0.00,,,0.00,0.00,VWS V14.01,2013-08-30 03:50:00,
2013-08-29 23:52:00,66.8,65.2,29.99,NE,42,0.0,0.0,95,0.00,,,0.00,0.00,VWS V14.01,2013-08-30 03:52:00,
2013-08-29 23:53:00,66.8,65.2,29.99,NE,42,0.0,0.0,95,0.00,,,0.00,0.00,VWS V14.01,2013-08-30 03:53:00,
2013-08-29 23:55:00,67.1,65.5,29.98,NE,42,0.0,0.0,94,0.00,,,0.00,0.00,VWS V14.01,2013-08-30 03:55:00,
2013-08-29 23:56:00,67.9,66.4,29.99,NE,42,0.0,0.0,95,0.00,,,0.00,0.00,VWS V14.01,2013-08-30 03:56:00,
2013-08-29 23:58:00,67.0,65.8,29.97,NE,42,0.0,0.0,96,0.00,,,0.00,0.00,VWS V14.01,2013-08-30 03:58:00,
2013-08-29 23:59:00,66.9,65.4,29.98,NE,42,0.0,0.0,95,0.00,,,0.00,0.00,VWS V14.01,2013-08-30 03:59:00,